Darstellungsparameter: Aktuell verwendete Einstellungen:
Skalierung der Graphiken ... ?
xyx+y,   Skalierungsfaktor:      Skalierung: Modus: x, Faktor: 1
Darstellungszeitraum ... ?
Vom - - bis: - -   Zeitraum: 04.01.2014 - 04.07.2014
Min/Max/Avg-Anzeige ... ?
Zeige MMA aktuell
Zeige MMA Monat
Zeige MMA alles
Zeige --A aktuell
Zeige --A Monat
Zeige --A alles
Keine MMA-Anzeige
MMA:
Average (ber die Originaldaten)
MMA-Basis: 03.06.2014 - 05.07.2014
Quicknavigation für Darstellung... ?
Tage:      1T, 2T, 3T, 5T -1T -2T -3T -5T +1T +2T +3T +5T
Wochen: 1W, 2W, 3W -1W -2W -3W +1W +2W +3W
Monate: 1M, 3M, 6M -1M -3M -6M +1M +3M +6M
Jahre:    1J, 3J, 5J, 10J -1J -3J -5J -10J +1J +3J +5J +10J
Nutze für die Darstellung ... ?
Originaldaten oder Mittelwerte auf ...
Stundenbasis Tagesbasis Wochenbasis
Monatsbasis Jahresbasis      Datenbasis: Original-Daten
Darstellen als:
Statistik (Auto) Statistik J:M      Darstellung:
Zur Graphik,    zurück zur Übersicht aller Sensoren.
 
Tabellarische Datenbersicht: ?
 
Sensor: Nr:Datum:Temp:Abs-Feuchte:Windchill:Wind:
Aussen-T/F 1 04-01-2014 00:00:00 10.3 C 6.7 g/m*3 7.82 C 19.3 km/h
2 04-01-2014 00:05:00 10.3 C 6.61 g/m*3 8.16 C 16.1 km/h
3 04-01-2014 00:10:00 10.3 C 6.61 g/m*3 8.55 C 12.9 km/h
4 04-01-2014 00:15:00 10.2 C 6.66 g/m*3 9.22 C 8.1 km/h
5 04-01-2014 00:20:00 9.9 C 6.63 g/m*3 7.85 C 14.5 km/h
6 04-01-2014 00:25:00 9.7 C 6.64 g/m*3 8.06 C 11.3 km/h
7 04-01-2014 00:30:00 9.5 C 6.64 g/m*3 8.4 C 8.1 km/h
8 04-01-2014 00:35:00 9.4 C 6.6 g/m*3 8.68 C 6.4 km/h
9 04-01-2014 00:40:00 9.4 C 6.6 g/m*3 9.4 C 4.8 km/h
10 04-01-2014 00:45:00 9.3 C 6.56 g/m*3 8.56 C 6.4 km/h
11 04-01-2014 00:50:00 9.2 C 6.61 g/m*3 8.05 C 8.1 km/h
12 04-01-2014 00:55:00 9.3 C 6.65 g/m*3 7.85 C 9.7 km/h
13 04-01-2014 01:00:00 9 C 6.61 g/m*3 9 C 1.6 km/h
14 04-01-2014 01:05:00 8.9 C 6.57 g/m*3 6.62 C 14.5 km/h
15 04-01-2014 01:10:00 9 C 6.7 g/m*3 9 C 3.2 km/h
16 04-01-2014 01:15:00 8.8 C 6.61 g/m*3 7.98 C 6.4 km/h
17 04-01-2014 01:20:00 8.8 C 6.61 g/m*3 8.8 C 3.2 km/h
18 04-01-2014 01:25:00 8.8 C 6.7 g/m*3 8.8 C 1.6 km/h
19 04-01-2014 01:30:00 8.6 C 6.7 g/m*3 7.75 C 6.4 km/h
20 04-01-2014 01:35:00 8.6 C 6.7 g/m*3 8.6 C 3.2 km/h
21 04-01-2014 01:40:00 8.3 C 6.74 g/m*3 6.99 C 8.1 km/h
22 04-01-2014 01:45:00 8.1 C 6.74 g/m*3 8.1 C 4.8 km/h
23 04-01-2014 01:50:00 8.2 C 6.87 g/m*3 7.29 C 6.4 km/h
24 04-01-2014 01:55:00 7.9 C 6.74 g/m*3 7.9 C 4.8 km/h
25 04-01-2014 02:00:00 7.8 C 6.77 g/m*3 7.8 C 4.8 km/h
Sensor: Nr:Datum:Temp:Abs-Feuchte:Windchill:Wind:
Aussen-T/F 26 04-01-2014 02:05:00 7.6 C 6.69 g/m*3 7.6 C 3.2 km/h
27 04-01-2014 02:10:00 7.5 C 6.72 g/m*3 7.5 C 4.8 km/h
28 04-01-2014 02:15:00 7.5 C 6.72 g/m*3 6.48 C 6.4 km/h
29 04-01-2014 02:20:00 7.8 C 6.77 g/m*3 6.83 C 6.4 km/h
30 04-01-2014 02:25:00 7.6 C 6.77 g/m*3 7.6 C 4.8 km/h
31 04-01-2014 02:30:00 7.4 C 6.68 g/m*3 7.4 C 3.2 km/h
32 04-01-2014 02:35:00 7.4 C 6.68 g/m*3 7.4 C 3.2 km/h
33 04-01-2014 02:40:00 7.4 C 6.68 g/m*3 7.4 C 4.8 km/h
34 04-01-2014 02:45:00 7.4 C 6.68 g/m*3 7.4 C 4.8 km/h
35 04-01-2014 02:50:00 7.6 C 6.69 g/m*3 7.6 C 3.2 km/h
36 04-01-2014 02:55:00 7.7 C 6.65 g/m*3 6.28 C 8.1 km/h
37 04-01-2014 03:00:00 7.9 C 6.74 g/m*3 7.9 C 4.8 km/h
38 04-01-2014 03:05:00 7.9 C 6.65 g/m*3 7.9 C 4.8 km/h
39 04-01-2014 03:10:00 7.9 C 6.65 g/m*3 6.18 C 9.7 km/h
40 04-01-2014 03:15:00 8.1 C 6.82 g/m*3 8.1 C 1.6 km/h
41 04-01-2014 03:20:00 7.9 C 6.74 g/m*3 7.9 C 3.2 km/h
42 04-01-2014 03:25:00 7.8 C 6.77 g/m*3 7.8 C 3.2 km/h
43 04-01-2014 03:30:00 7.9 C 6.74 g/m*3 6.94 C 6.4 km/h
44 04-01-2014 03:35:00 8.1 C 6.74 g/m*3 8.1 C 3.2 km/h
45 04-01-2014 03:40:00 8 C 6.78 g/m*3 8 C 4.8 km/h
46 04-01-2014 03:45:00 8.1 C 6.82 g/m*3 8.1 C 4.8 km/h
47 04-01-2014 03:50:00 7.9 C 6.82 g/m*3 7.9 C 3.2 km/h
48 04-01-2014 03:55:00 7.6 C 6.77 g/m*3 7.6 C 4.8 km/h
49 04-01-2014 04:00:00 7.3 C 6.72 g/m*3 7.3 C 3.2 km/h
50 04-01-2014 04:05:00 7.1 C 6.71 g/m*3 7.1 C 4.8 km/h
Sensor: Nr:Datum:Temp:Abs-Feuchte:Windchill:Wind:
Aussen-T/F 51 04-01-2014 04:10:00 7.1 C 6.79 g/m*3 7.1 C 3.2 km/h
52 04-01-2014 04:15:00 7.2 C 6.83 g/m*3 7.2 C 3.2 km/h
53 04-01-2014 04:20:00 7.2 C 6.83 g/m*3 7.2 C 1.6 km/h
54 04-01-2014 04:25:00 7.6 C 6.85 g/m*3 7.6 C 3.2 km/h
55 04-01-2014 04:30:00 7.6 C 6.85 g/m*3 7.6 C 3.2 km/h
56 04-01-2014 04:35:00 7.7 C 6.81 g/m*3 7.7 C 1.6 km/h
57 04-01-2014 04:40:00 7.7 C 6.89 g/m*3 7.7 C 1.6 km/h
58 04-01-2014 04:45:00 7.6 C 6.85 g/m*3 7.6 C 3.2 km/h
59 04-01-2014 04:50:00 7.3 C 6.79 g/m*3 7.3 C 1.6 km/h
60 04-01-2014 04:55:00 7.2 C 6.75 g/m*3 7.2 C 1.6 km/h
61 04-01-2014 05:00:00 7.1 C 6.71 g/m*3 7.1 C 3.2 km/h
62 04-01-2014 05:05:00 6.8 C 6.58 g/m*3 6.8 C 3.2 km/h
63 04-01-2014 05:10:00 6.6 C 6.64 g/m*3 6.6 C 3.2 km/h
64 04-01-2014 05:15:00 6.4 C 6.56 g/m*3 6.4 C 3.2 km/h
65 04-01-2014 05:20:00 6.3 C 6.59 g/m*3 6.3 C 4.8 km/h
66 04-01-2014 05:25:00 6.2 C 6.55 g/m*3 6.2 C 3.2 km/h
67 04-01-2014 05:30:00 6 C 6.53 g/m*3 6 C 3.2 km/h
68 04-01-2014 05:35:00 5.9 C 6.49 g/m*3 5.9 C 3.2 km/h
69 04-01-2014 05:40:00 5.9 C 6.56 g/m*3 5.9 C 3.2 km/h
70 04-01-2014 05:45:00 5.8 C 6.52 g/m*3 5.8 C 3.2 km/h
71 04-01-2014 05:50:00 5.8 C 6.52 g/m*3 5.8 C 1.6 km/h
72 04-01-2014 05:55:00 5.7 C 6.48 g/m*3 5.7 C 3.2 km/h
73 04-01-2014 06:00:00 5.6 C 6.43 g/m*3 5.6 C 3.2 km/h
74 04-01-2014 06:05:00 5.5 C 6.39 g/m*3 5.5 C 3.2 km/h
75 04-01-2014 06:10:00 5.4 C 6.35 g/m*3 5.4 C 3.2 km/h
Sensor: Nr:Datum:Temp:Abs-Feuchte:Windchill:Wind:
Aussen-T/F 76 04-01-2014 06:15:00 5.3 C 6.31 g/m*3 5.3 C 3.2 km/h
77 04-01-2014 06:20:00 5.3 C 6.38 g/m*3 5.3 C 3.2 km/h
78 04-01-2014 06:25:00 5.2 C 6.33 g/m*3 5.2 C 4.8 km/h
79 04-01-2014 06:30:00 5.2 C 6.33 g/m*3 5.2 C 4.8 km/h
80 04-01-2014 06:35:00 5.2 C 6.33 g/m*3 5.2 C 3.2 km/h
81 04-01-2014 06:40:00 5.2 C 6.33 g/m*3 5.2 C 3.2 km/h
82 04-01-2014 06:45:00 5.2 C 6.4 g/m*3 5.2 C 3.2 km/h
83 04-01-2014 06:50:00 5.2 C 6.4 g/m*3 5.2 C 3.2 km/h
84 04-01-2014 06:55:00 5.3 C 6.38 g/m*3 5.3 C 4.8 km/h
85 04-01-2014 07:00:00 5.3 C 6.38 g/m*3 5.3 C 3.2 km/h
86 04-01-2014 07:05:00 5.3 C 6.38 g/m*3 5.3 C 3.2 km/h
87 04-01-2014 07:10:00 5.4 C 6.49 g/m*3 3.58 C 8.1 km/h
88 04-01-2014 07:15:00 5.7 C 6.55 g/m*3 4.4 C 6.4 km/h
89 04-01-2014 07:20:00 5.9 C 6.63 g/m*3 4.63 C 6.4 km/h
90 04-01-2014 07:25:00 6.2 C 6.62 g/m*3 4.98 C 6.4 km/h
91 04-01-2014 07:30:00 6.3 C 6.66 g/m*3 6.3 C 4.8 km/h
92 04-01-2014 07:35:00 6.5 C 6.67 g/m*3 4.87 C 8.1 km/h
93 04-01-2014 07:40:00 6.7 C 6.69 g/m*3 5.56 C 6.4 km/h
94 04-01-2014 07:45:00 6.7 C 6.69 g/m*3 6.7 C 4.8 km/h
95 04-01-2014 07:50:00 6.6 C 6.64 g/m*3 6.6 C 3.2 km/h
96 04-01-2014 07:55:00 6.7 C 6.69 g/m*3 6.7 C 4.8 km/h
97 04-01-2014 08:00:00 6.8 C 6.73 g/m*3 5.22 C 8.1 km/h
98 04-01-2014 08:05:00 6.9 C 6.7 g/m*3 5.34 C 8.1 km/h
99 04-01-2014 08:10:00 7 C 6.74 g/m*3 5.46 C 8.1 km/h
100 04-01-2014 08:15:00 7.1 C 6.79 g/m*3 5.58 C 8.1 km/h
Sensor: Nr:Datum:Temp:Abs-Feuchte:Windchill:Wind:
Aussen-T/F 101 04-01-2014 08:20:00 7.2 C 6.83 g/m*3 5.35 C 9.7 km/h
102 04-01-2014 08:25:00 7.2 C 6.75 g/m*3 7.2 C 4.8 km/h
103 04-01-2014 08:30:00 7.2 C 6.75 g/m*3 6.13 C 6.4 km/h
104 04-01-2014 08:35:00 7.2 C 6.75 g/m*3 7.2 C 4.8 km/h
105 04-01-2014 08:40:00 7.1 C 6.79 g/m*3 5.58 C 8.1 km/h
106 04-01-2014 08:45:00 6.9 C 6.7 g/m*3 5.79 C 6.4 km/h
107 04-01-2014 08:50:00 6.8 C 6.65 g/m*3 6.8 C 4.8 km/h
108 04-01-2014 08:55:00 6.8 C 6.73 g/m*3 6.8 C 4.8 km/h
109 04-01-2014 09:00:00 6.9 C 6.7 g/m*3 4.68 C 11.3 km/h
110 04-01-2014 09:05:00 6.9 C 6.7 g/m*3 5.79 C 6.4 km/h
111 04-01-2014 09:10:00 6.9 C 6.77 g/m*3 6.9 C 4.8 km/h
112 04-01-2014 09:15:00 7 C 6.74 g/m*3 7 C 4.8 km/h
113 04-01-2014 09:20:00 6.9 C 6.77 g/m*3 5.79 C 6.4 km/h
114 04-01-2014 09:25:00 6.9 C 6.77 g/m*3 6.9 C 4.8 km/h
115 04-01-2014 09:30:00 7.1 C 6.79 g/m*3 6.02 C 6.4 km/h
116 04-01-2014 09:35:00 7.3 C 6.87 g/m*3 5.16 C 11.3 km/h
117 04-01-2014 09:40:00 7.5 C 6.88 g/m*3 6.48 C 6.4 km/h
118 04-01-2014 09:45:00 7.7 C 6.89 g/m*3 7.7 C 4.8 km/h
119 04-01-2014 09:50:00 7.7 C 6.89 g/m*3 6.71 C 6.4 km/h
120 04-01-2014 09:55:00 7.7 C 6.89 g/m*3 7.7 C 4.8 km/h
121 04-01-2014 10:00:00 7.7 C 6.97 g/m*3 7.7 C 4.8 km/h
122 04-01-2014 10:05:00 7.7 C 6.97 g/m*3 7.7 C 4.8 km/h
123 04-01-2014 10:10:00 7.8 C 7.02 g/m*3 6.06 C 9.7 km/h
124 04-01-2014 10:15:00 7.8 C 7.02 g/m*3 7.8 C 4.8 km/h
125 04-01-2014 10:20:00 7.8 C 7.02 g/m*3 6.4 C 8.1 km/h
Sensor: Nr:Datum:Temp:Abs-Feuchte:Windchill:Wind:
Aussen-T/F 126 04-01-2014 10:25:00 7.9 C 7.06 g/m*3 6.52 C 8.1 km/h
127 04-01-2014 10:30:00 7.9 C 7.06 g/m*3 6.52 C 8.1 km/h
128 04-01-2014 10:35:00 8 C 7.11 g/m*3 6.64 C 8.1 km/h
129 04-01-2014 10:40:00 8.1 C 7.16 g/m*3 6.75 C 8.1 km/h
130 04-01-2014 10:45:00 8.1 C 7.16 g/m*3 8.1 C 4.8 km/h
131 04-01-2014 10:50:00 8.1 C 7.16 g/m*3 7.17 C 6.4 km/h
132 04-01-2014 10:55:00 8.1 C 7.16 g/m*3 7.17 C 6.4 km/h
133 04-01-2014 11:00:00 8.2 C 7.12 g/m*3 6.87 C 8.1 km/h
134 04-01-2014 11:05:00 8.2 C 7.12 g/m*3 6.25 C 11.3 km/h
135 04-01-2014 11:10:00 8.2 C 7.12 g/m*3 6.54 C 9.7 km/h
136 04-01-2014 11:15:00 8.2 C 7.12 g/m*3 6.87 C 8.1 km/h
137 04-01-2014 11:20:00 8.2 C 7.12 g/m*3 7.29 C 6.4 km/h
138 04-01-2014 11:25:00 8.2 C 7.12 g/m*3 6.54 C 9.7 km/h
139 04-01-2014 11:30:00 8.2 C 7.12 g/m*3 7.29 C 6.4 km/h
140 04-01-2014 11:35:00 8.3 C 7.16 g/m*3 6.99 C 8.1 km/h
141 04-01-2014 11:40:00 8.3 C 7.16 g/m*3 8.3 C 4.8 km/h
142 04-01-2014 11:45:00 8.4 C 7.21 g/m*3 8.4 C 4.8 km/h
143 04-01-2014 11:50:00 8.4 C 7.13 g/m*3 7.52 C 6.4 km/h
144 04-01-2014 11:55:00 8.5 C 7.17 g/m*3 7.64 C 6.4 km/h
145 04-01-2014 12:00:00 8.6 C 7.13 g/m*3 8.6 C 4.8 km/h
146 04-01-2014 12:05:00 8.7 C 7.18 g/m*3 8.7 C 4.8 km/h
147 04-01-2014 12:10:00 8.7 C 7.18 g/m*3 7.13 C 9.7 km/h
148 04-01-2014 12:15:00 8.8 C 7.14 g/m*3 8.8 C 4.8 km/h
149 04-01-2014 12:20:00 8.9 C 7.18 g/m*3 8.9 C 3.2 km/h
150 04-01-2014 12:25:00 9 C 7.23 g/m*3 9 C 4.8 km/h
Sensor: Nr:Datum:Temp:Abs-Feuchte:Windchill:Wind:
Aussen-T/F 151 04-01-2014 12:30:00 9.1 C 7.28 g/m*3 9.1 C 3.2 km/h
152 04-01-2014 12:35:00 9.2 C 7.23 g/m*3 8.45 C 6.4 km/h
153 04-01-2014 12:40:00 9.3 C 7.19 g/m*3 9.3 C 4.8 km/h
154 04-01-2014 12:45:00 9.4 C 7.33 g/m*3 9.4 C 4.8 km/h
155 04-01-2014 12:50:00 9.4 C 7.33 g/m*3 9.4 C 3.2 km/h
156 04-01-2014 12:55:00 9.4 C 7.33 g/m*3 8.68 C 6.4 km/h
157 04-01-2014 13:00:00 9.4 C 7.24 g/m*3 8.68 C 6.4 km/h
158 04-01-2014 13:05:00 9.5 C 7.28 g/m*3 7.82 C 11.3 km/h
159 04-01-2014 13:10:00 9.5 C 7.28 g/m*3 8.79 C 6.4 km/h
160 04-01-2014 13:15:00 9.5 C 7.28 g/m*3 7.82 C 11.3 km/h
161 04-01-2014 13:20:00 9.4 C 7.24 g/m*3 7.7 C 11.3 km/h
162 04-01-2014 13:25:00 9.4 C 7.33 g/m*3 8.28 C 8.1 km/h
163 04-01-2014 13:30:00 9.4 C 7.24 g/m*3 8.68 C 6.4 km/h
164 04-01-2014 13:35:00 9.4 C 7.24 g/m*3 9.4 C 4.8 km/h
165 04-01-2014 13:40:00 9.4 C 7.33 g/m*3 8.68 C 6.4 km/h
166 04-01-2014 13:45:00 9.4 C 7.33 g/m*3 9.4 C 4.8 km/h
167 04-01-2014 13:50:00 9.4 C 7.33 g/m*3 8.28 C 8.1 km/h
168 04-01-2014 13:55:00 9.3 C 7.28 g/m*3 9.3 C 3.2 km/h
169 04-01-2014 14:00:00 9.3 C 7.28 g/m*3 9.3 C 4.8 km/h
170 04-01-2014 14:05:00 9.2 C 7.14 g/m*3 8.05 C 8.1 km/h
171 04-01-2014 14:10:00 9.2 C 7.23 g/m*3 9.2 C 3.2 km/h
172 04-01-2014 14:15:00 9.2 C 7.23 g/m*3 9.2 C 4.8 km/h
173 04-01-2014 14:20:00 9.1 C 7.19 g/m*3 9.1 C 4.8 km/h
174 04-01-2014 14:25:00 9.1 C 7.28 g/m*3 9.1 C 3.2 km/h
175 04-01-2014 14:30:00 9.1 C 7.28 g/m*3 9.1 C 0 km/h
Sensor: Nr:Datum:Temp:Abs-Feuchte:Windchill:Wind:
Aussen-T/F 176 04-01-2014 14:35:00 9.1 C 7.28 g/m*3 9.1 C 0 km/h
177 04-01-2014 14:40:00 8.9 C 7.36 g/m*3 8.9 C 0 km/h
178 04-01-2014 14:45:00 8.8 C 7.31 g/m*3 8.8 C 0 km/h
179 04-01-2014 14:50:00 8.8 C 7.57 g/m*3 8.8 C 0 km/h
180 04-01-2014 14:55:00 8.7 C 7.61 g/m*3 8.7 C 0 km/h
181 04-01-2014 15:00:00 8.4 C 7.63 g/m*3 8.4 C 0 km/h
182 04-01-2014 15:05:00 8.3 C 7.67 g/m*3 8.3 C 0 km/h
183 04-01-2014 15:10:00 8.2 C 7.62 g/m*3 8.2 C 1.6 km/h
184 04-01-2014 15:15:00 8.1 C 7.66 g/m*3 8.1 C 0 km/h
185 04-01-2014 15:20:00 7.9 C 7.64 g/m*3 7.9 C 0 km/h
186 04-01-2014 15:25:00 7.8 C 7.59 g/m*3 7.8 C 0 km/h
187 04-01-2014 15:30:00 7.8 C 7.59 g/m*3 7.8 C 0 km/h
188 04-01-2014 15:35:00 7.7 C 7.62 g/m*3 7.7 C 0 km/h
189 04-01-2014 15:40:00 7.7 C 7.62 g/m*3 7.7 C 0 km/h
190 04-01-2014 15:45:00 7.7 C 7.62 g/m*3 7.7 C 0 km/h
191 04-01-2014 15:50:00 7.6 C 7.57 g/m*3 7.6 C 0 km/h
192 04-01-2014 15:55:00 7.6 C 7.65 g/m*3 7.6 C 0 km/h
193 04-01-2014 16:00:00 7.5 C 7.6 g/m*3 7.5 C 0 km/h
194 04-01-2014 16:05:00 7.4 C 7.55 g/m*3 7.4 C 0 km/h
195 04-01-2014 16:10:00 7.4 C 7.55 g/m*3 7.4 C 0 km/h
196 04-01-2014 16:15:00 7.4 C 7.55 g/m*3 7.4 C 0 km/h
197 04-01-2014 16:20:00 7.3 C 7.51 g/m*3 7.3 C 0 km/h
198 04-01-2014 16:25:00 7.3 C 7.51 g/m*3 7.3 C 0 km/h
199 04-01-2014 16:30:00 7.3 C 7.51 g/m*3 7.3 C 0 km/h
200 04-01-2014 16:35:00 7.2 C 7.54 g/m*3 7.2 C 0 km/h
Sensor: Nr:Datum:Temp:Abs-Feuchte:Windchill:Wind:
Aussen-T/F 201 04-01-2014 16:40:00 7.2 C 7.54 g/m*3 7.2 C 0 km/h
202 04-01-2014 16:45:00 7.2 C 7.54 g/m*3 7.2 C 0 km/h
203 04-01-2014 16:50:00 7.1 C 7.49 g/m*3 7.1 C 0 km/h
204 04-01-2014 16:55:00 7.1 C 7.49 g/m*3 7.1 C 0 km/h
205 04-01-2014 17:00:00 7 C 7.44 g/m*3 7 C 0 km/h
206 04-01-2014 17:05:00 6.9 C 7.39 g/m*3 6.9 C 0 km/h
207 04-01-2014 17:10:00 6.9 C 7.39 g/m*3 6.9 C 0 km/h
208 04-01-2014 17:15:00 6.8 C 7.34 g/m*3 6.8 C 0 km/h
209 04-01-2014 17:20:00 6.7 C 7.29 g/m*3 6.7 C 0 km/h
210 04-01-2014 17:25:00 6.7 C 7.29 g/m*3 6.7 C 1.6 km/h
211 04-01-2014 17:30:00 6.6 C 7.25 g/m*3 6.6 C 0 km/h
212 04-01-2014 17:35:00 6.6 C 7.25 g/m*3 6.6 C 0 km/h
213 04-01-2014 17:40:00 6.6 C 7.25 g/m*3 6.6 C 0 km/h
214 04-01-2014 17:45:00 6.6 C 7.25 g/m*3 6.6 C 0 km/h
215 04-01-2014 17:50:00 6.6 C 7.25 g/m*3 6.6 C 0 km/h
216 04-01-2014 17:55:00 6.6 C 7.25 g/m*3 6.6 C 1.6 km/h
217 04-01-2014 18:00:00 6.6 C 7.25 g/m*3 6.6 C 1.6 km/h
218 04-01-2014 18:05:00 6.7 C 7.37 g/m*3 5.11 C 8.1 km/h
219 04-01-2014 18:10:00 6.7 C 7.37 g/m*3 6.7 C 4.8 km/h
220 04-01-2014 18:15:00 6.7 C 7.29 g/m*3 6.7 C 1.6 km/h
221 04-01-2014 18:20:00 6.7 C 7.29 g/m*3 6.7 C 0 km/h
222 04-01-2014 18:25:00 6.7 C 7.29 g/m*3 6.7 C 0 km/h
223 04-01-2014 18:30:00 6.6 C 7.25 g/m*3 6.6 C 1.6 km/h
224 04-01-2014 18:35:00 6.6 C 7.32 g/m*3 6.6 C 0 km/h
225 04-01-2014 18:40:00 6.6 C 7.25 g/m*3 6.6 C 0 km/h
Sensor: Nr:Datum:Temp:Abs-Feuchte:Windchill:Wind:
Aussen-T/F 226 04-01-2014 18:45:00 6.7 C 7.37 g/m*3 6.7 C 0 km/h
227 04-01-2014 18:50:00 6.7 C 7.37 g/m*3 6.7 C 0 km/h
228 04-01-2014 18:55:00 6.7 C 7.37 g/m*3 6.7 C 0 km/h
229 04-01-2014 19:00:00 6.8 C 7.42 g/m*3 6.8 C 0 km/h
230 04-01-2014 19:05:00 6.8 C 7.42 g/m*3 6.8 C 0 km/h
231 04-01-2014 19:10:00 6.8 C 7.42 g/m*3 6.8 C 3.2 km/h
232 04-01-2014 19:15:00 6.8 C 7.42 g/m*3 6.8 C 1.6 km/h
233 04-01-2014 19:20:00 6.8 C 7.42 g/m*3 6.8 C 1.6 km/h
234 04-01-2014 19:25:00 6.7 C 7.37 g/m*3 6.7 C 1.6 km/h
235 04-01-2014 19:30:00 6.6 C 7.32 g/m*3 6.6 C 3.2 km/h
236 04-01-2014 19:35:00 6.6 C 7.32 g/m*3 6.6 C 1.6 km/h
237 04-01-2014 19:40:00 6.4 C 7.23 g/m*3 6.4 C 3.2 km/h
238 04-01-2014 19:45:00 6.3 C 7.11 g/m*3 6.3 C 4.8 km/h
239 04-01-2014 19:50:00 6.3 C 7.18 g/m*3 6.3 C 3.2 km/h
240 04-01-2014 19:55:00 6.2 C 7.13 g/m*3 6.2 C 0 km/h
241 04-01-2014 20:00:00 6.2 C 7.13 g/m*3 6.2 C 0 km/h
242 04-01-2014 20:05:00 6.3 C 7.18 g/m*3 6.3 C 0 km/h
243 04-01-2014 20:10:00 6.4 C 7.23 g/m*3 6.4 C 0 km/h
244 04-01-2014 20:15:00 6.4 C 7.23 g/m*3 6.4 C 0 km/h
245 04-01-2014 20:20:00 6.6 C 7.32 g/m*3 6.6 C 0 km/h
246 04-01-2014 20:25:00 6.6 C 7.32 g/m*3 6.6 C 0 km/h
247 04-01-2014 20:30:00 6.6 C 7.32 g/m*3 6.6 C 0 km/h
248 04-01-2014 20:35:00 6.7 C 7.37 g/m*3 6.7 C 0 km/h
249 04-01-2014 20:40:00 6.7 C 7.37 g/m*3 6.7 C 0 km/h
250 04-01-2014 20:45:00 6.8 C 7.42 g/m*3 6.8 C 0 km/h
Sensor: Nr:Datum:Temp:Abs-Feuchte:Windchill:Wind:
Aussen-T/F 251 04-01-2014 20:50:00 6.8 C 7.42 g/m*3 6.8 C 0 km/h
252 04-01-2014 20:55:00 6.8 C 7.42 g/m*3 6.8 C 4.8 km/h
253 04-01-2014 21:00:00 6.8 C 7.42 g/m*3 6.8 C 1.6 km/h
254 04-01-2014 21:05:00 7 C 7.59 g/m*3 7 C 1.6 km/h
255 04-01-2014 21:10:00 7.1 C 7.57 g/m*3 7.1 C 4.8 km/h
256 04-01-2014 21:15:00 7.1 C 7.57 g/m*3 7.1 C 1.6 km/h
257 04-01-2014 21:20:00 7 C 7.52 g/m*3 7 C 3.2 km/h
258 04-01-2014 21:25:00 7 C 7.52 g/m*3 7 C 1.6 km/h
259 04-01-2014 21:30:00 7.1 C 7.57 g/m*3 7.1 C 1.6 km/h
260 04-01-2014 21:35:00 7 C 7.52 g/m*3 7 C 3.2 km/h
261 04-01-2014 21:40:00 6.9 C 7.47 g/m*3 6.9 C 4.8 km/h
262 04-01-2014 21:45:00 7.1 C 7.57 g/m*3 7.1 C 3.2 km/h
263 04-01-2014 21:50:00 7.2 C 7.61 g/m*3 7.2 C 1.6 km/h
264 04-01-2014 21:55:00 7.2 C 7.61 g/m*3 7.2 C 0 km/h
265 04-01-2014 22:00:00 6.9 C 7.39 g/m*3 6.9 C 0 km/h
266 04-01-2014 22:05:00 6.8 C 7.34 g/m*3 6.8 C 3.2 km/h
267 04-01-2014 22:10:00 6.8 C 7.34 g/m*3 6.8 C 1.6 km/h
268 04-01-2014 22:15:00 6.7 C 7.29 g/m*3 6.7 C 3.2 km/h
269 04-01-2014 22:20:00 6.8 C 7.34 g/m*3 6.8 C 4.8 km/h
270 04-01-2014 22:25:00 6.9 C 7.39 g/m*3 6.9 C 3.2 km/h
271 04-01-2014 22:30:00 6.9 C 7.39 g/m*3 6.9 C 3.2 km/h
272 04-01-2014 22:35:00 6.9 C 7.39 g/m*3 6.9 C 3.2 km/h
273 04-01-2014 22:40:00 6.9 C 7.39 g/m*3 6.9 C 3.2 km/h
274 04-01-2014 22:45:00 6.9 C 7.39 g/m*3 6.9 C 1.6 km/h
275 04-01-2014 22:50:00 7.1 C 7.57 g/m*3 7.1 C 3.2 km/h
Sensor: Nr:Datum:Temp:Abs-Feuchte:Windchill:Wind:
Aussen-T/F 276 04-01-2014 22:55:00 7.1 C 7.49 g/m*3 7.1 C 3.2 km/h
277 04-01-2014 23:00:00 7 C 7.44 g/m*3 7 C 3.2 km/h
278 04-01-2014 23:05:00 7.1 C 7.57 g/m*3 7.1 C 4.8 km/h
279 04-01-2014 23:10:00 7 C 7.44 g/m*3 7 C 3.2 km/h
280 04-01-2014 23:15:00 6.9 C 7.39 g/m*3 6.9 C 3.2 km/h
281 04-01-2014 23:20:00 6.8 C 7.34 g/m*3 6.8 C 3.2 km/h
282 04-01-2014 23:25:00 6.9 C 7.47 g/m*3 6.9 C 4.8 km/h
283 04-01-2014 23:30:00 6.9 C 7.47 g/m*3 6.9 C 4.8 km/h
284 04-01-2014 23:35:00 6.9 C 7.47 g/m*3 6.9 C 4.8 km/h
285 04-01-2014 23:40:00 6.9 C 7.47 g/m*3 6.9 C 3.2 km/h
286 04-01-2014 23:45:00 6.9 C 7.47 g/m*3 6.9 C 3.2 km/h
287 04-01-2014 23:50:00 6.8 C 7.42 g/m*3 6.8 C 3.2 km/h
288 04-01-2014 23:55:00 6.8 C 7.42 g/m*3 6.8 C 3.2 km/h
289 05-01-2014 00:00:00 6.7 C 7.37 g/m*3 6.7 C 1.6 km/h
290 05-01-2014 00:05:00 6.7 C 7.37 g/m*3 6.7 C 3.2 km/h
291 05-01-2014 00:10:00 6.8 C 7.42 g/m*3 6.8 C 3.2 km/h
292 05-01-2014 00:15:00 6.8 C 7.42 g/m*3 6.8 C 3.2 km/h
293 05-01-2014 00:20:00 6.9 C 7.47 g/m*3 6.9 C 3.2 km/h
294 05-01-2014 00:25:00 6.9 C 7.47 g/m*3 6.9 C 3.2 km/h
295 05-01-2014 00:30:00 6.9 C 7.47 g/m*3 6.9 C 3.2 km/h
296 05-01-2014 00:35:00 6.9 C 7.47 g/m*3 6.9 C 4.8 km/h
297 05-01-2014 00:40:00 7 C 7.52 g/m*3 7 C 3.2 km/h
298 05-01-2014 00:45:00 6.9 C 7.47 g/m*3 6.9 C 1.6 km/h
299 05-01-2014 00:50:00 6.9 C 7.47 g/m*3 6.9 C 3.2 km/h
300 05-01-2014 00:55:00 6.9 C 7.47 g/m*3 6.9 C 3.2 km/h
Sensor: Nr:Datum:Temp:Abs-Feuchte:Windchill:Wind:
Aussen-T/F 301 05-01-2014 01:00:00 7.1 C 7.57 g/m*3 7.1 C 4.8 km/h
302 05-01-2014 01:05:00 7.1 C 7.57 g/m*3 7.1 C 1.6 km/h
303 05-01-2014 01:10:00 7.1 C 7.57 g/m*3 7.1 C 3.2 km/h
304 05-01-2014 01:15:00 7.2 C 7.61 g/m*3 7.2 C 3.2 km/h
305 05-01-2014 01:20:00 7.2 C 7.61 g/m*3 7.2 C 4.8 km/h
306 05-01-2014 01:25:00 7.2 C 7.61 g/m*3 7.2 C 3.2 km/h
307 05-01-2014 01:30:00 7.3 C 7.66 g/m*3 7.3 C 3.2 km/h
308 05-01-2014 01:35:00 7.3 C 7.66 g/m*3 7.3 C 3.2 km/h
309 05-01-2014 01:40:00 7.2 C 7.61 g/m*3 7.2 C 1.6 km/h
310 05-01-2014 01:45:00 7.3 C 7.66 g/m*3 7.3 C 0 km/h
311 05-01-2014 01:50:00 7.3 C 7.66 g/m*3 7.3 C 0 km/h
312 05-01-2014 01:55:00 7.4 C 7.71 g/m*3 7.4 C 3.2 km/h
313 05-01-2014 02:00:00 7.5 C 7.76 g/m*3 7.5 C 3.2 km/h
314 05-01-2014 02:05:00 7.5 C 7.76 g/m*3 7.5 C 3.2 km/h
315 05-01-2014 02:10:00 7.5 C 7.68 g/m*3 7.5 C 1.6 km/h
316 05-01-2014 02:15:00 7.6 C 7.73 g/m*3 7.6 C 0 km/h
317 05-01-2014 02:20:00 7.5 C 7.68 g/m*3 7.5 C 0 km/h
318 05-01-2014 02:25:00 7.4 C 7.63 g/m*3 7.4 C 1.6 km/h
319 05-01-2014 02:30:00 7.4 C 7.63 g/m*3 7.4 C 0 km/h
320 05-01-2014 02:35:00 7.4 C 7.63 g/m*3 7.4 C 1.6 km/h
321 05-01-2014 02:40:00 7.4 C 7.71 g/m*3 7.4 C 0 km/h
322 05-01-2014 02:45:00 7.4 C 7.63 g/m*3 7.4 C 3.2 km/h
323 05-01-2014 02:50:00 7.4 C 7.63 g/m*3 7.4 C 1.6 km/h
324 05-01-2014 02:55:00 7.4 C 7.63 g/m*3 7.4 C 0 km/h
325 05-01-2014 03:00:00 7.5 C 7.68 g/m*3 7.5 C 1.6 km/h
Sensor: Nr:Datum:Temp:Abs-Feuchte:Windchill:Wind:
Aussen-T/F 326 05-01-2014 03:05:00 7.6 C 7.73 g/m*3 7.6 C 4.8 km/h
327 05-01-2014 03:10:00 7.7 C 7.78 g/m*3 7.7 C 3.2 km/h
328 05-01-2014 03:15:00 7.7 C 7.78 g/m*3 7.7 C 3.2 km/h
329 05-01-2014 03:20:00 7.8 C 7.83 g/m*3 6.83 C 6.4 km/h
330 05-01-2014 03:25:00 7.8 C 7.83 g/m*3 6.83 C 6.4 km/h
331 05-01-2014 03:30:00 7.8 C 7.67 g/m*3 6.83 C 6.4 km/h
332 05-01-2014 03:35:00 7.8 C 7.67 g/m*3 7.8 C 4.8 km/h
333 05-01-2014 03:40:00 7.8 C 7.59 g/m*3 5.51 C 12.9 km/h
334 05-01-2014 03:45:00 7.9 C 7.56 g/m*3 5.63 C 12.9 km/h
335 05-01-2014 03:50:00 7.8 C 7.51 g/m*3 6.83 C 6.4 km/h
336 05-01-2014 03:55:00 7.7 C 7.54 g/m*3 6.28 C 8.1 km/h
337 05-01-2014 04:00:00 7.7 C 7.54 g/m*3 6.71 C 6.4 km/h
338 05-01-2014 04:05:00 7.6 C 7.49 g/m*3 7.6 C 4.8 km/h
339 05-01-2014 04:10:00 7.6 C 7.49 g/m*3 6.6 C 6.4 km/h
340 05-01-2014 04:15:00 7.5 C 7.44 g/m*3 6.48 C 6.4 km/h
341 05-01-2014 04:20:00 7.5 C 7.44 g/m*3 7.5 C 4.8 km/h
342 05-01-2014 04:25:00 7.4 C 7.48 g/m*3 7.4 C 3.2 km/h
343 05-01-2014 04:30:00 7.3 C 7.43 g/m*3 7.3 C 3.2 km/h
344 05-01-2014 04:35:00 7.3 C 7.43 g/m*3 7.3 C 3.2 km/h
345 05-01-2014 04:40:00 7.3 C 7.51 g/m*3 7.3 C 1.6 km/h
346 05-01-2014 04:45:00 7.2 C 7.46 g/m*3 7.2 C 3.2 km/h
347 05-01-2014 04:50:00 7.2 C 7.46 g/m*3 7.2 C 1.6 km/h
348 05-01-2014 04:55:00 7.1 C 7.41 g/m*3 7.1 C 1.6 km/h
349 05-01-2014 05:00:00 7.1 C 7.49 g/m*3 7.1 C 1.6 km/h
350 05-01-2014 05:05:00 7.1 C 7.41 g/m*3 7.1 C 1.6 km/h
Sensor: Nr:Datum:Temp:Abs-Feuchte:Windchill:Wind:
Aussen-T/F 351 05-01-2014 05:10:00 7 C 7.44 g/m*3 7 C 0 km/h
352 05-01-2014 05:15:00 7.1 C 7.49 g/m*3 7.1 C 4.8 km/h
353 05-01-2014 05:20:00 7.1 C 7.49 g/m*3 7.1 C 4.8 km/h
354 05-01-2014 05:25:00 7.1 C 7.49 g/m*3 7.1 C 3.2 km/h
355 05-01-2014 05:30:00 7.2 C 7.46 g/m*3 5.69 C 8.1 km/h
356 05-01-2014 05:35:00 7.2 C 7.46 g/m*3 7.2 C 3.2 km/h
357 05-01-2014 05:40:00 7.1 C 7.41 g/m*3 5.58 C 8.1 km/h
358 05-01-2014 05:45:00 7.1 C 7.41 g/m*3 7.1 C 4.8 km/h
359 05-01-2014 05:50:00 7.1 C 7.41 g/m*3 7.1 C 3.2 km/h
360 05-01-2014 05:55:00 7.1 C 7.41 g/m*3 7.1 C 4.8 km/h
361 05-01-2014 06:00:00 7 C 7.36 g/m*3 7 C 3.2 km/h
362 05-01-2014 06:05:00 6.9 C 7.31 g/m*3 6.9 C 4.8 km/h
363 05-01-2014 06:10:00 6.9 C 7.31 g/m*3 6.9 C 3.2 km/h
364 05-01-2014 06:15:00 6.9 C 7.31 g/m*3 6.9 C 3.2 km/h
365 05-01-2014 06:20:00 6.9 C 7.31 g/m*3 6.9 C 3.2 km/h
366 05-01-2014 06:25:00 6.9 C 7.31 g/m*3 6.9 C 4.8 km/h
367 05-01-2014 06:30:00 6.9 C 7.31 g/m*3 5.79 C 6.4 km/h
368 05-01-2014 06:35:00 6.9 C 7.31 g/m*3 6.9 C 4.8 km/h
369 05-01-2014 06:40:00 7 C 7.36 g/m*3 5.9 C 6.4 km/h
370 05-01-2014 06:45:00 7 C 7.36 g/m*3 5.9 C 6.4 km/h
371 05-01-2014 06:50:00 7 C 7.36 g/m*3 7 C 3.2 km/h
372 05-01-2014 06:55:00 7 C 7.36 g/m*3 7 C 3.2 km/h
373 05-01-2014 07:00:00 6.9 C 7.31 g/m*3 6.9 C 1.6 km/h
374 05-01-2014 07:05:00 6.9 C 7.31 g/m*3 6.9 C 4.8 km/h
375 05-01-2014 07:10:00 6.8 C 7.27 g/m*3 6.8 C 4.8 km/h
Sensor: Nr:Datum:Temp:Abs-Feuchte:Windchill:Wind:
Aussen-T/F 376 05-01-2014 07:15:00 6.8 C 7.27 g/m*3 6.8 C 4.8 km/h
377 05-01-2014 07:20:00 6.8 C 7.19 g/m*3 4.87 C 9.7 km/h
378 05-01-2014 07:25:00 6.9 C 7.24 g/m*3 5.79 C 6.4 km/h
379 05-01-2014 07:30:00 6.9 C 7.08 g/m*3 4.99 C 9.7 km/h
380 05-01-2014 07:35:00 6.9 C 7.08 g/m*3 4.68 C 11.3 km/h
381 05-01-2014 07:40:00 6.9 C 6.93 g/m*3 4.99 C 9.7 km/h
382 05-01-2014 07:45:00 7 C 6.82 g/m*3 5.46 C 8.1 km/h
383 05-01-2014 07:50:00 6.8 C 6.81 g/m*3 5.67 C 6.4 km/h
384 05-01-2014 07:55:00 6.7 C 6.84 g/m*3 6.7 C 3.2 km/h
385 05-01-2014 08:00:00 6.4 C 6.71 g/m*3 4.08 C 11.3 km/h
386 05-01-2014 08:05:00 6.3 C 6.66 g/m*3 5.1 C 6.4 km/h
387 05-01-2014 08:10:00 6.3 C 6.66 g/m*3 5.1 C 6.4 km/h
388 05-01-2014 08:15:00 6.3 C 6.59 g/m*3 4.64 C 8.1 km/h
389 05-01-2014 08:20:00 6.3 C 6.59 g/m*3 5.1 C 6.4 km/h
390 05-01-2014 08:25:00 6.3 C 6.66 g/m*3 6.3 C 4.8 km/h
391 05-01-2014 08:30:00 6.1 C 6.72 g/m*3 6.1 C 3.2 km/h
392 05-01-2014 08:35:00 5.9 C 6.63 g/m*3 5.9 C 3.2 km/h
393 05-01-2014 08:40:00 5.7 C 6.62 g/m*3 5.7 C 3.2 km/h
394 05-01-2014 08:45:00 5.6 C 6.57 g/m*3 5.6 C 4.8 km/h
395 05-01-2014 08:50:00 5.4 C 6.49 g/m*3 5.4 C 4.8 km/h
396 05-01-2014 08:55:00 5.5 C 6.53 g/m*3 5.5 C 4.8 km/h
397 05-01-2014 09:00:00 5.7 C 6.48 g/m*3 5.7 C 4.8 km/h
398 05-01-2014 09:05:00 6 C 6.53 g/m*3 4.75 C 6.4 km/h
399 05-01-2014 09:10:00 6.1 C 6.5 g/m*3 4.86 C 6.4 km/h
400 05-01-2014 09:15:00 6.2 C 6.55 g/m*3 6.2 C 4.8 km/h
Sensor: Nr:Datum:Temp:Abs-Feuchte:Windchill:Wind:
Aussen-T/F 401 05-01-2014 09:20:00 6.2 C 6.62 g/m*3 6.2 C 3.2 km/h
402 05-01-2014 09:25:00 6 C 6.53 g/m*3 6 C 3.2 km/h
403 05-01-2014 09:30:00 5.9 C 6.56 g/m*3 5.9 C 4.8 km/h
404 05-01-2014 09:35:00 5.9 C 6.49 g/m*3 3.8 C 9.7 km/h
405 05-01-2014 09:40:00 5.9 C 6.49 g/m*3 5.9 C 4.8 km/h
406 05-01-2014 09:45:00 5.9 C 6.49 g/m*3 5.9 C 4.8 km/h
407 05-01-2014 09:50:00 6.1 C 6.5 g/m*3 6.1 C 4.8 km/h
408 05-01-2014 09:55:00 6.1 C 6.5 g/m*3 6.1 C 4.8 km/h
409 05-01-2014 10:00:00 6.1 C 6.5 g/m*3 6.1 C 4.8 km/h
410 05-01-2014 10:05:00 6.1 C 6.5 g/m*3 6.1 C 4.8 km/h
411 05-01-2014 10:10:00 6.1 C 6.5 g/m*3 4.04 C 9.7 km/h
412 05-01-2014 10:15:00 6.2 C 6.55 g/m*3 6.2 C 4.8 km/h
413 05-01-2014 10:20:00 5.9 C 6.49 g/m*3 5.9 C 4.8 km/h
414 05-01-2014 10:25:00 6 C 6.39 g/m*3 4.75 C 6.4 km/h
415 05-01-2014 10:30:00 6.2 C 6.4 g/m*3 3.84 C 11.3 km/h
416 05-01-2014 10:35:00 6.3 C 6.44 g/m*3 4.64 C 8.1 km/h
417 05-01-2014 10:40:00 6.2 C 6.47 g/m*3 4.52 C 8.1 km/h
418 05-01-2014 10:45:00 6.2 C 6.47 g/m*3 6.2 C 4.8 km/h
419 05-01-2014 10:50:00 6.3 C 6.51 g/m*3 6.3 C 4.8 km/h
420 05-01-2014 10:55:00 6.3 C 6.51 g/m*3 6.3 C 4.8 km/h
421 05-01-2014 11:00:00 6.4 C 6.48 g/m*3 5.21 C 6.4 km/h
422 05-01-2014 11:05:00 6.5 C 6.45 g/m*3 4.51 C 9.7 km/h
423 05-01-2014 11:10:00 6.7 C 6.38 g/m*3 4.75 C 9.7 km/h
424 05-01-2014 11:15:00 6.7 C 6.53 g/m*3 5.56 C 6.4 km/h
425 05-01-2014 11:20:00 6.6 C 6.34 g/m*3 4.63 C 9.7 km/h
Sensor: Nr:Datum:Temp:Abs-Feuchte:Windchill:Wind:
Aussen-T/F 426 05-01-2014 11:25:00 6.6 C 6.27 g/m*3 4.04 C 12.9 km/h
427 05-01-2014 11:30:00 6.6 C 6.27 g/m*3 4.63 C 9.7 km/h
428 05-01-2014 11:35:00 6.6 C 6.27 g/m*3 5.44 C 6.4 km/h
429 05-01-2014 13:00:00 6.6 C 6.34 g/m*3 6.6 C 4.8 km/h
430 05-01-2014 13:05:00 6.4 C 6.18 g/m*3 3.8 C 12.9 km/h
431 05-01-2014 13:10:00 6.4 C 6.18 g/m*3 3.11 C 17.7 km/h
432 05-01-2014 16:40:00 5.7 C 6.05 g/m*3 5.7 C 4.8 km/h
433 05-01-2014 16:40:00 5.7 C 6.05 g/m*3 5.7 C 4.8 km/h
434 05-01-2014 16:45:00 5.8 C 6.16 g/m*3 5.8 C 3.2 km/h
435 05-01-2014 16:45:00 5.8 C 6.16 g/m*3 5.8 C 3.2 km/h
436 05-01-2014 16:50:00 5.8 C 6.16 g/m*3 4.05 C 8.1 km/h
437 05-01-2014 16:50:00 5.8 C 6.16 g/m*3 4.05 C 8.1 km/h
438 05-01-2014 17:25:00 5.6 C 6.29 g/m*3 5.6 C 0 km/h
439 05-01-2014 17:30:00 5.6 C 6.29 g/m*3 5.6 C 3.2 km/h
440 05-01-2014 17:35:00 5.5 C 6.11 g/m*3 5.5 C 4.8 km/h
441 05-01-2014 17:40:00 5.7 C 6.26 g/m*3 5.7 C 3.2 km/h
442 05-01-2014 17:45:00 5.6 C 6.22 g/m*3 5.6 C 3.2 km/h
443 05-01-2014 17:50:00 5.6 C 6.22 g/m*3 5.6 C 1.6 km/h
444 05-01-2014 17:55:00 5.6 C 6.22 g/m*3 5.6 C 3.2 km/h
445 05-01-2014 18:00:00 5.6 C 6.15 g/m*3 5.6 C 1.6 km/h
446 05-01-2014 18:05:00 5.7 C 6.19 g/m*3 5.7 C 0 km/h
447 05-01-2014 18:10:00 5.8 C 6.16 g/m*3 5.8 C 4.8 km/h
448 05-01-2014 18:15:00 5.8 C 6.09 g/m*3 5.8 C 3.2 km/h
449 05-01-2014 18:20:00 6 C 5.95 g/m*3 6 C 4.8 km/h
450 05-01-2014 18:25:00 6.1 C 6.28 g/m*3 6.1 C 1.6 km/h
Sensor: Nr:Datum:Temp:Abs-Feuchte:Windchill:Wind:
Aussen-T/F 451 05-01-2014 18:30:00 5.8 C 6.23 g/m*3 5.8 C 1.6 km/h
452 05-01-2014 18:35:00 5.7 C 6.19 g/m*3 5.7 C 0 km/h
453 05-01-2014 18:40:00 5.7 C 6.12 g/m*3 5.7 C 0 km/h
454 05-01-2014 18:45:00 5.7 C 6.05 g/m*3 5.7 C 4.8 km/h
455 05-01-2014 18:50:00 5.8 C 6.3 g/m*3 5.8 C 0 km/h
456 05-01-2014 18:55:00 5.8 C 6.3 g/m*3 5.8 C 0 km/h
457 05-01-2014 19:00:00 5.7 C 6.12 g/m*3 5.7 C 0 km/h
458 05-01-2014 19:05:00 5.7 C 6.19 g/m*3 5.7 C 1.6 km/h
459 05-01-2014 19:10:00 5.7 C 6.19 g/m*3 5.7 C 3.2 km/h
460 05-01-2014 19:15:00 5.9 C 6.13 g/m*3 5.9 C 4.8 km/h
461 05-01-2014 19:20:00 6 C 6.1 g/m*3 6 C 3.2 km/h
462 05-01-2014 19:25:00 6.1 C 6.14 g/m*3 6.1 C 1.6 km/h
463 05-01-2014 19:30:00 6.1 C 6.21 g/m*3 6.1 C 4.8 km/h
464 05-01-2014 19:35:00 6.1 C 6.21 g/m*3 6.1 C 4.8 km/h
465 05-01-2014 19:40:00 6 C 6.24 g/m*3 6 C 0 km/h
466 05-01-2014 19:45:00 5.9 C 6.06 g/m*3 5.9 C 4.8 km/h
467 05-01-2014 19:50:00 5.8 C 6.02 g/m*3 5.8 C 1.6 km/h
468 05-01-2014 19:55:00 5.5 C 5.97 g/m*3 5.5 C 0 km/h
469 05-01-2014 20:00:00 5.2 C 5.92 g/m*3 5.2 C 1.6 km/h
470 05-01-2014 20:05:00 4.9 C 5.94 g/m*3 4.9 C 1.6 km/h
471 05-01-2014 20:10:00 4.8 C 5.97 g/m*3 4.8 C 1.6 km/h
472 05-01-2014 20:15:00 4.6 C 5.89 g/m*3 4.6 C 3.2 km/h
473 05-01-2014 20:20:00 4.4 C 5.81 g/m*3 4.4 C 3.2 km/h
474 05-01-2014 20:25:00 4.3 C 5.84 g/m*3 4.3 C 1.6 km/h
475 05-01-2014 20:30:00 4.2 C 5.8 g/m*3 4.2 C 3.2 km/h
Sensor: Nr:Datum:Temp:Abs-Feuchte:Windchill:Wind:
Aussen-T/F 476 05-01-2014 20:35:00 4.2 C 5.86 g/m*3 4.2 C 1.6 km/h
477 05-01-2014 20:40:00 4 C 5.79 g/m*3 4 C 0 km/h
478 05-01-2014 20:45:00 3.9 C 5.75 g/m*3 3.9 C 1.6 km/h
479 05-01-2014 20:50:00 3.8 C 5.71 g/m*3 3.8 C 3.2 km/h
480 05-01-2014 20:55:00 3.8 C 5.71 g/m*3 3.8 C 4.8 km/h
481 05-01-2014 21:00:00 3.7 C 5.67 g/m*3 3.7 C 3.2 km/h
482 05-01-2014 21:05:00 3.8 C 5.77 g/m*3 3.8 C 3.2 km/h
483 05-01-2014 21:10:00 3.8 C 5.77 g/m*3 3.8 C 3.2 km/h
484 05-01-2014 21:15:00 3.8 C 5.77 g/m*3 3.8 C 1.6 km/h
485 05-01-2014 21:20:00 3.9 C 5.75 g/m*3 3.9 C 3.2 km/h
486 05-01-2014 21:25:00 3.9 C 5.68 g/m*3 3.9 C 3.2 km/h
487 05-01-2014 21:30:00 3.8 C 5.71 g/m*3 3.8 C 3.2 km/h
488 05-01-2014 21:35:00 3.8 C 5.71 g/m*3 3.8 C 1.6 km/h
489 05-01-2014 21:40:00 3.7 C 5.73 g/m*3 3.7 C 3.2 km/h
490 05-01-2014 21:45:00 3.8 C 5.77 g/m*3 3.8 C 1.6 km/h
491 05-01-2014 21:50:00 4 C 5.91 g/m*3 4 C 4.8 km/h
492 05-01-2014 21:55:00 4.2 C 5.93 g/m*3 4.2 C 1.6 km/h
493 05-01-2014 22:00:00 4.3 C 5.97 g/m*3 4.3 C 3.2 km/h
494 05-01-2014 22:05:00 4.5 C 6.05 g/m*3 4.5 C 1.6 km/h
495 05-01-2014 22:10:00 4.7 C 6.06 g/m*3 4.7 C 1.6 km/h
496 05-01-2014 22:15:00 4.8 C 6.1 g/m*3 4.8 C 3.2 km/h
497 05-01-2014 22:20:00 4.9 C 6.08 g/m*3 4.9 C 1.6 km/h
498 05-01-2014 22:25:00 5 C 6.12 g/m*3 5 C 1.6 km/h
499 05-01-2014 22:30:00 5.1 C 6.09 g/m*3 5.1 C 3.2 km/h
500 05-01-2014 22:35:00 5.1 C 6.09 g/m*3 5.1 C 1.6 km/h
Sensor: Nr:Datum:Temp:Abs-Feuchte:Windchill:Wind:
Aussen-T/F 501 05-01-2014 22:40:00 4.8 C 5.97 g/m*3 4.8 C 1.6 km/h
502 05-01-2014 22:45:00 4.6 C 5.89 g/m*3 4.6 C 1.6 km/h
503 05-01-2014 22:50:00 4.4 C 5.88 g/m*3 4.4 C 1.6 km/h
504 05-01-2014 22:55:00 4.4 C 5.88 g/m*3 4.4 C 3.2 km/h
505 05-01-2014 23:00:00 4.3 C 5.9 g/m*3 4.3 C 3.2 km/h
506 05-01-2014 23:05:00 4.3 C 5.9 g/m*3 4.3 C 3.2 km/h
507 05-01-2014 23:10:00 4.3 C 5.9 g/m*3 4.3 C 3.2 km/h
508 05-01-2014 23:15:00 4.3 C 5.84 g/m*3 4.3 C 1.6 km/h
509 05-01-2014 23:20:00 4.2 C 5.86 g/m*3 4.2 C 1.6 km/h
510 05-01-2014 23:25:00 3.9 C 5.75 g/m*3 3.9 C 3.2 km/h
511 05-01-2014 23:30:00 3.8 C 5.71 g/m*3 3.8 C 4.8 km/h
512 05-01-2014 23:35:00 3.8 C 5.77 g/m*3 3.8 C 3.2 km/h
513 05-01-2014 23:40:00 3.7 C 5.73 g/m*3 3.7 C 3.2 km/h
514 05-01-2014 23:45:00 3.6 C 5.69 g/m*3 3.6 C 1.6 km/h
515 05-01-2014 23:50:00 3.5 C 5.66 g/m*3 3.5 C 3.2 km/h
516 05-01-2014 23:55:00 3.4 C 5.62 g/m*3 3.4 C 3.2 km/h
517 06-01-2014 00:00:00 3.4 C 5.68 g/m*3 3.4 C 3.2 km/h
518 06-01-2014 00:05:00 3.3 C 5.64 g/m*3 3.3 C 3.2 km/h
519 06-01-2014 00:10:00 3.3 C 5.64 g/m*3 3.3 C 1.6 km/h
520 06-01-2014 00:15:00 3.3 C 5.64 g/m*3 3.3 C 3.2 km/h
521 06-01-2014 00:20:00 3.3 C 5.64 g/m*3 3.3 C 1.6 km/h
522 06-01-2014 00:25:00 3.3 C 5.64 g/m*3 3.3 C 3.2 km/h
523 06-01-2014 00:30:00 3.3 C 5.64 g/m*3 3.3 C 3.2 km/h
524 06-01-2014 00:35:00 3.3 C 5.64 g/m*3 3.3 C 3.2 km/h
525 06-01-2014 00:40:00 3.3 C 5.64 g/m*3 3.3 C 1.6 km/h
Sensor: Nr:Datum:Temp:Abs-Feuchte:Windchill:Wind:
Aussen-T/F 526 06-01-2014 00:45:00 3.3 C 5.64 g/m*3 3.3 C 1.6 km/h
527 06-01-2014 00:50:00 3.3 C 5.7 g/m*3 3.3 C 1.6 km/h
528 06-01-2014 00:55:00 3.4 C 5.68 g/m*3 3.4 C 1.6 km/h
529 06-01-2014 01:00:00 3.3 C 5.64 g/m*3 3.3 C 1.6 km/h
530 06-01-2014 01:05:00 3.3 C 5.64 g/m*3 3.3 C 0 km/h
531 06-01-2014 01:10:00 3.3 C 5.64 g/m*3 3.3 C 1.6 km/h
532 06-01-2014 01:15:00 3.2 C 5.6 g/m*3 3.2 C 4.8 km/h
533 06-01-2014 01:20:00 3.4 C 5.74 g/m*3 0.82 C 9.7 km/h
534 06-01-2014 01:25:00 3.6 C 5.82 g/m*3 3.6 C 1.6 km/h
535 06-01-2014 01:30:00 3.7 C 5.8 g/m*3 3.7 C 1.6 km/h
536 06-01-2014 01:35:00 3.8 C 5.83 g/m*3 3.8 C 0 km/h
537 06-01-2014 01:40:00 3.8 C 5.83 g/m*3 3.8 C 0 km/h
538 06-01-2014 01:45:00 3.9 C 5.87 g/m*3 3.9 C 3.2 km/h
539 06-01-2014 01:50:00 3.9 C 5.87 g/m*3 3.9 C 1.6 km/h
540 06-01-2014 01:55:00 3.9 C 5.87 g/m*3 3.9 C 3.2 km/h
541 06-01-2014 02:00:00 3.8 C 5.83 g/m*3 3.8 C 3.2 km/h
542 06-01-2014 02:05:00 3.7 C 5.8 g/m*3 3.7 C 1.6 km/h
543 06-01-2014 02:10:00 3.7 C 5.8 g/m*3 3.7 C 3.2 km/h
544 06-01-2014 02:15:00 3.7 C 5.8 g/m*3 3.7 C 1.6 km/h
545 06-01-2014 02:20:00 3.7 C 5.8 g/m*3 2.09 C 6.4 km/h
546 06-01-2014 02:25:00 3.6 C 5.76 g/m*3 3.6 C 0 km/h
547 06-01-2014 02:30:00 3.7 C 5.86 g/m*3 3.7 C 1.6 km/h
548 06-01-2014 02:35:00 3.8 C 5.9 g/m*3 3.8 C 1.6 km/h
549 06-01-2014 02:40:00 3.9 C 5.94 g/m*3 3.9 C 3.2 km/h
550 06-01-2014 02:45:00 3.9 C 5.94 g/m*3 3.9 C 3.2 km/h
Sensor: Nr:Datum:Temp:Abs-Feuchte:Windchill:Wind:
Aussen-T/F 551 06-01-2014 02:50:00 3.9 C 5.94 g/m*3 3.9 C 3.2 km/h
552 06-01-2014 02:55:00 4.2 C 6.06 g/m*3 4.2 C 4.8 km/h
553 06-01-2014 03:00:00 4.4 C 6.14 g/m*3 4.4 C 4.8 km/h
554 06-01-2014 03:05:00 4.7 C 6.19 g/m*3 4.7 C 1.6 km/h
555 06-01-2014 03:10:00 4.8 C 6.17 g/m*3 3.36 C 6.4 km/h
556 06-01-2014 03:15:00 5 C 6.18 g/m*3 5 C 4.8 km/h
557 06-01-2014 03:20:00 5.2 C 6.27 g/m*3 5.2 C 4.8 km/h
558 06-01-2014 03:25:00 5.2 C 6.27 g/m*3 5.2 C 3.2 km/h
559 06-01-2014 03:30:00 5.2 C 6.27 g/m*3 5.2 C 1.6 km/h
560 06-01-2014 03:35:00 5.2 C 6.33 g/m*3 5.2 C 1.6 km/h
561 06-01-2014 03:40:00 5.3 C 6.38 g/m*3 5.3 C 0 km/h
562 06-01-2014 03:45:00 5.3 C 6.38 g/m*3 5.3 C 3.2 km/h
563 06-01-2014 03:50:00 5.3 C 6.45 g/m*3 5.3 C 0 km/h
564 06-01-2014 03:55:00 5.3 C 6.38 g/m*3 5.3 C 4.8 km/h
565 06-01-2014 04:00:00 5.3 C 6.38 g/m*3 5.3 C 1.6 km/h
566 06-01-2014 04:05:00 5.4 C 6.42 g/m*3 5.4 C 1.6 km/h
567 06-01-2014 04:10:00 5.4 C 6.42 g/m*3 5.4 C 3.2 km/h
568 06-01-2014 04:15:00 5.6 C 6.43 g/m*3 5.6 C 1.6 km/h
569 06-01-2014 04:20:00 5.7 C 6.4 g/m*3 5.7 C 3.2 km/h
570 06-01-2014 04:25:00 5.8 C 6.45 g/m*3 5.8 C 3.2 km/h
571 06-01-2014 04:30:00 5.9 C 6.49 g/m*3 5.9 C 1.6 km/h
572 06-01-2014 04:35:00 5.8 C 6.45 g/m*3 5.8 C 0 km/h
573 06-01-2014 04:40:00 5.8 C 6.45 g/m*3 5.8 C 3.2 km/h
574 06-01-2014 04:45:00 5.8 C 6.45 g/m*3 5.8 C 3.2 km/h
575 06-01-2014 04:50:00 5.9 C 6.42 g/m*3 5.9 C 4.8 km/h
Sensor: Nr:Datum:Temp:Abs-Feuchte:Windchill:Wind:
Aussen-T/F 576 06-01-2014 04:55:00 5.9 C 6.49 g/m*3 5.9 C 1.6 km/h
577 06-01-2014 05:00:00 5.9 C 6.35 g/m*3 5.9 C 0 km/h
578 06-01-2014 05:05:00 6 C 6.46 g/m*3 6 C 3.2 km/h
579 06-01-2014 05:10:00 6 C 6.46 g/m*3 6 C 3.2 km/h
580 06-01-2014 05:15:00 5.9 C 6.42 g/m*3 5.9 C 1.6 km/h
581 06-01-2014 05:20:00 5.9 C 6.35 g/m*3 5.9 C 3.2 km/h
582 06-01-2014 05:25:00 6 C 6.53 g/m*3 6 C 0 km/h
583 06-01-2014 05:30:00 5.9 C 6.49 g/m*3 5.9 C 4.8 km/h
584 06-01-2014 05:35:00 5.9 C 6.42 g/m*3 5.9 C 0 km/h
585 06-01-2014 05:40:00 5.9 C 6.49 g/m*3 5.9 C 0 km/h
586 06-01-2014 05:45:00 5.9 C 6.42 g/m*3 5.9 C 3.2 km/h
587 06-01-2014 05:50:00 6 C 6.46 g/m*3 6 C 1.6 km/h
588 06-01-2014 05:55:00 6.1 C 6.5 g/m*3 6.1 C 0 km/h
589 06-01-2014 06:00:00 6.1 C 6.5 g/m*3 6.1 C 1.6 km/h
590 06-01-2014 06:05:00 6.2 C 6.47 g/m*3 6.2 C 0 km/h
591 06-01-2014 06:10:00 6.2 C 6.47 g/m*3 6.2 C 1.6 km/h
592 06-01-2014 06:15:00 6.2 C 6.47 g/m*3 6.2 C 4.8 km/h
593 06-01-2014 06:20:00 6.3 C 6.51 g/m*3 6.3 C 1.6 km/h
594 06-01-2014 06:25:00 6.3 C 6.51 g/m*3 6.3 C 0 km/h
595 06-01-2014 06:30:00 6.3 C 6.59 g/m*3 6.3 C 0 km/h
596 06-01-2014 06:35:00 6.3 C 6.59 g/m*3 6.3 C 0 km/h
597 06-01-2014 06:40:00 6.3 C 6.59 g/m*3 6.3 C 3.2 km/h
598 06-01-2014 06:45:00 6.3 C 6.66 g/m*3 6.3 C 1.6 km/h
599 06-01-2014 06:50:00 6.3 C 6.74 g/m*3 6.3 C 0 km/h
600 06-01-2014 06:55:00 6.3 C 6.74 g/m*3 6.3 C 0 km/h
Sensor: Nr:Datum:Temp:Abs-Feuchte:Windchill:Wind:
Aussen-T/F 601 06-01-2014 07:00:00 6.3 C 6.74 g/m*3 6.3 C 0 km/h
602 06-01-2014 07:05:00 6.3 C 6.74 g/m*3 6.3 C 3.2 km/h
603 06-01-2014 07:10:00 6.4 C 6.71 g/m*3 6.4 C 1.6 km/h
604 06-01-2014 07:15:00 6.6 C 6.72 g/m*3 6.6 C 1.6 km/h
605 06-01-2014 07:20:00 6.6 C 6.72 g/m*3 6.6 C 0 km/h
606 06-01-2014 07:25:00 6.6 C 6.72 g/m*3 6.6 C 1.6 km/h
607 06-01-2014 07:30:00 6.6 C 6.79 g/m*3 6.6 C 0 km/h
608 06-01-2014 07:35:00 6.5 C 6.75 g/m*3 6.5 C 0 km/h
609 06-01-2014 07:40:00 6.5 C 6.82 g/m*3 6.5 C 4.8 km/h
610 06-01-2014 07:45:00 6.5 C 6.82 g/m*3 6.5 C 1.6 km/h
611 06-01-2014 07:50:00 6.6 C 6.87 g/m*3 6.6 C 4.8 km/h
612 06-01-2014 07:55:00 6.7 C 6.91 g/m*3 6.7 C 0 km/h
613 06-01-2014 08:00:00 6.8 C 6.96 g/m*3 6.8 C 1.6 km/h
614 06-01-2014 08:05:00 6.8 C 6.96 g/m*3 6.8 C 0 km/h
615 06-01-2014 08:10:00 6.9 C 7.01 g/m*3 6.9 C 0 km/h
616 06-01-2014 08:15:00 6.9 C 7.08 g/m*3 6.9 C 0 km/h
617 06-01-2014 08:20:00 7 C 7.13 g/m*3 7 C 1.6 km/h
618 06-01-2014 08:25:00 7.1 C 7.18 g/m*3 7.1 C 3.2 km/h
619 06-01-2014 08:30:00 7.2 C 7.22 g/m*3 7.2 C 3.2 km/h
620 06-01-2014 08:35:00 7.3 C 7.27 g/m*3 7.3 C 3.2 km/h
621 06-01-2014 08:40:00 7.4 C 7.32 g/m*3 7.4 C 1.6 km/h
622 06-01-2014 08:45:00 7.5 C 7.36 g/m*3 7.5 C 1.6 km/h
623 06-01-2014 08:50:00 7.7 C 7.46 g/m*3 7.7 C 1.6 km/h
624 06-01-2014 08:55:00 7.8 C 7.43 g/m*3 7.8 C 0 km/h
625 06-01-2014 09:00:00 7.8 C 7.43 g/m*3 7.8 C 0 km/h
Sensor: Nr:Datum:Temp:Abs-Feuchte:Windchill:Wind:
Aussen-T/F 626 06-01-2014 09:05:00 7.8 C 7.43 g/m*3 7.8 C 0 km/h
627 06-01-2014 09:10:00 7.8 C 7.43 g/m*3 7.8 C 4.8 km/h
628 06-01-2014 09:15:00 8 C 7.61 g/m*3 8 C 3.2 km/h
629 06-01-2014 09:20:00 8.2 C 7.62 g/m*3 8.2 C 3.2 km/h
630 06-01-2014 09:25:00 8.2 C 7.62 g/m*3 8.2 C 3.2 km/h
631 06-01-2014 09:30:00 8.2 C 7.62 g/m*3 8.2 C 0 km/h
632 06-01-2014 09:35:00 8.4 C 7.72 g/m*3 8.4 C 1.6 km/h
633 06-01-2014 09:40:00 8.4 C 7.72 g/m*3 8.4 C 0 km/h
634 06-01-2014 09:45:00 8.6 C 7.82 g/m*3 8.6 C 0 km/h
635 06-01-2014 09:50:00 8.6 C 7.82 g/m*3 8.6 C 0 km/h
636 06-01-2014 09:55:00 8.6 C 7.82 g/m*3 8.6 C 1.6 km/h
637 06-01-2014 10:00:00 8.6 C 7.82 g/m*3 8.6 C 0 km/h
638 06-01-2014 10:05:00 8.6 C 7.82 g/m*3 8.6 C 3.2 km/h
639 06-01-2014 10:10:00 8.6 C 7.82 g/m*3 8.6 C 0 km/h
640 06-01-2014 10:15:00 8.6 C 7.82 g/m*3 8.6 C 4.8 km/h
641 06-01-2014 10:20:00 8.7 C 7.87 g/m*3 8.7 C 3.2 km/h
642 06-01-2014 10:25:00 8.7 C 7.87 g/m*3 8.7 C 0 km/h
643 06-01-2014 10:30:00 8.8 C 7.92 g/m*3 8.8 C 4.8 km/h
644 06-01-2014 10:35:00 8.8 C 7.92 g/m*3 7.98 C 6.4 km/h
645 06-01-2014 10:40:00 8.9 C 7.88 g/m*3 8.9 C 1.6 km/h
646 06-01-2014 10:45:00 9 C 7.93 g/m*3 9 C 1.6 km/h
647 06-01-2014 10:50:00 9.1 C 7.99 g/m*3 9.1 C 4.8 km/h
648 06-01-2014 10:55:00 9.2 C 7.95 g/m*3 8.45 C 6.4 km/h
649 06-01-2014 11:00:00 9.3 C 7.91 g/m*3 9.3 C 4.8 km/h
650 06-01-2014 11:05:00 9.3 C 7.91 g/m*3 9.3 C 3.2 km/h
Sensor: Nr:Datum:Temp:Abs-Feuchte:Windchill:Wind:
Aussen-T/F 651 06-01-2014 11:10:00 9.3 C 7.91 g/m*3 9.3 C 1.6 km/h
652 06-01-2014 11:15:00 9.3 C 8 g/m*3 8.16 C 8.1 km/h
653 06-01-2014 11:20:00 9.3 C 8.09 g/m*3 9.3 C 4.8 km/h
654 06-01-2014 11:25:00 9.5 C 8.1 g/m*3 9.5 C 3.2 km/h
655 06-01-2014 11:30:00 9.7 C 8.2 g/m*3 9.7 C 0 km/h
656 06-01-2014 11:35:00 9.9 C 8.4 g/m*3 9.9 C 0 km/h
657 06-01-2014 11:40:00 10.2 C 8.47 g/m*3 10.2 C 4.8 km/h
658 06-01-2014 11:45:00 10.4 C 8.48 g/m*3 10.4 C 4.8 km/h
659 06-01-2014 11:50:00 10.7 C 8.64 g/m*3 10.7 C 4.8 km/h
660 06-01-2014 11:55:00 10.8 C 8.6 g/m*3 10.8 C 1.6 km/h
661 06-01-2014 12:00:00 10.9 C 8.65 g/m*3 10.41 C 6.4 km/h
662 06-01-2014 12:05:00 11.1 C 8.76 g/m*3 11.1 C 4.8 km/h
663 06-01-2014 12:10:00 11.2 C 8.72 g/m*3 11.2 C 6.4 km/h
664 06-01-2014 12:15:00 11.3 C 8.67 g/m*3 11.3 C 6.4 km/h
665 06-01-2014 12:20:00 11.4 C 8.72 g/m*3 11.4 C 3.2 km/h
666 06-01-2014 12:25:00 11.6 C 8.63 g/m*3 11.6 C 4.8 km/h
667 06-01-2014 12:30:00 11.6 C 8.63 g/m*3 11.6 C 4.8 km/h
668 06-01-2014 12:35:00 11.6 C 8.63 g/m*3 11.6 C 4.8 km/h
669 06-01-2014 12:40:00 11.6 C 8.63 g/m*3 11.6 C 6.4 km/h
670 06-01-2014 12:45:00 11.8 C 8.63 g/m*3 11.8 C 3.2 km/h
671 06-01-2014 12:50:00 11.8 C 8.63 g/m*3 11.8 C 1.6 km/h
672 06-01-2014 12:55:00 11.8 C 8.84 g/m*3 11.8 C 3.2 km/h
673 06-01-2014 13:00:00 11.8 C 8.84 g/m*3 11.8 C 3.2 km/h
674 06-01-2014 13:05:00 11.8 C 8.74 g/m*3 11.8 C 4.8 km/h
675 06-01-2014 13:10:00 11.8 C 8.63 g/m*3 11.8 C 3.2 km/h
Sensor: Nr:Datum:Temp:Abs-Feuchte:Windchill:Wind:
Aussen-T/F 676 06-01-2014 13:15:00 11.9 C 8.68 g/m*3 11.9 C 4.8 km/h
677 06-01-2014 13:20:00 12 C 8.74 g/m*3 12 C 6.4 km/h
678 06-01-2014 13:25:00 12 C 8.74 g/m*3 12 C 3.2 km/h
679 06-01-2014 13:30:00 12.1 C 8.69 g/m*3 12.1 C 0 km/h
680 06-01-2014 13:35:00 12.2 C 8.63 g/m*3 12.2 C 4.8 km/h
681 06-01-2014 13:40:00 12.2 C 8.74 g/m*3 12.2 C 0 km/h
682 06-01-2014 13:45:00 12.1 C 8.69 g/m*3 12.1 C 3.2 km/h
683 06-01-2014 13:50:00 12.1 C 8.9 g/m*3 12.1 C 0 km/h
684 06-01-2014 13:55:00 12.1 C 8.69 g/m*3 12.1 C 8.1 km/h
685 06-01-2014 14:00:00 12.2 C 8.74 g/m*3 12.2 C 8.1 km/h
686 06-01-2014 14:05:00 12.2 C 8.85 g/m*3 12.2 C 0 km/h
687 06-01-2014 14:10:00 12.2 C 8.74 g/m*3 12.2 C 3.2 km/h
688 06-01-2014 14:15:00 12.1 C 8.58 g/m*3 12.1 C 4.8 km/h
689 06-01-2014 14:20:00 12.1 C 8.58 g/m*3 12.1 C 3.2 km/h
690 06-01-2014 14:25:00 11.9 C 8.37 g/m*3 11.9 C 4.8 km/h
691 06-01-2014 14:30:00 11.7 C 8.37 g/m*3 11.7 C 3.2 km/h
692 06-01-2014 14:35:00 11.5 C 8.26 g/m*3 11.5 C 4.8 km/h
693 06-01-2014 14:40:00 11.4 C 8.21 g/m*3 11.4 C 3.2 km/h
694 06-01-2014 14:45:00 11.2 C 8.11 g/m*3 11.2 C 4.8 km/h
695 06-01-2014 14:50:00 11.1 C 8.16 g/m*3 11.1 C 4.8 km/h
696 06-01-2014 14:55:00 11 C 8.11 g/m*3 11 C 3.2 km/h
697 06-01-2014 15:00:00 10.9 C 8.16 g/m*3 10.9 C 1.6 km/h
698 06-01-2014 15:05:00 10.9 C 8.16 g/m*3 10.9 C 1.6 km/h
699 06-01-2014 15:10:00 10.8 C 8.2 g/m*3 10.8 C 0 km/h
700 06-01-2014 15:15:00 10.8 C 8.2 g/m*3 10.8 C 0 km/h
Sensor: Nr:Datum:Temp:Abs-Feuchte:Windchill:Wind:
Aussen-T/F 701 06-01-2014 15:20:00 10.7 C 8.25 g/m*3 10.7 C 3.2 km/h
702 06-01-2014 15:25:00 10.7 C 8.25 g/m*3 10.7 C 0 km/h
703 06-01-2014 15:30:00 10.7 C 8.35 g/m*3 10.7 C 1.6 km/h
704 06-01-2014 15:35:00 10.7 C 8.25 g/m*3 10.7 C 3.2 km/h
705 06-01-2014 15:40:00 10.6 C 8.3 g/m*3 10.6 C 3.2 km/h
706 06-01-2014 15:45:00 10.6 C 8.3 g/m*3 10.6 C 4.8 km/h
707 06-01-2014 15:50:00 10.6 C 8.2 g/m*3 10.6 C 3.2 km/h
708 06-01-2014 15:55:00 10.6 C 8.2 g/m*3 10.6 C 4.8 km/h
709 06-01-2014 16:00:00 10.7 C 8.05 g/m*3 10.7 C 4.8 km/h
710 06-01-2014 16:05:00 10.7 C 8.05 g/m*3 10.7 C 3.2 km/h
711 06-01-2014 16:10:00 10.6 C 8 g/m*3 10.6 C 1.6 km/h
712 06-01-2014 16:15:00 10.6 C 8 g/m*3 9.69 C 8.1 km/h
713 06-01-2014 16:20:00 10.5 C 7.95 g/m*3 9.95 C 6.4 km/h
714 06-01-2014 16:25:00 10.4 C 8 g/m*3 10.4 C 3.2 km/h
715 06-01-2014 16:30:00 10.3 C 7.95 g/m*3 10.3 C 4.8 km/h
716 06-01-2014 16:35:00 10.3 C 7.85 g/m*3 10.3 C 4.8 km/h
717 06-01-2014 16:40:00 10.4 C 7.9 g/m*3 10.4 C 4.8 km/h
718 06-01-2014 16:45:00 10.4 C 7.9 g/m*3 10.4 C 4.8 km/h
719 06-01-2014 16:50:00 10.4 C 7.9 g/m*3 10.4 C 3.2 km/h
720 06-01-2014 16:55:00 10.4 C 7.81 g/m*3 10.4 C 4.8 km/h
721 06-01-2014 17:00:00 10.3 C 7.76 g/m*3 10.3 C 3.2 km/h
722 06-01-2014 17:05:00 10.2 C 7.8 g/m*3 10.2 C 0 km/h
723 06-01-2014 17:10:00 10.1 C 7.85 g/m*3 10.1 C 4.8 km/h
724 06-01-2014 17:15:00 10.1 C 7.94 g/m*3 10.1 C 1.6 km/h
725 06-01-2014 17:20:00 9.9 C 8.03 g/m*3 9.9 C 1.6 km/h
Sensor: Nr:Datum:Temp:Abs-Feuchte:Windchill:Wind:
Aussen-T/F 726 06-01-2014 17:25:00 9.8 C 7.98 g/m*3 9.8 C 3.2 km/h
727 06-01-2014 17:30:00 9.8 C 8.07 g/m*3 9.8 C 3.2 km/h
728 06-01-2014 17:35:00 9.7 C 8.11 g/m*3 9.7 C 1.6 km/h
729 06-01-2014 17:40:00 9.6 C 8.15 g/m*3 9.6 C 1.6 km/h
730 06-01-2014 17:45:00 9.4 C 8.05 g/m*3 9.4 C 3.2 km/h
731 06-01-2014 17:50:00 9.4 C 7.96 g/m*3 9.4 C 3.2 km/h
732 06-01-2014 17:55:00 9.5 C 7.92 g/m*3 8.4 C 8.1 km/h
733 06-01-2014 18:00:00 9.7 C 8.02 g/m*3 9.02 C 6.4 km/h
734 06-01-2014 18:05:00 9.7 C 8.02 g/m*3 9.7 C 4.8 km/h
735 06-01-2014 18:10:00 9.6 C 7.97 g/m*3 9.6 C 3.2 km/h
736 06-01-2014 18:15:00 9.6 C 7.97 g/m*3 9.6 C 0 km/h
737 06-01-2014 18:20:00 9.8 C 7.98 g/m*3 9.14 C 6.4 km/h
738 06-01-2014 18:25:00 10.2 C 7.9 g/m*3 10.2 C 4.8 km/h
739 06-01-2014 18:30:00 10.3 C 7.95 g/m*3 10.3 C 4.8 km/h
740 06-01-2014 18:35:00 10.3 C 7.95 g/m*3 9.34 C 8.1 km/h
741 06-01-2014 18:40:00 10.9 C 8.16 g/m*3 10.9 C 3.2 km/h
742 06-01-2014 18:45:00 11.1 C 8.26 g/m*3 11.1 C 6.4 km/h
743 06-01-2014 18:50:00 11.1 C 8.36 g/m*3 11.1 C 4.8 km/h
744 06-01-2014 18:55:00 11 C 8.41 g/m*3 11 C 4.8 km/h
745 06-01-2014 19:00:00 10.9 C 8.26 g/m*3 10.9 C 3.2 km/h
746 06-01-2014 19:05:00 10.9 C 8.36 g/m*3 10.04 C 8.1 km/h
747 06-01-2014 19:10:00 10.8 C 8.3 g/m*3 10.29 C 6.4 km/h
748 06-01-2014 19:15:00 10.9 C 8.36 g/m*3 10.9 C 3.2 km/h
749 06-01-2014 19:20:00 10.9 C 8.55 g/m*3 10.41 C 6.4 km/h
750 06-01-2014 19:25:00 10.8 C 8.5 g/m*3 10.8 C 4.8 km/h
Sensor: Nr:Datum:Temp:Abs-Feuchte:Windchill:Wind:
Aussen-T/F 751 06-01-2014 19:30:00 10.8 C 8.6 g/m*3 10.8 C 1.6 km/h
752 06-01-2014 19:35:00 10.7 C 8.64 g/m*3 9.52 C 9.7 km/h
753 06-01-2014 19:40:00 10.5 C 8.63 g/m*3 10.5 C 3.2 km/h
754 06-01-2014 19:45:00 10.3 C 8.62 g/m*3 10.3 C 4.8 km/h
755 06-01-2014 19:50:00 10.2 C 8.66 g/m*3 10.2 C 4.8 km/h
756 06-01-2014 19:55:00 10.1 C 8.7 g/m*3 10.1 C 4.8 km/h
757 06-01-2014 20:00:00 9.9 C 8.59 g/m*3 9.9 C 3.2 km/h
758 06-01-2014 20:05:00 9.8 C 8.63 g/m*3 9.8 C 3.2 km/h
759 06-01-2014 20:10:00 9.8 C 8.72 g/m*3 9.8 C 3.2 km/h
760 06-01-2014 20:15:00 9.7 C 8.67 g/m*3 9.7 C 3.2 km/h
761 06-01-2014 20:20:00 9.7 C 8.67 g/m*3 9.02 C 6.4 km/h
762 06-01-2014 20:25:00 9.7 C 8.67 g/m*3 9.7 C 3.2 km/h
763 06-01-2014 20:30:00 9.7 C 8.67 g/m*3 9.7 C 3.2 km/h
764 06-01-2014 20:35:00 9.7 C 8.76 g/m*3 9.02 C 6.4 km/h
765 06-01-2014 20:40:00 9.8 C 8.81 g/m*3 9.8 C 4.8 km/h
766 06-01-2014 20:45:00 9.9 C 8.87 g/m*3 9.9 C 3.2 km/h
767 06-01-2014 20:50:00 9.9 C 8.78 g/m*3 9.9 C 4.8 km/h
768 06-01-2014 20:55:00 9.9 C 8.78 g/m*3 9.9 C 4.8 km/h
769 06-01-2014 21:00:00 9.9 C 8.78 g/m*3 9.9 C 4.8 km/h
770 06-01-2014 21:05:00 9.8 C 8.72 g/m*3 9.8 C 1.6 km/h
771 06-01-2014 21:10:00 9.8 C 8.72 g/m*3 9.8 C 3.2 km/h
772 06-01-2014 21:15:00 9.8 C 8.72 g/m*3 9.8 C 1.6 km/h
773 06-01-2014 21:20:00 9.8 C 8.81 g/m*3 9.8 C 3.2 km/h
774 06-01-2014 21:25:00 9.7 C 8.76 g/m*3 9.7 C 3.2 km/h
775 06-01-2014 21:30:00 9.7 C 8.76 g/m*3 9.02 C 6.4 km/h
Sensor: Nr:Datum:Temp:Abs-Feuchte:Windchill:Wind:
Aussen-T/F 776 06-01-2014 21:35:00 9.7 C 8.85 g/m*3 9.7 C 1.6 km/h
777 06-01-2014 21:40:00 9.6 C 8.79 g/m*3 9.6 C 1.6 km/h
778 06-01-2014 21:45:00 9.6 C 8.79 g/m*3 9.6 C 3.2 km/h
779 06-01-2014 21:50:00 9.7 C 8.85 g/m*3 9.02 C 6.4 km/h
780 06-01-2014 21:55:00 9.8 C 8.81 g/m*3 9.8 C 3.2 km/h
781 06-01-2014 22:00:00 9.7 C 8.76 g/m*3 9.7 C 1.6 km/h
782 06-01-2014 22:05:00 9.7 C 8.76 g/m*3 9.7 C 3.2 km/h
783 06-01-2014 22:10:00 9.6 C 8.7 g/m*3 9.6 C 3.2 km/h
784 06-01-2014 22:15:00 9.7 C 8.76 g/m*3 9.7 C 4.8 km/h
785 06-01-2014 22:20:00 9.7 C 8.76 g/m*3 9.7 C 3.2 km/h
786 06-01-2014 22:25:00 9.7 C 8.76 g/m*3 9.7 C 3.2 km/h
787 06-01-2014 22:30:00 9.7 C 8.76 g/m*3 9.7 C 1.6 km/h
788 06-01-2014 22:35:00 9.7 C 8.76 g/m*3 9.7 C 3.2 km/h
789 06-01-2014 22:40:00 9.6 C 8.61 g/m*3 9.6 C 3.2 km/h
790 06-01-2014 22:45:00 9.6 C 8.61 g/m*3 9.6 C 1.6 km/h
791 06-01-2014 22:50:00 9.4 C 8.5 g/m*3 9.4 C 0 km/h
792 06-01-2014 22:55:00 9.3 C 8.45 g/m*3 9.3 C 3.2 km/h
793 06-01-2014 23:00:00 9.3 C 8.54 g/m*3 7.85 C 9.7 km/h
794 06-01-2014 23:05:00 9.4 C 8.5 g/m*3 8.68 C 6.4 km/h
795 06-01-2014 23:10:00 9.5 C 8.56 g/m*3 8.09 C 9.7 km/h
796 06-01-2014 23:15:00 9.5 C 8.56 g/m*3 8.09 C 9.7 km/h
797 06-01-2014 23:20:00 9.6 C 8.61 g/m*3 8.21 C 9.7 km/h
798 06-01-2014 23:25:00 9.6 C 8.61 g/m*3 8.91 C 6.4 km/h
799 06-01-2014 23:30:00 9.6 C 8.61 g/m*3 9.6 C 3.2 km/h
800 06-01-2014 23:35:00 9.6 C 8.61 g/m*3 9.6 C 4.8 km/h
Sensor: Nr:Datum:Temp:Abs-Feuchte:Windchill:Wind:
Aussen-T/F 801 06-01-2014 23:40:00 9.7 C 8.76 g/m*3 9.7 C 3.2 km/h
802 06-01-2014 23:45:00 9.7 C 8.76 g/m*3 8.33 C 9.7 km/h
803 06-01-2014 23:50:00 9.9 C 8.87 g/m*3 8.56 C 9.7 km/h
804 06-01-2014 23:55:00 9.9 C 8.87 g/m*3 9.25 C 6.4 km/h
805 07-01-2014 00:00:00 10.1 C 8.89 g/m*3 9.1 C 8.1 km/h
806 07-01-2014 00:05:00 10.2 C 8.95 g/m*3 8.66 C 11.3 km/h
807 07-01-2014 00:10:00 10.3 C 9 g/m*3 9.04 C 9.7 km/h
808 07-01-2014 00:15:00 10.5 C 9.02 g/m*3 9.02 C 11.3 km/h
809 07-01-2014 00:20:00 10.7 C 9.13 g/m*3 8.65 C 16.1 km/h
810 07-01-2014 00:25:00 10.9 C 9.15 g/m*3 8.9 C 16.1 km/h
811 07-01-2014 00:30:00 10.9 C 9.15 g/m*3 9.76 C 9.7 km/h
812 07-01-2014 00:35:00 11.1 C 9.17 g/m*3 11.1 C 12.9 km/h
813 07-01-2014 00:40:00 11.2 C 9.12 g/m*3 11.2 C 24.1 km/h
814 07-01-2014 00:45:00 11.2 C 9.12 g/m*3 11.2 C 24.1 km/h
815 07-01-2014 00:50:00 11.1 C 8.96 g/m*3 11.1 C 29 km/h
816 07-01-2014 00:55:00 11 C 8.81 g/m*3 8.3 C 24.1 km/h
817 07-01-2014 01:00:00 10.9 C 8.65 g/m*3 9.51 C 11.3 km/h
818 07-01-2014 01:05:00 11 C 8.71 g/m*3 9.63 C 11.3 km/h
819 07-01-2014 01:10:00 11 C 8.61 g/m*3 9.4 C 12.9 km/h
820 07-01-2014 01:15:00 11 C 8.71 g/m*3 8.56 C 20.9 km/h
821 07-01-2014 01:20:00 10.8 C 8.6 g/m*3 9.93 C 8.1 km/h
822 07-01-2014 01:25:00 10.6 C 8.59 g/m*3 9.4 C 9.7 km/h
823 07-01-2014 01:30:00 10.6 C 8.69 g/m*3 9.4 C 9.7 km/h
824 07-01-2014 01:35:00 10.6 C 8.69 g/m*3 9.4 C 9.7 km/h
825 07-01-2014 01:40:00 10.7 C 8.74 g/m*3 9.52 C 9.7 km/h
Sensor: Nr:Datum:Temp:Abs-Feuchte:Windchill:Wind:
Aussen-T/F 826 07-01-2014 01:45:00 10.6 C 8.78 g/m*3 10.06 C 6.4 km/h
827 07-01-2014 01:50:00 10.5 C 8.73 g/m*3 9.95 C 6.4 km/h
828 07-01-2014 01:55:00 10.2 C 8.66 g/m*3 10.2 C 3.2 km/h
829 07-01-2014 02:00:00 10.1 C 8.7 g/m*3 9.48 C 6.4 km/h
830 07-01-2014 02:05:00 10 C 8.74 g/m*3 10 C 4.8 km/h
831 07-01-2014 02:10:00 10.1 C 8.79 g/m*3 8.8 C 9.7 km/h
832 07-01-2014 02:15:00 10.2 C 8.76 g/m*3 10.2 C 4.8 km/h
833 07-01-2014 02:20:00 10.3 C 8.81 g/m*3 9.34 C 8.1 km/h
834 07-01-2014 02:25:00 10.5 C 8.83 g/m*3 9.02 C 11.3 km/h
835 07-01-2014 02:30:00 10.6 C 8.78 g/m*3 8.92 C 12.9 km/h
836 07-01-2014 02:35:00 10.6 C 8.78 g/m*3 10.06 C 6.4 km/h
837 07-01-2014 02:40:00 10.4 C 8.77 g/m*3 9.46 C 8.1 km/h
838 07-01-2014 02:45:00 10.4 C 8.67 g/m*3 9.16 C 9.7 km/h
839 07-01-2014 02:50:00 10.4 C 8.67 g/m*3 9.83 C 6.4 km/h
840 07-01-2014 02:55:00 10.3 C 8.62 g/m*3 9.34 C 8.1 km/h
841 07-01-2014 03:00:00 10.1 C 8.51 g/m*3 8.54 C 11.3 km/h
842 07-01-2014 03:05:00 10.2 C 8.56 g/m*3 9.6 C 6.4 km/h
843 07-01-2014 03:10:00 9.9 C 8.5 g/m*3 9.9 C 3.2 km/h
844 07-01-2014 03:15:00 9.7 C 8.48 g/m*3 9.7 C 4.8 km/h
845 07-01-2014 03:20:00 9.8 C 8.44 g/m*3 9.8 C 4.8 km/h
846 07-01-2014 03:25:00 9.9 C 8.5 g/m*3 9.9 C 4.8 km/h
847 07-01-2014 03:30:00 10 C 8.55 g/m*3 9.37 C 6.4 km/h
848 07-01-2014 03:35:00 10 C 8.46 g/m*3 10 C 4.8 km/h
849 07-01-2014 03:40:00 10.1 C 8.51 g/m*3 9.48 C 6.4 km/h
850 07-01-2014 03:45:00 9.8 C 8.35 g/m*3 9.8 C 4.8 km/h
Sensor: Nr:Datum:Temp:Abs-Feuchte:Windchill:Wind:
Aussen-T/F 851 07-01-2014 03:50:00 9.7 C 8.39 g/m*3 9.02 C 6.4 km/h
852 07-01-2014 03:55:00 9.8 C 8.44 g/m*3 9.8 C 4.8 km/h
853 07-01-2014 04:00:00 9.6 C 8.43 g/m*3 9.6 C 1.6 km/h
854 07-01-2014 04:05:00 9.4 C 8.32 g/m*3 9.4 C 4.8 km/h
855 07-01-2014 04:10:00 9.3 C 8.36 g/m*3 9.3 C 3.2 km/h
856 07-01-2014 04:15:00 9.2 C 8.3 g/m*3 9.2 C 3.2 km/h
857 07-01-2014 04:20:00 8.9 C 8.15 g/m*3 8.9 C 3.2 km/h
858 07-01-2014 04:25:00 8.9 C 8.23 g/m*3 8.9 C 3.2 km/h
859 07-01-2014 04:30:00 8.8 C 8.18 g/m*3 8.8 C 4.8 km/h
860 07-01-2014 04:35:00 9.1 C 8.43 g/m*3 9.1 C 4.8 km/h
861 07-01-2014 04:40:00 9.3 C 8.45 g/m*3 8.16 C 8.1 km/h
862 07-01-2014 04:45:00 9.5 C 8.47 g/m*3 9.5 C 3.2 km/h
863 07-01-2014 04:50:00 9.6 C 8.52 g/m*3 9.6 C 1.6 km/h
864 07-01-2014 04:55:00 9.8 C 8.44 g/m*3 9.8 C 3.2 km/h
865 07-01-2014 05:00:00 10 C 8.46 g/m*3 9.37 C 6.4 km/h
866 07-01-2014 05:05:00 10.2 C 8.47 g/m*3 9.6 C 6.4 km/h
867 07-01-2014 05:10:00 10.2 C 8.37 g/m*3 10.2 C 3.2 km/h
868 07-01-2014 05:15:00 10.2 C 8.37 g/m*3 9.6 C 6.4 km/h
869 07-01-2014 05:20:00 10.3 C 8.33 g/m*3 9.34 C 8.1 km/h
870 07-01-2014 05:25:00 10.4 C 8.29 g/m*3 10.4 C 3.2 km/h
871 07-01-2014 05:30:00 10.3 C 8.24 g/m*3 9.72 C 6.4 km/h
872 07-01-2014 05:35:00 10.4 C 8.1 g/m*3 8.47 C 14.5 km/h
873 07-01-2014 05:40:00 10.5 C 8.15 g/m*3 9.28 C 9.7 km/h
874 07-01-2014 05:45:00 10.5 C 8.05 g/m*3 9.02 C 11.3 km/h
875 07-01-2014 05:50:00 10.4 C 8.1 g/m*3 10.4 C 4.8 km/h
Sensor: Nr:Datum:Temp:Abs-Feuchte:Windchill:Wind:
Aussen-T/F 876 07-01-2014 05:55:00 10.3 C 8.04 g/m*3 8.78 C 11.3 km/h
877 07-01-2014 06:00:00 10.3 C 8.04 g/m*3 8.78 C 11.3 km/h
878 07-01-2014 06:05:00 10.3 C 8.14 g/m*3 10.3 C 1.6 km/h
879 07-01-2014 06:10:00 10.1 C 8.23 g/m*3 10.1 C 3.2 km/h
880 07-01-2014 06:15:00 10.1 C 8.13 g/m*3 9.48 C 6.4 km/h
881 07-01-2014 06:20:00 10.2 C 8.09 g/m*3 8.92 C 9.7 km/h
882 07-01-2014 06:25:00 10.4 C 8 g/m*3 9.83 C 6.4 km/h
883 07-01-2014 06:30:00 10.5 C 8.05 g/m*3 8.8 C 12.9 km/h
884 07-01-2014 06:35:00 10.4 C 8.1 g/m*3 10.4 C 1.6 km/h
885 07-01-2014 06:40:00 10.3 C 8.04 g/m*3 10.3 C 1.6 km/h
886 07-01-2014 06:45:00 10.3 C 8.04 g/m*3 10.3 C 4.8 km/h
887 07-01-2014 06:50:00 10.4 C 8 g/m*3 10.4 C 4.8 km/h
888 07-01-2014 06:55:00 10.5 C 7.95 g/m*3 9.57 C 8.1 km/h
889 07-01-2014 07:00:00 10.4 C 8 g/m*3 10.4 C 4.8 km/h
890 07-01-2014 07:05:00 10.1 C 7.94 g/m*3 10.1 C 3.2 km/h
891 07-01-2014 07:10:00 9.6 C 7.88 g/m*3 9.6 C 4.8 km/h
892 07-01-2014 07:15:00 9.4 C 7.87 g/m*3 8.68 C 6.4 km/h
893 07-01-2014 07:20:00 9.3 C 7.91 g/m*3 9.3 C 4.8 km/h
894 07-01-2014 07:25:00 9.4 C 7.96 g/m*3 9.4 C 4.8 km/h
895 07-01-2014 07:30:00 9.4 C 7.87 g/m*3 9.4 C 4.8 km/h
896 07-01-2014 07:35:00 9.5 C 7.92 g/m*3 8.79 C 6.4 km/h
897 07-01-2014 07:40:00 9.6 C 7.97 g/m*3 8.91 C 6.4 km/h
898 07-01-2014 07:45:00 9.6 C 7.97 g/m*3 9.6 C 3.2 km/h
899 07-01-2014 07:50:00 9.7 C 7.84 g/m*3 9.7 C 4.8 km/h
900 07-01-2014 07:55:00 9.7 C 7.84 g/m*3 9.7 C 3.2 km/h
Sensor: Nr:Datum:Temp:Abs-Feuchte:Windchill:Wind:
Aussen-T/F 901 07-01-2014 08:00:00 9.6 C 7.88 g/m*3 8.52 C 8.1 km/h
902 07-01-2014 08:05:00 9.4 C 7.78 g/m*3 9.4 C 4.8 km/h
903 07-01-2014 08:10:00 9.3 C 7.73 g/m*3 9.3 C 4.8 km/h
904 07-01-2014 08:15:00 9.6 C 7.79 g/m*3 8.52 C 8.1 km/h
905 07-01-2014 08:20:00 9.6 C 7.88 g/m*3 9.6 C 4.8 km/h
906 07-01-2014 08:25:00 9.6 C 7.97 g/m*3 9.6 C 4.8 km/h
907 07-01-2014 08:30:00 9.4 C 7.96 g/m*3 9.4 C 3.2 km/h
908 07-01-2014 08:35:00 9.4 C 7.87 g/m*3 9.4 C 3.2 km/h
909 07-01-2014 08:40:00 9.7 C 7.93 g/m*3 9.02 C 6.4 km/h
910 07-01-2014 08:45:00 9.9 C 7.94 g/m*3 9.9 C 4.8 km/h
911 07-01-2014 08:50:00 10.2 C 7.9 g/m*3 10.2 C 4.8 km/h
912 07-01-2014 08:55:00 10.3 C 7.85 g/m*3 9.72 C 6.4 km/h
913 07-01-2014 09:00:00 10.4 C 7.9 g/m*3 9.46 C 8.1 km/h
914 07-01-2014 09:05:00 10.5 C 7.86 g/m*3 9.02 C 11.3 km/h
915 07-01-2014 09:10:00 10.7 C 7.86 g/m*3 8.84 C 14.5 km/h
916 07-01-2014 09:15:00 10.8 C 7.91 g/m*3 10.29 C 6.4 km/h
917 07-01-2014 09:20:00 10.7 C 7.96 g/m*3 9.81 C 8.1 km/h
918 07-01-2014 09:25:00 10.6 C 7.81 g/m*3 9.4 C 9.7 km/h
919 07-01-2014 09:30:00 10.7 C 7.86 g/m*3 9.26 C 11.3 km/h
920 07-01-2014 09:35:00 10.7 C 7.96 g/m*3 10.18 C 6.4 km/h
921 07-01-2014 09:40:00 10.7 C 7.96 g/m*3 10.18 C 6.4 km/h
922 07-01-2014 09:45:00 10.8 C 8.01 g/m*3 10.29 C 6.4 km/h
923 07-01-2014 09:50:00 10.8 C 7.91 g/m*3 9.64 C 9.7 km/h
924 07-01-2014 09:55:00 10.9 C 7.96 g/m*3 10.04 C 8.1 km/h
925 07-01-2014 10:00:00 11 C 8.11 g/m*3 10.16 C 8.1 km/h
Sensor: Nr:Datum:Temp:Abs-Feuchte:Windchill:Wind:
Aussen-T/F 926 07-01-2014 10:05:00 11.1 C 8.06 g/m*3 11.1 C 4.8 km/h
927 07-01-2014 10:10:00 11.1 C 8.06 g/m*3 11.1 C 12.9 km/h
928 07-01-2014 10:15:00 11.1 C 8.16 g/m*3 11.1 C 4.8 km/h
929 07-01-2014 10:20:00 11.1 C 8.06 g/m*3 11.1 C 11.3 km/h
930 07-01-2014 10:25:00 11.3 C 8.06 g/m*3 11.3 C 20.9 km/h
931 07-01-2014 10:30:00 11.4 C 8.01 g/m*3 11.4 C 17.7 km/h
932 07-01-2014 10:35:00 11.6 C 8.11 g/m*3 11.6 C 6.4 km/h
933 07-01-2014 10:40:00 11.6 C 8.11 g/m*3 11.6 C 12.9 km/h
934 07-01-2014 10:45:00 11.7 C 8.26 g/m*3 11.7 C 11.3 km/h
935 07-01-2014 10:50:00 11.6 C 8.21 g/m*3 11.6 C 6.4 km/h
936 07-01-2014 10:55:00 11.7 C 8.26 g/m*3 11.7 C 8.1 km/h
937 07-01-2014 11:00:00 11.7 C 8.16 g/m*3 11.7 C 14.5 km/h
938 07-01-2014 11:05:00 11.7 C 8.16 g/m*3 11.7 C 11.3 km/h
939 07-01-2014 11:10:00 11.7 C 8.16 g/m*3 11.7 C 4.8 km/h
940 07-01-2014 11:15:00 11.7 C 8.16 g/m*3 11.7 C 11.3 km/h
941 07-01-2014 11:20:00 11.7 C 8.26 g/m*3 11.7 C 3.2 km/h
942 07-01-2014 11:25:00 11.8 C 8.31 g/m*3 11.8 C 12.9 km/h
943 07-01-2014 11:30:00 11.8 C 8.31 g/m*3 11.8 C 8.1 km/h
944 07-01-2014 11:35:00 11.9 C 8.37 g/m*3 11.9 C 6.4 km/h
945 07-01-2014 11:40:00 11.9 C 8.26 g/m*3 11.9 C 6.4 km/h
946 07-01-2014 11:45:00 12 C 8.31 g/m*3 12 C 11.3 km/h
947 07-01-2014 11:50:00 12 C 8.21 g/m*3 12 C 11.3 km/h
948 07-01-2014 11:55:00 11.9 C 8.26 g/m*3 11.9 C 1.6 km/h
949 07-01-2014 12:00:00 11.9 C 8.26 g/m*3 11.9 C 8.1 km/h
950 07-01-2014 12:05:00 11.9 C 8.15 g/m*3 11.9 C 8.1 km/h
Sensor: Nr:Datum:Temp:Abs-Feuchte:Windchill:Wind:
Aussen-T/F 951 07-01-2014 12:10:00 11.9 C 8.26 g/m*3 11.9 C 9.7 km/h
952 07-01-2014 12:15:00 11.9 C 8.26 g/m*3 11.9 C 9.7 km/h
953 07-01-2014 12:20:00 11.9 C 8.37 g/m*3 11.9 C 6.4 km/h
954 07-01-2014 12:25:00 11.9 C 8.26 g/m*3 11.9 C 9.7 km/h
955 07-01-2014 12:30:00 11.9 C 8.47 g/m*3 11.9 C 6.4 km/h
956 07-01-2014 12:35:00 11.8 C 8.31 g/m*3 11.8 C 4.8 km/h
957 07-01-2014 12:40:00 11.8 C 8.53 g/m*3 11.8 C 4.8 km/h
958 07-01-2014 12:45:00 11.8 C 8.53 g/m*3 11.8 C 6.4 km/h
959 07-01-2014 12:50:00 11.7 C 8.47 g/m*3 11.7 C 4.8 km/h
960 07-01-2014 12:55:00 11.7 C 8.79 g/m*3 11.7 C 3.2 km/h
961 07-01-2014 13:00:00 11.5 C 8.57 g/m*3 11.5 C 1.6 km/h
962 07-01-2014 13:05:00 11.4 C 8.62 g/m*3 11.4 C 1.6 km/h
963 07-01-2014 13:10:00 11.5 C 8.68 g/m*3 11.5 C 3.2 km/h
964 07-01-2014 13:15:00 11.6 C 8.52 g/m*3 11.6 C 1.6 km/h
965 07-01-2014 13:20:00 11.6 C 8.63 g/m*3 11.6 C 4.8 km/h
966 07-01-2014 13:25:00 11.7 C 8.79 g/m*3 11.7 C 8.1 km/h
967 07-01-2014 13:30:00 11.6 C 8.83 g/m*3 11.6 C 1.6 km/h
968 07-01-2014 13:35:00 11.4 C 8.62 g/m*3 11.4 C 4.8 km/h
969 07-01-2014 13:40:00 11.4 C 8.52 g/m*3 11.4 C 1.6 km/h
970 07-01-2014 13:45:00 11.5 C 8.57 g/m*3 11.5 C 1.6 km/h
971 07-01-2014 13:50:00 11.7 C 8.79 g/m*3 11.7 C 3.2 km/h
972 07-01-2014 13:55:00 11.7 C 8.79 g/m*3 11.7 C 6.4 km/h
973 07-01-2014 14:00:00 11.7 C 8.79 g/m*3 11.7 C 4.8 km/h
974 07-01-2014 14:05:00 11.9 C 8.9 g/m*3 11.9 C 6.4 km/h
975 07-01-2014 14:10:00 12.3 C 8.36 g/m*3 12.3 C 9.7 km/h
Sensor: Nr:Datum:Temp:Abs-Feuchte:Windchill:Wind:
Aussen-T/F 976 07-01-2014 14:15:00 12.7 C 8.46 g/m*3 12.7 C 6.4 km/h
977 07-01-2014 14:20:00 12.9 C 8.23 g/m*3 12.9 C 6.4 km/h
978 07-01-2014 14:25:00 13.3 C 8.66 g/m*3 13.3 C 8.1 km/h
979 07-01-2014 14:30:00 13.4 C 8.14 g/m*3 13.4 C 8.1 km/h
980 07-01-2014 14:35:00 13.4 C 8.02 g/m*3 13.4 C 4.8 km/h
981 07-01-2014 14:40:00 13.6 C 8.12 g/m*3 13.6 C 6.4 km/h
982 07-01-2014 14:45:00 13.6 C 8.24 g/m*3 13.6 C 11.3 km/h
983 07-01-2014 14:50:00 13.3 C 8.66 g/m*3 13.3 C 3.2 km/h
984 07-01-2014 14:55:00 13.1 C 7.87 g/m*3 13.1 C 8.1 km/h
985 07-01-2014 15:00:00 13.2 C 7.81 g/m*3 13.2 C 9.7 km/h
986 07-01-2014 15:05:00 13.2 C 8.15 g/m*3 13.2 C 6.4 km/h
987 07-01-2014 15:10:00 13.1 C 8.33 g/m*3 13.1 C 6.4 km/h
988 07-01-2014 15:15:00 13.1 C 8.1 g/m*3 13.1 C 6.4 km/h
989 07-01-2014 15:20:00 13.1 C 8.33 g/m*3 13.1 C 4.8 km/h
990 07-01-2014 15:25:00 13.1 C 7.99 g/m*3 13.1 C 8.1 km/h
991 07-01-2014 15:30:00 13.3 C 7.97 g/m*3 13.3 C 9.7 km/h
992 07-01-2014 15:35:00 13.4 C 7.9 g/m*3 13.4 C 11.3 km/h
993 07-01-2014 15:40:00 13.6 C 8.36 g/m*3 13.6 C 3.2 km/h
994 07-01-2014 15:45:00 13.4 C 8.14 g/m*3 13.4 C 4.8 km/h
995 07-01-2014 15:50:00 13.3 C 8.2 g/m*3 13.3 C 4.8 km/h
996 07-01-2014 15:55:00 13.2 C 8.04 g/m*3 13.2 C 4.8 km/h
997 07-01-2014 16:00:00 13.2 C 8.61 g/m*3 13.2 C 4.8 km/h
998 07-01-2014 16:05:00 12.9 C 8.11 g/m*3 12.9 C 1.6 km/h
999 07-01-2014 16:10:00 12.9 C 8.11 g/m*3 12.9 C 1.6 km/h
1000 07-01-2014 16:15:00 12.8 C 8.06 g/m*3 12.8 C 3.2 km/h
Sensor: Nr:Datum:Temp:Abs-Feuchte:Windchill:Wind:
Aussen-T/F 1001 07-01-2014 16:20:00 12.6 C 8.63 g/m*3 12.6 C 4.8 km/h
1002 07-01-2014 16:25:00 12.1 C 8.58 g/m*3 12.1 C 3.2 km/h
1003 07-01-2014 16:30:00 11.6 C 8.42 g/m*3 11.6 C 1.6 km/h
1004 07-01-2014 16:35:00 11.2 C 8.21 g/m*3 11.2 C 3.2 km/h
1005 07-01-2014 16:40:00 10.9 C 8.16 g/m*3 10.9 C 3.2 km/h
1006 07-01-2014 16:45:00 10.8 C 8.3 g/m*3 10.8 C 3.2 km/h
1007 07-01-2014 16:50:00 10.7 C 8.35 g/m*3 10.7 C 1.6 km/h
1008 07-01-2014 16:55:00 10.6 C 8.3 g/m*3 10.6 C 4.8 km/h
1009 07-01-2014 17:00:00 10.6 C 8.39 g/m*3 10.6 C 3.2 km/h
1010 07-01-2014 17:05:00 10.6 C 8.49 g/m*3 10.6 C 0 km/h
1011 07-01-2014 17:10:00 10.6 C 8.39 g/m*3 10.6 C 3.2 km/h
1012 07-01-2014 17:15:00 10.6 C 8.39 g/m*3 10.6 C 3.2 km/h
1013 07-01-2014 17:20:00 10.7 C 8.15 g/m*3 10.7 C 1.6 km/h
1014 07-01-2014 17:25:00 10.8 C 8.4 g/m*3 10.8 C 1.6 km/h
1015 07-01-2014 17:30:00 10.7 C 8.45 g/m*3 10.7 C 0 km/h
1016 07-01-2014 17:35:00 10.6 C 8.39 g/m*3 10.6 C 0 km/h
1017 07-01-2014 17:40:00 10.6 C 8.39 g/m*3 10.6 C 3.2 km/h
1018 07-01-2014 17:45:00 10.6 C 8.39 g/m*3 10.6 C 1.6 km/h
1019 07-01-2014 17:50:00 10.6 C 8.39 g/m*3 10.6 C 3.2 km/h
1020 07-01-2014 17:55:00 10.6 C 8.39 g/m*3 10.6 C 3.2 km/h
1021 07-01-2014 18:00:00 10.6 C 8.39 g/m*3 10.6 C 3.2 km/h
1022 07-01-2014 18:05:00 10.4 C 8.29 g/m*3 10.4 C 4.8 km/h
1023 07-01-2014 18:10:00 10.3 C 8.24 g/m*3 10.3 C 1.6 km/h
1024 07-01-2014 18:15:00 10.2 C 8.28 g/m*3 10.2 C 3.2 km/h
1025 07-01-2014 18:20:00 10.2 C 8.28 g/m*3 10.2 C 3.2 km/h
Sensor: Nr:Datum:Temp:Abs-Feuchte:Windchill:Wind:
Aussen-T/F 1026 07-01-2014 18:25:00 10.1 C 8.32 g/m*3 10.1 C 1.6 km/h
1027 07-01-2014 18:30:00 10.1 C 8.42 g/m*3 10.1 C 3.2 km/h
1028 07-01-2014 18:35:00 10.1 C 8.42 g/m*3 10.1 C 3.2 km/h
1029 07-01-2014 18:40:00 10.1 C 8.32 g/m*3 10.1 C 3.2 km/h
1030 07-01-2014 18:45:00 10.2 C 8.37 g/m*3 10.2 C 4.8 km/h
1031 07-01-2014 18:50:00 10.3 C 8.43 g/m*3 10.3 C 3.2 km/h
1032 07-01-2014 18:55:00 10.4 C 8.48 g/m*3 10.4 C 1.6 km/h
1033 07-01-2014 19:00:00 10.5 C 8.53 g/m*3 10.5 C 3.2 km/h
1034 07-01-2014 19:05:00 10.5 C 8.53 g/m*3 10.5 C 3.2 km/h
1035 07-01-2014 19:10:00 10.4 C 8.58 g/m*3 10.4 C 0 km/h
1036 07-01-2014 19:15:00 10.4 C 8.58 g/m*3 10.4 C 0 km/h
1037 07-01-2014 19:20:00 10.4 C 8.48 g/m*3 10.4 C 1.6 km/h
1038 07-01-2014 19:25:00 10.5 C 8.63 g/m*3 10.5 C 1.6 km/h
1039 07-01-2014 19:30:00 10.4 C 8.67 g/m*3 10.4 C 4.8 km/h
1040 07-01-2014 19:35:00 10.4 C 8.67 g/m*3 10.4 C 1.6 km/h
1041 07-01-2014 19:40:00 10.4 C 8.77 g/m*3 10.4 C 3.2 km/h
1042 07-01-2014 19:45:00 10.3 C 8.81 g/m*3 10.3 C 1.6 km/h
1043 07-01-2014 19:50:00 10.3 C 8.81 g/m*3 10.3 C 3.2 km/h
1044 07-01-2014 19:55:00 10.3 C 8.81 g/m*3 10.3 C 1.6 km/h
1045 07-01-2014 20:00:00 10.3 C 8.91 g/m*3 10.3 C 3.2 km/h
1046 07-01-2014 20:05:00 10.2 C 8.85 g/m*3 10.2 C 1.6 km/h
1047 07-01-2014 20:10:00 10 C 8.74 g/m*3 10 C 0 km/h
1048 07-01-2014 20:15:00 9.9 C 8.68 g/m*3 9.9 C 3.2 km/h
1049 07-01-2014 20:20:00 9.7 C 8.57 g/m*3 9.7 C 1.6 km/h
1050 07-01-2014 20:25:00 9.6 C 8.52 g/m*3 9.6 C 3.2 km/h
Sensor: Nr:Datum:Temp:Abs-Feuchte:Windchill:Wind:
Aussen-T/F 1051 07-01-2014 20:30:00 9.5 C 8.56 g/m*3 9.5 C 0 km/h
1052 07-01-2014 20:35:00 9.4 C 8.5 g/m*3 9.4 C 1.6 km/h
1053 07-01-2014 20:40:00 9.3 C 8.45 g/m*3 9.3 C 3.2 km/h
1054 07-01-2014 20:45:00 9.2 C 8.39 g/m*3 9.2 C 1.6 km/h
1055 07-01-2014 20:50:00 9.2 C 8.48 g/m*3 9.2 C 3.2 km/h
1056 07-01-2014 20:55:00 9.3 C 8.54 g/m*3 9.3 C 0 km/h
1057 07-01-2014 21:00:00 9.4 C 8.59 g/m*3 9.4 C 1.6 km/h
1058 07-01-2014 21:05:00 9.6 C 8.7 g/m*3 9.6 C 3.2 km/h
1059 07-01-2014 21:10:00 9.6 C 8.7 g/m*3 8.91 C 6.4 km/h
1060 07-01-2014 21:15:00 9.7 C 8.76 g/m*3 9.7 C 1.6 km/h
1061 07-01-2014 21:20:00 9.7 C 8.76 g/m*3 9.7 C 3.2 km/h
1062 07-01-2014 21:25:00 9.8 C 8.81 g/m*3 9.8 C 1.6 km/h
1063 07-01-2014 21:30:00 9.8 C 8.81 g/m*3 9.8 C 0 km/h
1064 07-01-2014 21:35:00 9.8 C 8.72 g/m*3 9.8 C 1.6 km/h
1065 07-01-2014 21:40:00 9.9 C 8.87 g/m*3 9.9 C 3.2 km/h
1066 07-01-2014 21:45:00 10 C 8.83 g/m*3 10 C 3.2 km/h
1067 07-01-2014 21:50:00 10.1 C 8.89 g/m*3 10.1 C 3.2 km/h
1068 07-01-2014 21:55:00 10.1 C 8.89 g/m*3 10.1 C 3.2 km/h
1069 07-01-2014 22:00:00 10.1 C 8.79 g/m*3 10.1 C 3.2 km/h
1070 07-01-2014 22:05:00 10.2 C 8.85 g/m*3 10.2 C 4.8 km/h
1071 07-01-2014 22:10:00 10.2 C 8.76 g/m*3 10.2 C 1.6 km/h
1072 07-01-2014 22:15:00 10.1 C 8.7 g/m*3 10.1 C 0 km/h
1073 07-01-2014 22:20:00 10 C 8.74 g/m*3 10 C 1.6 km/h
1074 07-01-2014 22:25:00 10 C 8.74 g/m*3 10 C 0 km/h
1075 07-01-2014 22:30:00 10 C 8.74 g/m*3 10 C 0 km/h
Sensor: Nr:Datum:Temp:Abs-Feuchte:Windchill:Wind:
Aussen-T/F 1076 07-01-2014 22:35:00 10.1 C 8.89 g/m*3 10.1 C 3.2 km/h
1077 07-01-2014 22:40:00 10.2 C 8.85 g/m*3 10.2 C 3.2 km/h
1078 07-01-2014 22:45:00 10.2 C 8.85 g/m*3 10.2 C 3.2 km/h
1079 07-01-2014 22:50:00 10.3 C 8.91 g/m*3 10.3 C 3.2 km/h
1080 07-01-2014 22:55:00 10.3 C 8.81 g/m*3 10.3 C 3.2 km/h
1081 07-01-2014 23:00:00 10.3 C 8.81 g/m*3 10.3 C 3.2 km/h
1082 07-01-2014 23:05:00 10.2 C 8.76 g/m*3 10.2 C 3.2 km/h
1083 07-01-2014 23:10:00 10.2 C 8.85 g/m*3 10.2 C 3.2 km/h
1084 07-01-2014 23:15:00 10.2 C 8.85 g/m*3 10.2 C 1.6 km/h
1085 07-01-2014 23:20:00 10.3 C 8.91 g/m*3 10.3 C 1.6 km/h
1086 07-01-2014 23:25:00 10.3 C 8.91 g/m*3 10.3 C 3.2 km/h
1087 07-01-2014 23:30:00 10.3 C 8.91 g/m*3 10.3 C 3.2 km/h
1088 07-01-2014 23:35:00 10.3 C 8.91 g/m*3 10.3 C 1.6 km/h
1089 07-01-2014 23:40:00 10.4 C 8.96 g/m*3 10.4 C 3.2 km/h
1090 07-01-2014 23:45:00 10.6 C 9.08 g/m*3 10.6 C 3.2 km/h
1091 07-01-2014 23:50:00 10.8 C 9.09 g/m*3 10.8 C 4.8 km/h
1092 07-01-2014 23:55:00 11 C 9.01 g/m*3 11 C 3.2 km/h
1093 08-01-2014 00:00:00 11.1 C 9.07 g/m*3 11.1 C 1.6 km/h
1094 08-01-2014 00:05:00 11.3 C 9.08 g/m*3 11.3 C 6.4 km/h
1095 08-01-2014 00:10:00 11.3 C 9.08 g/m*3 11.3 C 12.9 km/h
1096 08-01-2014 00:15:00 11.4 C 9.14 g/m*3 11.4 C 4.8 km/h
1097 08-01-2014 00:20:00 11.5 C 9.09 g/m*3 11.5 C 3.2 km/h
1098 08-01-2014 00:25:00 11.4 C 9.03 g/m*3 11.4 C 4.8 km/h
1099 08-01-2014 00:30:00 11.2 C 9.02 g/m*3 11.2 C 1.6 km/h
1100 08-01-2014 00:35:00 11.1 C 9.07 g/m*3 11.1 C 6.4 km/h
Sensor: Nr:Datum:Temp:Abs-Feuchte:Windchill:Wind:
Aussen-T/F 1101 08-01-2014 00:40:00 11.3 C 9.08 g/m*3 11.3 C 4.8 km/h
1102 08-01-2014 00:45:00 11.3 C 9.08 g/m*3 11.3 C 6.4 km/h
1103 08-01-2014 00:50:00 11.3 C 8.98 g/m*3 11.3 C 8.1 km/h
1104 08-01-2014 00:55:00 11.4 C 9.03 g/m*3 11.4 C 4.8 km/h
1105 08-01-2014 01:00:00 11.3 C 8.98 g/m*3 11.3 C 3.2 km/h
1106 08-01-2014 01:05:00 11.2 C 8.92 g/m*3 11.2 C 6.4 km/h
1107 08-01-2014 01:10:00 10.9 C 8.85 g/m*3 10.9 C 1.6 km/h
1108 08-01-2014 01:15:00 10.9 C 8.95 g/m*3 9.28 C 12.9 km/h
1109 08-01-2014 01:20:00 11.3 C 9.08 g/m*3 11.3 C 8.1 km/h
1110 08-01-2014 01:25:00 11.6 C 9.04 g/m*3 11.6 C 9.7 km/h
1111 08-01-2014 01:30:00 11.9 C 9.11 g/m*3 11.9 C 16.1 km/h
1112 08-01-2014 01:35:00 12.1 C 9.22 g/m*3 12.1 C 9.7 km/h
1113 08-01-2014 01:40:00 11.9 C 9.11 g/m*3 11.9 C 4.8 km/h
1114 08-01-2014 01:45:00 11.8 C 9.16 g/m*3 11.8 C 1.6 km/h
1115 08-01-2014 01:50:00 11.7 C 9.1 g/m*3 11.7 C 8.1 km/h
1116 08-01-2014 01:55:00 11.7 C 9.2 g/m*3 11.7 C 6.4 km/h
1117 08-01-2014 02:00:00 11.7 C 9.2 g/m*3 11.7 C 1.6 km/h
1118 08-01-2014 02:05:00 11.7 C 9.2 g/m*3 11.7 C 4.8 km/h
1119 08-01-2014 02:10:00 11.8 C 9.16 g/m*3 11.8 C 12.9 km/h
1120 08-01-2014 02:15:00 11.9 C 9.21 g/m*3 11.9 C 3.2 km/h
1121 08-01-2014 02:20:00 11.8 C 9.05 g/m*3 11.8 C 4.8 km/h
1122 08-01-2014 02:25:00 11.6 C 9.15 g/m*3 11.6 C 8.1 km/h
1123 08-01-2014 02:30:00 11.6 C 9.15 g/m*3 11.6 C 6.4 km/h
1124 08-01-2014 02:35:00 11.4 C 9.03 g/m*3 11.4 C 6.4 km/h
1125 08-01-2014 02:40:00 11.3 C 8.98 g/m*3 11.3 C 4.8 km/h
Sensor: Nr:Datum:Temp:Abs-Feuchte:Windchill:Wind:
Aussen-T/F 1126 08-01-2014 02:45:00 11.2 C 8.92 g/m*3 11.2 C 4.8 km/h
1127 08-01-2014 02:50:00 11.2 C 9.02 g/m*3 11.2 C 3.2 km/h
1128 08-01-2014 02:55:00 11.1 C 8.96 g/m*3 11.1 C 3.2 km/h
1129 08-01-2014 03:00:00 10.9 C 8.95 g/m*3 10.9 C 3.2 km/h
1130 08-01-2014 03:05:00 10.9 C 8.95 g/m*3 10.9 C 1.6 km/h
1131 08-01-2014 03:10:00 10.8 C 8.9 g/m*3 10.29 C 6.4 km/h
1132 08-01-2014 03:15:00 10.9 C 9.05 g/m*3 10.41 C 6.4 km/h
1133 08-01-2014 03:20:00 11.3 C 9.08 g/m*3 11.3 C 8.1 km/h
1134 08-01-2014 03:25:00 11.3 C 9.08 g/m*3 11.3 C 1.6 km/h
1135 08-01-2014 03:30:00 11.1 C 8.96 g/m*3 11.1 C 4.8 km/h
1136 08-01-2014 03:35:00 11.2 C 9.12 g/m*3 11.2 C 8.1 km/h
1137 08-01-2014 03:40:00 11.3 C 9.18 g/m*3 11.3 C 3.2 km/h
1138 08-01-2014 03:45:00 11.3 C 9.18 g/m*3 11.3 C 1.6 km/h
1139 08-01-2014 03:50:00 11.1 C 9.17 g/m*3 11.1 C 3.2 km/h
1140 08-01-2014 03:55:00 10.9 C 9.05 g/m*3 10.9 C 3.2 km/h
1141 08-01-2014 04:00:00 10.9 C 9.15 g/m*3 10.9 C 3.2 km/h
1142 08-01-2014 04:05:00 10.9 C 9.15 g/m*3 10.9 C 0 km/h
1143 08-01-2014 04:10:00 10.8 C 9.09 g/m*3 10.8 C 1.6 km/h
1144 08-01-2014 04:15:00 10.8 C 9.19 g/m*3 10.8 C 4.8 km/h
1145 08-01-2014 04:20:00 10.9 C 9.15 g/m*3 10.9 C 4.8 km/h
1146 08-01-2014 04:25:00 10.9 C 9.05 g/m*3 10.04 C 8.1 km/h
1147 08-01-2014 04:30:00 10.9 C 9.05 g/m*3 10.9 C 4.8 km/h
1148 08-01-2014 04:35:00 10.9 C 9.05 g/m*3 10.9 C 1.6 km/h
1149 08-01-2014 04:40:00 10.8 C 8.99 g/m*3 10.8 C 3.2 km/h
1150 08-01-2014 04:45:00 10.8 C 9.09 g/m*3 10.8 C 1.6 km/h
Sensor: Nr:Datum:Temp:Abs-Feuchte:Windchill:Wind:
Aussen-T/F 1151 08-01-2014 04:50:00 10.7 C 9.04 g/m*3 10.7 C 1.6 km/h
1152 08-01-2014 04:55:00 10.8 C 9.09 g/m*3 10.8 C 4.8 km/h
1153 08-01-2014 05:00:00 10.9 C 9.15 g/m*3 10.41 C 6.4 km/h
1154 08-01-2014 05:05:00 11.1 C 9.17 g/m*3 11.1 C 9.7 km/h
1155 08-01-2014 05:10:00 11.2 C 9.12 g/m*3 11.2 C 3.2 km/h
1156 08-01-2014 05:15:00 11.3 C 9.18 g/m*3 11.3 C 6.4 km/h
1157 08-01-2014 05:20:00 11.3 C 9.08 g/m*3 11.3 C 12.9 km/h
1158 08-01-2014 05:25:00 11.4 C 9.14 g/m*3 11.4 C 8.1 km/h
1159 08-01-2014 05:30:00 11.5 C 9.09 g/m*3 11.5 C 8.1 km/h
1160 08-01-2014 05:35:00 11.6 C 9.04 g/m*3 11.6 C 6.4 km/h
1161 08-01-2014 05:40:00 11.8 C 9.16 g/m*3 11.8 C 12.9 km/h
1162 08-01-2014 05:45:00 11.9 C 9.11 g/m*3 11.9 C 11.3 km/h
1163 08-01-2014 05:50:00 12.1 C 9.12 g/m*3 12.1 C 24.1 km/h
1164 08-01-2014 05:55:00 12.1 C 9.12 g/m*3 12.1 C 11.3 km/h
1165 08-01-2014 06:00:00 12.2 C 9.06 g/m*3 12.2 C 27.4 km/h
1166 08-01-2014 06:05:00 12.3 C 9.12 g/m*3 12.3 C 16.1 km/h
1167 08-01-2014 06:10:00 12.2 C 9.06 g/m*3 12.2 C 12.9 km/h
1168 08-01-2014 06:15:00 12.2 C 9.17 g/m*3 12.2 C 9.7 km/h
1169 08-01-2014 06:20:00 12.2 C 9.06 g/m*3 12.2 C 12.9 km/h
1170 08-01-2014 06:25:00 12.1 C 9.01 g/m*3 12.1 C 12.9 km/h
1171 08-01-2014 06:30:00 12.1 C 9.01 g/m*3 12.1 C 11.3 km/h
1172 08-01-2014 06:35:00 12.1 C 9.01 g/m*3 12.1 C 12.9 km/h
1173 08-01-2014 06:40:00 12.2 C 8.96 g/m*3 12.2 C 12.9 km/h
1174 08-01-2014 06:45:00 12.2 C 8.96 g/m*3 12.2 C 12.9 km/h
1175 08-01-2014 06:50:00 12.2 C 8.96 g/m*3 12.2 C 6.4 km/h
Sensor: Nr:Datum:Temp:Abs-Feuchte:Windchill:Wind:
Aussen-T/F 1176 08-01-2014 06:55:00 12.1 C 8.9 g/m*3 12.1 C 14.5 km/h
1177 08-01-2014 07:00:00 12.1 C 8.9 g/m*3 12.1 C 11.3 km/h
1178 08-01-2014 07:05:00 12.1 C 8.9 g/m*3 12.1 C 9.7 km/h
1179 08-01-2014 07:10:00 12.1 C 8.9 g/m*3 12.1 C 9.7 km/h
1180 08-01-2014 07:15:00 12.1 C 8.9 g/m*3 12.1 C 12.9 km/h
1181 08-01-2014 07:20:00 12 C 8.85 g/m*3 12 C 12.9 km/h
1182 08-01-2014 07:25:00 11.9 C 8.79 g/m*3 11.9 C 8.1 km/h
1183 08-01-2014 07:30:00 11.9 C 8.79 g/m*3 11.9 C 11.3 km/h
1184 08-01-2014 07:35:00 11.8 C 8.74 g/m*3 11.8 C 9.7 km/h
1185 08-01-2014 07:40:00 11.8 C 8.74 g/m*3 11.8 C 12.9 km/h
1186 08-01-2014 07:45:00 11.9 C 8.79 g/m*3 11.9 C 11.3 km/h
1187 08-01-2014 07:50:00 11.9 C 8.79 g/m*3 11.9 C 9.7 km/h
1188 08-01-2014 07:55:00 11.9 C 8.79 g/m*3 11.9 C 11.3 km/h
1189 08-01-2014 08:00:00 11.7 C 8.68 g/m*3 11.7 C 12.9 km/h
1190 08-01-2014 08:05:00 11.7 C 8.68 g/m*3 11.7 C 9.7 km/h
1191 08-01-2014 08:10:00 11.7 C 8.68 g/m*3 11.7 C 8.1 km/h
1192 08-01-2014 08:15:00 11.5 C 8.68 g/m*3 11.5 C 4.8 km/h
1193 08-01-2014 08:20:00 11.4 C 8.62 g/m*3 11.4 C 4.8 km/h
1194 08-01-2014 08:25:00 11.3 C 8.57 g/m*3 11.3 C 12.9 km/h
1195 08-01-2014 08:30:00 11.3 C 8.57 g/m*3 11.3 C 8.1 km/h
1196 08-01-2014 08:35:00 11.3 C 8.57 g/m*3 11.3 C 9.7 km/h
1197 08-01-2014 08:40:00 11.3 C 8.57 g/m*3 11.3 C 9.7 km/h
1198 08-01-2014 08:45:00 11.4 C 8.62 g/m*3 11.4 C 9.7 km/h
1199 08-01-2014 08:50:00 11.4 C 8.62 g/m*3 11.4 C 9.7 km/h
1200 08-01-2014 08:55:00 11.4 C 8.52 g/m*3 11.4 C 11.3 km/h
Sensor: Nr:Datum:Temp:Abs-Feuchte:Windchill:Wind:
Aussen-T/F 1201 08-01-2014 09:00:00 11.4 C 8.52 g/m*3 11.4 C 11.3 km/h
1202 08-01-2014 09:05:00 11.3 C 8.47 g/m*3 11.3 C 8.1 km/h
1203 08-01-2014 09:10:00 11.3 C 8.47 g/m*3 11.3 C 4.8 km/h
1204 08-01-2014 10:35:00 11.4 C 8.52 g/m*3 11.4 C 12.9 km/h
1205 08-01-2014 10:40:00 11.4 C 8.42 g/m*3 11.4 C 11.3 km/h
1206 08-01-2014 10:45:00 11.6 C 8.52 g/m*3 11.6 C 9.7 km/h
1207 08-01-2014 10:50:00 11.6 C 8.42 g/m*3 11.6 C 6.4 km/h
1208 08-01-2014 10:55:00 11.6 C 8.42 g/m*3 11.6 C 8.1 km/h
1209 08-01-2014 11:00:00 11.4 C 8.42 g/m*3 11.4 C 12.9 km/h
1210 08-01-2014 11:05:00 11.4 C 8.42 g/m*3 11.4 C 12.9 km/h
1211 08-01-2014 11:10:00 11.4 C 8.42 g/m*3 11.4 C 6.4 km/h
1212 08-01-2014 11:15:00 11.3 C 8.36 g/m*3 11.3 C 8.1 km/h
1213 08-01-2014 11:20:00 11.2 C 8.31 g/m*3 11.2 C 9.7 km/h
1214 08-01-2014 11:25:00 11 C 8.31 g/m*3 11 C 4.8 km/h
1215 08-01-2014 11:30:00 11.1 C 8.36 g/m*3 11.1 C 6.4 km/h
1216 08-01-2014 11:35:00 11.1 C 8.26 g/m*3 11.1 C 8.1 km/h
1217 08-01-2014 11:40:00 11.1 C 8.36 g/m*3 11.1 C 6.4 km/h
1218 08-01-2014 11:45:00 11.1 C 8.26 g/m*3 11.1 C 6.4 km/h
1219 08-01-2014 11:50:00 11.1 C 8.36 g/m*3 11.1 C 3.2 km/h
1220 08-01-2014 11:55:00 10.9 C 8.36 g/m*3 10.9 C 3.2 km/h
1221 08-01-2014 12:00:00 10.6 C 8.2 g/m*3 10.06 C 6.4 km/h
1222 08-01-2014 12:05:00 10.8 C 8.2 g/m*3 10.8 C 4.8 km/h
1223 08-01-2014 12:10:00 10.8 C 8.3 g/m*3 10.8 C 1.6 km/h
1224 08-01-2014 12:15:00 10.7 C 8.35 g/m*3 10.7 C 3.2 km/h
1225 08-01-2014 12:20:00 10.7 C 8.35 g/m*3 10.7 C 4.8 km/h
Sensor: Nr:Datum:Temp:Abs-Feuchte:Windchill:Wind:
Aussen-T/F 1226 08-01-2014 12:25:00 11.2 C 8.11 g/m*3 11.2 C 6.4 km/h
1227 08-01-2014 12:30:00 11.4 C 8.11 g/m*3 11.4 C 8.1 km/h
1228 08-01-2014 12:35:00 11.7 C 8.37 g/m*3 11.7 C 8.1 km/h
1229 08-01-2014 12:40:00 11.8 C 8.31 g/m*3 11.8 C 6.4 km/h
1230 08-01-2014 12:45:00 11.8 C 8.31 g/m*3 11.8 C 1.6 km/h
1231 08-01-2014 12:50:00 11.8 C 8.31 g/m*3 11.8 C 11.3 km/h
1232 08-01-2014 12:55:00 11.8 C 8.31 g/m*3 11.8 C 14.5 km/h
1233 08-01-2014 13:00:00 12.4 C 8.3 g/m*3 12.4 C 16.1 km/h
1234 08-01-2014 13:05:00 12.5 C 8.36 g/m*3 12.5 C 11.3 km/h
1235 08-01-2014 13:10:00 12.6 C 8.41 g/m*3 12.6 C 9.7 km/h
1236 08-01-2014 13:15:00 12.5 C 8.36 g/m*3 12.5 C 4.8 km/h
1237 08-01-2014 13:20:00 12.5 C 8.36 g/m*3 12.5 C 11.3 km/h
1238 08-01-2014 13:25:00 12.5 C 8.36 g/m*3 12.5 C 11.3 km/h
1239 08-01-2014 13:30:00 12.6 C 8.52 g/m*3 12.6 C 4.8 km/h
1240 08-01-2014 13:35:00 12.5 C 8.36 g/m*3 12.5 C 6.4 km/h
1241 08-01-2014 13:40:00 12.4 C 8.3 g/m*3 12.4 C 11.3 km/h
1242 08-01-2014 13:45:00 12.4 C 8.3 g/m*3 12.4 C 16.1 km/h
1243 08-01-2014 13:50:00 12.3 C 8.25 g/m*3 12.3 C 12.9 km/h
1244 08-01-2014 13:55:00 12.3 C 8.25 g/m*3 12.3 C 4.8 km/h
1245 08-01-2014 14:00:00 12.2 C 8.31 g/m*3 12.2 C 4.8 km/h
1246 08-01-2014 14:05:00 12.2 C 8.42 g/m*3 12.2 C 8.1 km/h
1247 08-01-2014 14:10:00 12.2 C 8.42 g/m*3 12.2 C 6.4 km/h
1248 08-01-2014 14:15:00 12.2 C 8.42 g/m*3 12.2 C 3.2 km/h
1249 08-01-2014 14:20:00 12.2 C 8.52 g/m*3 12.2 C 6.4 km/h
1250 08-01-2014 14:25:00 12.1 C 8.47 g/m*3 12.1 C 12.9 km/h
Sensor: Nr:Datum:Temp:Abs-Feuchte:Windchill:Wind:
Aussen-T/F 1251 08-01-2014 14:30:00 12.1 C 8.36 g/m*3 12.1 C 14.5 km/h
1252 08-01-2014 14:35:00 12.1 C 8.36 g/m*3 12.1 C 6.4 km/h
1253 08-01-2014 14:40:00 11.9 C 8.26 g/m*3 11.9 C 6.4 km/h
1254 08-01-2014 14:45:00 11.9 C 8.37 g/m*3 11.9 C 11.3 km/h
1255 08-01-2014 14:50:00 11.7 C 8.26 g/m*3 11.7 C 12.9 km/h
1256 08-01-2014 14:55:00 11.6 C 8.42 g/m*3 11.6 C 3.2 km/h
1257 08-01-2014 15:00:00 11.4 C 8.21 g/m*3 11.4 C 12.9 km/h
1258 08-01-2014 15:05:00 11.6 C 8.32 g/m*3 11.6 C 14.5 km/h
1259 08-01-2014 15:10:00 11.7 C 8.37 g/m*3 11.7 C 9.7 km/h
1260 08-01-2014 15:15:00 11.7 C 8.37 g/m*3 11.7 C 4.8 km/h
1261 08-01-2014 15:20:00 11.7 C 8.26 g/m*3 11.7 C 8.1 km/h
1262 08-01-2014 15:25:00 11.6 C 8.32 g/m*3 11.6 C 6.4 km/h
1263 08-01-2014 15:30:00 11.4 C 8.31 g/m*3 11.4 C 12.9 km/h
1264 08-01-2014 15:35:00 11.3 C 8.16 g/m*3 11.3 C 8.1 km/h
1265 08-01-2014 15:40:00 11.4 C 8.21 g/m*3 11.4 C 4.8 km/h
1266 08-01-2014 15:45:00 11.4 C 8.21 g/m*3 11.4 C 6.4 km/h
1267 08-01-2014 15:50:00 11.3 C 8.16 g/m*3 11.3 C 4.8 km/h
1268 08-01-2014 15:55:00 11.4 C 8.11 g/m*3 11.4 C 8.1 km/h
1269 08-01-2014 16:00:00 11.3 C 8.06 g/m*3 11.3 C 8.1 km/h
1270 08-01-2014 16:05:00 11.2 C 8.11 g/m*3 11.2 C 6.4 km/h
1271 08-01-2014 16:10:00 11.1 C 8.16 g/m*3 11.1 C 4.8 km/h
1272 08-01-2014 16:15:00 10.9 C 8.16 g/m*3 10.41 C 6.4 km/h
1273 08-01-2014 16:20:00 10.6 C 8.2 g/m*3 10.6 C 4.8 km/h
1274 08-01-2014 16:25:00 10.3 C 8.04 g/m*3 10.3 C 4.8 km/h
1275 08-01-2014 16:30:00 10.3 C 8.04 g/m*3 9.72 C 6.4 km/h
Sensor: Nr:Datum:Temp:Abs-Feuchte:Windchill:Wind:
Aussen-T/F 1276 08-01-2014 16:35:00 10.2 C 8.09 g/m*3 10.2 C 3.2 km/h
1277 08-01-2014 16:40:00 9.9 C 7.94 g/m*3 9.9 C 4.8 km/h
1278 08-01-2014 16:45:00 9.6 C 8.06 g/m*3 9.6 C 4.8 km/h
1279 08-01-2014 16:50:00 9.6 C 8.06 g/m*3 9.6 C 3.2 km/h
1280 08-01-2014 16:55:00 9.6 C 8.06 g/m*3 9.6 C 4.8 km/h
1281 08-01-2014 17:00:00 9.2 C 7.95 g/m*3 9.2 C 4.8 km/h
1282 08-01-2014 17:05:00 9.2 C 7.95 g/m*3 9.2 C 3.2 km/h
1283 08-01-2014 17:10:00 9.2 C 7.95 g/m*3 9.2 C 3.2 km/h
1284 08-01-2014 17:15:00 9 C 7.93 g/m*3 9 C 3.2 km/h
1285 08-01-2014 17:20:00 8.9 C 7.88 g/m*3 8.9 C 3.2 km/h
1286 08-01-2014 17:25:00 9 C 7.93 g/m*3 9 C 3.2 km/h
1287 08-01-2014 17:30:00 8.9 C 7.88 g/m*3 8.9 C 3.2 km/h
1288 08-01-2014 17:35:00 9 C 8.02 g/m*3 9 C 3.2 km/h
1289 08-01-2014 17:40:00 9.1 C 7.99 g/m*3 9.1 C 1.6 km/h
1290 08-01-2014 17:45:00 9 C 7.93 g/m*3 9 C 0 km/h
1291 08-01-2014 17:50:00 8.9 C 7.88 g/m*3 8.9 C 1.6 km/h
1292 08-01-2014 17:55:00 8.7 C 7.78 g/m*3 8.7 C 1.6 km/h
1293 08-01-2014 18:00:00 8.6 C 7.82 g/m*3 8.6 C 3.2 km/h
1294 08-01-2014 18:05:00 8.6 C 7.82 g/m*3 8.6 C 3.2 km/h
1295 08-01-2014 18:10:00 8.5 C 7.77 g/m*3 8.5 C 3.2 km/h
1296 08-01-2014 18:15:00 8.3 C 7.67 g/m*3 8.3 C 0 km/h
1297 08-01-2014 18:20:00 8.2 C 7.7 g/m*3 8.2 C 0 km/h
1298 08-01-2014 18:25:00 8.1 C 7.66 g/m*3 8.1 C 0 km/h
1299 08-01-2014 18:30:00 8.1 C 7.66 g/m*3 8.1 C 0 km/h
1300 08-01-2014 18:35:00 8.1 C 7.66 g/m*3 8.1 C 0 km/h
Sensor: Nr:Datum:Temp:Abs-Feuchte:Windchill:Wind:
Aussen-T/F 1301 08-01-2014 18:40:00 8.1 C 7.74 g/m*3 8.1 C 1.6 km/h
1302 08-01-2014 18:45:00 8.1 C 7.74 g/m*3 8.1 C 1.6 km/h
1303 08-01-2014 18:50:00 8.1 C 7.74 g/m*3 8.1 C 3.2 km/h
1304 08-01-2014 18:55:00 7.6 C 7.49 g/m*3 7.6 C 0 km/h
1305 08-01-2014 19:00:00 7.6 C 7.49 g/m*3 7.6 C 0 km/h
1306 08-01-2014 19:05:00 7.4 C 7.4 g/m*3 7.4 C 0 km/h
1307 08-01-2014 19:10:00 7.4 C 7.48 g/m*3 7.4 C 0 km/h
1308 08-01-2014 19:15:00 7.4 C 7.48 g/m*3 7.4 C 1.6 km/h
1309 08-01-2014 19:20:00 7.3 C 7.43 g/m*3 7.3 C 0 km/h
1310 08-01-2014 19:25:00 7.3 C 7.51 g/m*3 7.3 C 0 km/h
1311 08-01-2014 19:30:00 7.3 C 7.51 g/m*3 7.3 C 0 km/h
1312 08-01-2014 19:35:00 7.3 C 7.51 g/m*3 7.3 C 0 km/h
1313 08-01-2014 19:40:00 7.3 C 7.51 g/m*3 7.3 C 0 km/h
1314 08-01-2014 19:45:00 7.2 C 7.46 g/m*3 7.2 C 0 km/h
1315 08-01-2014 19:50:00 7.2 C 7.46 g/m*3 7.2 C 0 km/h
1316 08-01-2014 19:55:00 7.2 C 7.46 g/m*3 7.2 C 1.6 km/h
1317 08-01-2014 20:00:00 7.2 C 7.46 g/m*3 7.2 C 0 km/h
1318 08-01-2014 20:05:00 7.2 C 7.46 g/m*3 7.2 C 0 km/h
1319 08-01-2014 20:10:00 7.2 C 7.46 g/m*3 7.2 C 0 km/h
1320 08-01-2014 20:15:00 7.2 C 7.46 g/m*3 7.2 C 0 km/h
1321 08-01-2014 20:20:00 7.1 C 7.41 g/m*3 7.1 C 1.6 km/h
1322 08-01-2014 20:25:00 7 C 7.36 g/m*3 7 C 0 km/h
1323 08-01-2014 20:30:00 6.9 C 7.31 g/m*3 6.9 C 0 km/h
1324 08-01-2014 20:35:00 6.8 C 7.27 g/m*3 6.8 C 0 km/h
1325 08-01-2014 20:40:00 6.8 C 7.27 g/m*3 6.8 C 0 km/h
Sensor: Nr:Datum:Temp:Abs-Feuchte:Windchill:Wind:
Aussen-T/F 1326 08-01-2014 20:45:00 6.8 C 7.27 g/m*3 6.8 C 0 km/h
1327 08-01-2014 20:50:00 6.8 C 7.34 g/m*3 6.8 C 0 km/h
1328 08-01-2014 20:55:00 6.8 C 7.34 g/m*3 6.8 C 0 km/h
1329 08-01-2014 21:00:00 6.8 C 7.34 g/m*3 6.8 C 0 km/h
1330 08-01-2014 21:05:00 6.8 C 7.27 g/m*3 6.8 C 0 km/h
1331 08-01-2014 21:10:00 6.8 C 7.34 g/m*3 6.8 C 0 km/h
1332 08-01-2014 21:15:00 6.7 C 7.29 g/m*3 6.7 C 0 km/h
1333 08-01-2014 21:20:00 6.7 C 7.29 g/m*3 6.7 C 0 km/h
1334 08-01-2014 21:25:00 6.7 C 7.29 g/m*3 6.7 C 0 km/h
1335 08-01-2014 21:30:00 6.7 C 7.29 g/m*3 6.7 C 0 km/h
1336 08-01-2014 21:35:00 6.6 C 7.25 g/m*3 6.6 C 0 km/h
1337 08-01-2014 21:40:00 6.6 C 7.25 g/m*3 6.6 C 0 km/h
1338 08-01-2014 21:45:00 6.5 C 7.2 g/m*3 6.5 C 0 km/h
1339 08-01-2014 21:50:00 6.4 C 7.15 g/m*3 6.4 C 0 km/h
1340 08-01-2014 21:55:00 6.3 C 7.11 g/m*3 6.3 C 0 km/h
1341 08-01-2014 22:00:00 6.3 C 7.11 g/m*3 6.3 C 0 km/h
1342 08-01-2014 22:05:00 6.2 C 7.06 g/m*3 6.2 C 0 km/h
1343 08-01-2014 22:10:00 6.2 C 7.06 g/m*3 6.2 C 0 km/h
1344 08-01-2014 22:15:00 6.2 C 7.06 g/m*3 6.2 C 0 km/h
1345 08-01-2014 22:20:00 6.3 C 7.11 g/m*3 6.3 C 0 km/h
1346 08-01-2014 22:25:00 6.3 C 7.11 g/m*3 6.3 C 0 km/h
1347 08-01-2014 22:30:00 6.3 C 7.11 g/m*3 6.3 C 0 km/h
1348 08-01-2014 22:35:00 6.3 C 7.11 g/m*3 6.3 C 0 km/h
1349 08-01-2014 22:40:00 6.3 C 7.11 g/m*3 6.3 C 0 km/h
1350 09-01-2014 01:00:00 6.3 C 7.18 g/m*3 6.3 C 0 km/h
Sensor: Nr:Datum:Temp:Abs-Feuchte:Windchill:Wind:
Aussen-T/F 1351 09-01-2014 01:05:00 6.3 C 7.18 g/m*3 6.3 C 0 km/h
1352 09-01-2014 01:10:00 6.4 C 7.23 g/m*3 6.4 C 0 km/h
1353 09-01-2014 01:15:00 6.4 C 7.23 g/m*3 6.4 C 0 km/h
1354 09-01-2014 01:20:00 6.4 C 7.23 g/m*3 6.4 C 0 km/h
1355 09-01-2014 01:25:00 6.4 C 7.23 g/m*3 6.4 C 0 km/h
1356 09-01-2014 01:30:00 6.4 C 7.23 g/m*3 6.4 C 0 km/h
1357 09-01-2014 01:35:00 6.5 C 7.27 g/m*3 6.5 C 0 km/h
1358 09-01-2014 01:40:00 6.6 C 7.32 g/m*3 6.6 C 1.6 km/h
1359 09-01-2014 01:45:00 6.7 C 7.37 g/m*3 6.7 C 0 km/h
1360 09-01-2014 01:50:00 6.8 C 7.42 g/m*3 6.8 C 1.6 km/h
1361 09-01-2014 01:55:00 6.8 C 7.42 g/m*3 6.8 C 0 km/h
1362 09-01-2014 02:00:00 6.7 C 7.37 g/m*3 6.7 C 0 km/h
1363 09-01-2014 02:05:00 6.7 C 7.37 g/m*3 6.7 C 0 km/h
1364 09-01-2014 02:10:00 6.7 C 7.37 g/m*3 6.7 C 3.2 km/h
1365 09-01-2014 02:15:00 6.7 C 7.37 g/m*3 6.7 C 0 km/h
1366 09-01-2014 02:20:00 6.7 C 7.37 g/m*3 6.7 C 0 km/h
1367 09-01-2014 02:25:00 6.7 C 7.37 g/m*3 6.7 C 0 km/h
1368 09-01-2014 02:30:00 6.7 C 7.37 g/m*3 6.7 C 0 km/h
1369 09-01-2014 02:35:00 6.7 C 7.37 g/m*3 6.7 C 0 km/h
1370 09-01-2014 02:40:00 6.7 C 7.37 g/m*3 6.7 C 0 km/h
1371 09-01-2014 02:45:00 6.7 C 7.37 g/m*3 6.7 C 0 km/h
1372 09-01-2014 02:50:00 6.7 C 7.37 g/m*3 6.7 C 0 km/h
1373 09-01-2014 02:55:00 6.7 C 7.37 g/m*3 6.7 C 0 km/h
1374 09-01-2014 03:00:00 6.7 C 7.37 g/m*3 6.7 C 0 km/h
1375 09-01-2014 03:05:00 6.7 C 7.37 g/m*3 6.7 C 0 km/h
Sensor: Nr:Datum:Temp:Abs-Feuchte:Windchill:Wind:
Aussen-T/F 1376 09-01-2014 03:10:00 6.7 C 7.37 g/m*3 6.7 C 1.6 km/h
1377 09-01-2014 03:15:00 6.7 C 7.37 g/m*3 6.7 C 0 km/h
1378 09-01-2014 03:20:00 6.7 C 7.37 g/m*3 6.7 C 0 km/h
1379 09-01-2014 03:25:00 6.6 C 7.32 g/m*3 6.6 C 0 km/h
1380 09-01-2014 03:30:00 6.6 C 7.32 g/m*3 6.6 C 0 km/h
1381 09-01-2014 03:35:00 6.6 C 7.32 g/m*3 6.6 C 0 km/h
1382 09-01-2014 03:40:00 6.7 C 7.37 g/m*3 6.7 C 0 km/h
1383 09-01-2014 03:45:00 6.7 C 7.37 g/m*3 6.7 C 1.6 km/h
1384 09-01-2014 03:50:00 6.7 C 7.37 g/m*3 6.7 C 0 km/h
1385 09-01-2014 03:55:00 6.8 C 7.42 g/m*3 6.8 C 1.6 km/h
1386 09-01-2014 04:00:00 6.8 C 7.42 g/m*3 6.8 C 0 km/h
1387 09-01-2014 04:05:00 6.8 C 7.42 g/m*3 6.8 C 0 km/h
1388 09-01-2014 04:10:00 6.8 C 7.42 g/m*3 6.8 C 0 km/h
1389 09-01-2014 04:15:00 6.8 C 7.42 g/m*3 6.8 C 0 km/h
1390 09-01-2014 04:20:00 6.8 C 7.42 g/m*3 6.8 C 1.6 km/h
1391 09-01-2014 04:25:00 6.8 C 7.42 g/m*3 6.8 C 1.6 km/h
1392 09-01-2014 04:30:00 6.8 C 7.42 g/m*3 6.8 C 0 km/h
1393 09-01-2014 04:35:00 6.7 C 7.37 g/m*3 6.7 C 1.6 km/h
1394 09-01-2014 04:40:00 6.7 C 7.37 g/m*3 6.7 C 3.2 km/h
1395 09-01-2014 04:45:00 6.7 C 7.37 g/m*3 6.7 C 0 km/h
1396 09-01-2014 04:50:00 6.7 C 7.37 g/m*3 6.7 C 1.6 km/h
1397 09-01-2014 04:55:00 6.7 C 7.37 g/m*3 6.7 C 0 km/h
1398 09-01-2014 05:00:00 6.6 C 7.32 g/m*3 6.6 C 0 km/h
1399 09-01-2014 05:05:00 6.7 C 7.45 g/m*3 6.7 C 1.6 km/h
1400 09-01-2014 05:10:00 6.7 C 7.45 g/m*3 6.7 C 0 km/h
Sensor: Nr:Datum:Temp:Abs-Feuchte:Windchill:Wind:
Aussen-T/F 1401 09-01-2014 05:15:00 6.7 C 7.45 g/m*3 6.7 C 0 km/h
1402 09-01-2014 05:20:00 6.7 C 7.45 g/m*3 6.7 C 0 km/h
1403 09-01-2014 05:25:00 6.8 C 7.5 g/m*3 6.8 C 0 km/h
1404 09-01-2014 05:30:00 7.2 C 7.69 g/m*3 7.2 C 3.2 km/h
1405 09-01-2014 05:35:00 7.4 C 7.79 g/m*3 7.4 C 3.2 km/h
1406 09-01-2014 05:40:00 7.4 C 7.79 g/m*3 7.4 C 3.2 km/h
1407 09-01-2014 05:45:00 7.4 C 7.79 g/m*3 7.4 C 1.6 km/h
1408 09-01-2014 05:50:00 7.4 C 7.79 g/m*3 7.4 C 1.6 km/h
1409 09-01-2014 07:20:00 8.9 C 8.41 g/m*3 8.9 C 3.2 km/h
1410 09-01-2014 07:25:00 9.2 C 8.57 g/m*3 8.45 C 6.4 km/h
1411 09-01-2014 07:30:00 9.3 C 8.45 g/m*3 8.56 C 6.4 km/h
1412 09-01-2014 07:35:00 9.5 C 8.47 g/m*3 9.5 C 4.8 km/h
1413 09-01-2014 07:40:00 9.6 C 8.52 g/m*3 9.6 C 4.8 km/h
1414 09-01-2014 07:45:00 9.6 C 8.43 g/m*3 9.6 C 1.6 km/h
1415 09-01-2014 07:50:00 9.6 C 8.34 g/m*3 8.91 C 6.4 km/h
1416 09-01-2014 07:55:00 9.7 C 8.39 g/m*3 9.02 C 6.4 km/h
1417 09-01-2014 08:00:00 9.7 C 8.3 g/m*3 9.02 C 6.4 km/h
1418 09-01-2014 08:05:00 9.8 C 8.35 g/m*3 8.75 C 8.1 km/h
1419 09-01-2014 08:10:00 9.9 C 8.31 g/m*3 9.9 C 3.2 km/h
1420 09-01-2014 08:15:00 9.8 C 8.26 g/m*3 9.8 C 1.6 km/h
1421 09-01-2014 08:20:00 9.7 C 8.2 g/m*3 9.7 C 1.6 km/h
1422 09-01-2014 08:25:00 9.6 C 8.15 g/m*3 9.6 C 0 km/h
1423 09-01-2014 08:30:00 9.6 C 8.15 g/m*3 9.6 C 3.2 km/h
1424 09-01-2014 08:35:00 9.6 C 8.15 g/m*3 9.6 C 1.6 km/h
1425 09-01-2014 08:40:00 9.3 C 8 g/m*3 9.3 C 1.6 km/h
Sensor: Nr:Datum:Temp:Abs-Feuchte:Windchill:Wind:
Aussen-T/F 1426 09-01-2014 08:45:00 9.2 C 8.04 g/m*3 9.2 C 1.6 km/h
1427 09-01-2014 08:50:00 9.1 C 7.99 g/m*3 9.1 C 0 km/h
1428 09-01-2014 08:55:00 9.1 C 8.07 g/m*3 9.1 C 1.6 km/h
1429 09-01-2014 09:00:00 9.1 C 8.07 g/m*3 9.1 C 3.2 km/h
1430 09-01-2014 09:05:00 9.1 C 8.16 g/m*3 9.1 C 4.8 km/h
1431 09-01-2014 09:10:00 9.2 C 8.22 g/m*3 9.2 C 0 km/h
1432 09-01-2014 09:15:00 9.3 C 8.18 g/m*3 9.3 C 4.8 km/h
1433 09-01-2014 09:20:00 9.4 C 8.23 g/m*3 9.4 C 0 km/h
1434 09-01-2014 09:25:00 9.4 C 8.23 g/m*3 9.4 C 3.2 km/h
1435 09-01-2014 09:30:00 9.4 C 8.23 g/m*3 9.4 C 3.2 km/h
1436 09-01-2014 09:35:00 9.4 C 8.23 g/m*3 9.4 C 0 km/h
1437 09-01-2014 09:40:00 9.3 C 8.18 g/m*3 9.3 C 1.6 km/h
1438 09-01-2014 09:45:00 9.4 C 8.23 g/m*3 9.4 C 1.6 km/h
1439 09-01-2014 09:50:00 9.4 C 8.14 g/m*3 9.4 C 4.8 km/h
1440 09-01-2014 09:55:00 9.6 C 8.24 g/m*3 9.6 C 3.2 km/h
1441 09-01-2014 10:00:00 9.7 C 8.3 g/m*3 9.7 C 4.8 km/h
1442 09-01-2014 10:05:00 9.7 C 8.3 g/m*3 9.7 C 0 km/h
1443 09-01-2014 10:10:00 9.8 C 8.35 g/m*3 9.8 C 3.2 km/h
1444 09-01-2014 10:15:00 9.9 C 8.5 g/m*3 9.9 C 4.8 km/h
1445 09-01-2014 10:20:00 9.9 C 8.31 g/m*3 9.9 C 3.2 km/h
1446 09-01-2014 10:25:00 10.1 C 8.51 g/m*3 10.1 C 1.6 km/h
1447 09-01-2014 10:30:00 10.2 C 8.56 g/m*3 10.2 C 1.6 km/h
1448 09-01-2014 10:35:00 10.2 C 8.56 g/m*3 10.2 C 1.6 km/h
1449 09-01-2014 10:40:00 10.2 C 8.56 g/m*3 10.2 C 1.6 km/h
1450 09-01-2014 10:45:00 10.1 C 8.32 g/m*3 10.1 C 4.8 km/h
Sensor: Nr:Datum:Temp:Abs-Feuchte:Windchill:Wind:
Aussen-T/F 1451 09-01-2014 10:50:00 10.2 C 8.37 g/m*3 10.2 C 0 km/h
1452 09-01-2014 10:55:00 10.2 C 8.37 g/m*3 10.2 C 3.2 km/h
1453 09-01-2014 11:00:00 10.3 C 8.33 g/m*3 9.04 C 9.7 km/h
1454 09-01-2014 11:05:00 10.6 C 8.49 g/m*3 10.6 C 4.8 km/h
1455 09-01-2014 11:10:00 10.6 C 8.49 g/m*3 10.06 C 6.4 km/h
1456 09-01-2014 11:15:00 10.6 C 8.49 g/m*3 10.6 C 1.6 km/h
1457 09-01-2014 11:20:00 10.8 C 8.5 g/m*3 10.29 C 6.4 km/h
1458 09-01-2014 11:25:00 11.1 C 8.66 g/m*3 11.1 C 6.4 km/h
1459 09-01-2014 11:30:00 11.4 C 8.72 g/m*3 11.4 C 9.7 km/h
1460 09-01-2014 11:35:00 11.4 C 8.72 g/m*3 11.4 C 9.7 km/h
1461 09-01-2014 11:40:00 11.9 C 8.58 g/m*3 11.9 C 8.1 km/h
1462 09-01-2014 11:45:00 12.1 C 8.47 g/m*3 12.1 C 14.5 km/h
1463 09-01-2014 11:50:00 12.3 C 8.47 g/m*3 12.3 C 9.7 km/h
1464 09-01-2014 11:55:00 12.3 C 8.47 g/m*3 12.3 C 11.3 km/h
1465 09-01-2014 12:00:00 12.4 C 8.52 g/m*3 12.4 C 9.7 km/h
1466 09-01-2014 12:05:00 12.4 C 8.52 g/m*3 12.4 C 8.1 km/h
1467 09-01-2014 12:10:00 12.4 C 8.52 g/m*3 12.4 C 12.9 km/h
1468 09-01-2014 12:15:00 12.4 C 8.52 g/m*3 12.4 C 17.7 km/h
1469 09-01-2014 12:20:00 12.4 C 8.52 g/m*3 12.4 C 11.3 km/h
1470 09-01-2014 12:25:00 12.4 C 8.52 g/m*3 12.4 C 12.9 km/h
1471 09-01-2014 12:30:00 12.4 C 8.52 g/m*3 12.4 C 11.3 km/h
1472 09-01-2014 12:35:00 12.5 C 8.58 g/m*3 12.5 C 14.5 km/h
1473 09-01-2014 12:40:00 12.5 C 8.58 g/m*3 12.5 C 14.5 km/h
1474 09-01-2014 12:45:00 12.6 C 8.63 g/m*3 12.6 C 14.5 km/h
1475 09-01-2014 12:50:00 12.6 C 8.52 g/m*3 12.6 C 9.7 km/h
Sensor: Nr:Datum:Temp:Abs-Feuchte:Windchill:Wind:
Aussen-T/F 1476 09-01-2014 12:55:00 12.6 C 8.63 g/m*3 12.6 C 9.7 km/h
1477 09-01-2014 13:00:00 12.6 C 8.52 g/m*3 12.6 C 16.1 km/h
1478 09-01-2014 13:05:00 12.6 C 8.52 g/m*3 12.6 C 11.3 km/h
1479 09-01-2014 13:10:00 12.6 C 8.52 g/m*3 12.6 C 12.9 km/h
1480 09-01-2014 13:15:00 12.7 C 8.57 g/m*3 12.7 C 14.5 km/h
1481 09-01-2014 13:20:00 12.7 C 8.57 g/m*3 12.7 C 9.7 km/h
1482 09-01-2014 13:25:00 12.8 C 8.62 g/m*3 12.8 C 22.5 km/h
1483 09-01-2014 13:30:00 12.7 C 8.57 g/m*3 12.7 C 12.9 km/h
1484 09-01-2014 13:35:00 12.7 C 8.57 g/m*3 12.7 C 17.7 km/h
1485 09-01-2014 13:40:00 12.8 C 8.62 g/m*3 12.8 C 11.3 km/h
1486 09-01-2014 13:45:00 12.8 C 8.62 g/m*3 12.8 C 12.9 km/h
1487 09-01-2014 13:50:00 12.7 C 8.57 g/m*3 12.7 C 16.1 km/h
1488 09-01-2014 13:55:00 12.7 C 8.57 g/m*3 12.7 C 9.7 km/h
1489 09-01-2014 14:00:00 12.8 C 8.62 g/m*3 12.8 C 16.1 km/h
1490 09-01-2014 14:05:00 12.8 C 8.62 g/m*3 12.8 C 17.7 km/h
1491 09-01-2014 14:10:00 12.8 C 8.62 g/m*3 12.8 C 19.3 km/h
1492 09-01-2014 14:15:00 12.8 C 8.62 g/m*3 12.8 C 12.9 km/h
1493 09-01-2014 14:20:00 12.8 C 8.62 g/m*3 12.8 C 16.1 km/h
1494 09-01-2014 14:25:00 12.8 C 8.62 g/m*3 12.8 C 16.1 km/h
1495 09-01-2014 14:30:00 12.7 C 8.57 g/m*3 12.7 C 22.5 km/h
1496 09-01-2014 14:35:00 12.7 C 8.57 g/m*3 12.7 C 16.1 km/h
1497 09-01-2014 14:40:00 12.7 C 8.57 g/m*3 12.7 C 16.1 km/h
1498 09-01-2014 14:45:00 12.7 C 8.57 g/m*3 12.7 C 27.4 km/h
1499 09-01-2014 14:50:00 12.6 C 8.63 g/m*3 12.6 C 20.9 km/h
1500 09-01-2014 14:55:00 12.4 C 8.52 g/m*3 12.4 C 22.5 km/h
Sensor: Nr:Datum:Temp:Abs-Feuchte:Windchill:Wind:
Aussen-T/F 1501 09-01-2014 15:00:00 12.3 C 8.58 g/m*3 12.3 C 11.3 km/h
1502 09-01-2014 15:05:00 12.2 C 8.63 g/m*3 12.2 C 20.9 km/h
1503 09-01-2014 15:10:00 12.1 C 8.69 g/m*3 12.1 C 16.1 km/h
1504 09-01-2014 15:15:00 11.9 C 8.68 g/m*3 11.9 C 11.3 km/h
1505 09-01-2014 15:20:00 11.7 C 8.68 g/m*3 11.7 C 14.5 km/h
1506 09-01-2014 15:25:00 11.6 C 8.83 g/m*3 11.6 C 19.3 km/h
1507 09-01-2014 15:30:00 11.3 C 8.77 g/m*3 11.3 C 11.3 km/h
1508 09-01-2014 15:35:00 11.1 C 8.76 g/m*3 11.1 C 22.5 km/h
1509 09-01-2014 15:40:00 10.9 C 8.36 g/m*3 8.17 C 24.1 km/h
1510 09-01-2014 15:45:00 10.8 C 8.4 g/m*3 9.38 C 11.3 km/h
1511 09-01-2014 15:50:00 10.8 C 8.4 g/m*3 8.96 C 14.5 km/h
1512 09-01-2014 15:55:00 10.8 C 8.3 g/m*3 8.78 C 16.1 km/h
1513 09-01-2014 16:00:00 10.8 C 8.11 g/m*3 8.3 C 20.9 km/h
1514 09-01-2014 16:05:00 10.8 C 8.11 g/m*3 8.17 C 22.5 km/h
1515 09-01-2014 16:10:00 10.7 C 8.25 g/m*3 8.84 C 14.5 km/h
1516 09-01-2014 16:15:00 10.7 C 8.35 g/m*3 8.04 C 22.5 km/h
1517 09-01-2014 16:20:00 10.5 C 8.15 g/m*3 7.65 C 24.1 km/h
1518 09-01-2014 16:25:00 10.5 C 8.15 g/m*3 7.92 C 20.9 km/h
1519 09-01-2014 16:30:00 10.4 C 8.1 g/m*3 8.11 C 17.7 km/h
1520 09-01-2014 16:35:00 10.3 C 8.04 g/m*3 8.16 C 16.1 km/h
1521 09-01-2014 16:40:00 10.2 C 8.18 g/m*3 8.03 C 16.1 km/h
1522 09-01-2014 16:45:00 10.2 C 8.18 g/m*3 8.66 C 11.3 km/h
1523 09-01-2014 16:50:00 10.1 C 8.23 g/m*3 8.1 C 14.5 km/h
1524 09-01-2014 16:55:00 10.1 C 8.23 g/m*3 9.1 C 8.1 km/h
1525 09-01-2014 17:00:00 10 C 8.27 g/m*3 7.98 C 14.5 km/h
Sensor: Nr:Datum:Temp:Abs-Feuchte:Windchill:Wind:
Aussen-T/F 1526 09-01-2014 17:05:00 9.9 C 8.22 g/m*3 8.3 C 11.3 km/h
1527 09-01-2014 17:10:00 9.9 C 8.03 g/m*3 7.48 C 17.7 km/h
1528 09-01-2014 17:15:00 9.9 C 8.03 g/m*3 7.32 C 19.3 km/h
1529 09-01-2014 17:20:00 9.9 C 8.03 g/m*3 7.66 C 16.1 km/h
1530 09-01-2014 17:25:00 9.9 C 8.03 g/m*3 7.32 C 19.3 km/h
1531 09-01-2014 17:30:00 9.9 C 8.03 g/m*3 7.32 C 19.3 km/h
1532 09-01-2014 17:35:00 9.9 C 8.03 g/m*3 7.85 C 14.5 km/h
1533 09-01-2014 17:40:00 9.9 C 8.03 g/m*3 7.85 C 14.5 km/h
1534 09-01-2014 17:45:00 9.9 C 7.94 g/m*3 8.3 C 11.3 km/h
1535 09-01-2014 17:50:00 10.1 C 7.94 g/m*3 7.73 C 17.7 km/h
1536 09-01-2014 17:55:00 10.1 C 7.94 g/m*3 8.8 C 9.7 km/h
1537 09-01-2014 18:00:00 10.1 C 7.94 g/m*3 8.31 C 12.9 km/h
1538 09-01-2014 18:05:00 10 C 7.89 g/m*3 7.61 C 17.7 km/h
1539 09-01-2014 18:10:00 10 C 7.89 g/m*3 7.98 C 14.5 km/h
1540 09-01-2014 18:15:00 10 C 7.89 g/m*3 7.61 C 17.7 km/h
1541 09-01-2014 18:20:00 9.9 C 7.84 g/m*3 7.48 C 17.7 km/h
1542 09-01-2014 18:25:00 9.9 C 7.84 g/m*3 7.32 C 19.3 km/h
1543 09-01-2014 18:30:00 9.9 C 7.84 g/m*3 7.32 C 19.3 km/h
1544 09-01-2014 18:35:00 9.9 C 7.75 g/m*3 7.32 C 19.3 km/h
1545 09-01-2014 18:40:00 9.9 C 7.84 g/m*3 7.48 C 17.7 km/h
1546 09-01-2014 18:45:00 9.8 C 7.7 g/m*3 7.19 C 19.3 km/h
1547 09-01-2014 18:50:00 9.8 C 7.79 g/m*3 7.36 C 17.7 km/h
1548 09-01-2014 18:55:00 9.8 C 7.79 g/m*3 7.04 C 20.9 km/h
1549 09-01-2014 19:00:00 9.8 C 7.79 g/m*3 7.36 C 17.7 km/h
1550 09-01-2014 19:05:00 9.7 C 7.65 g/m*3 6.37 C 27.4 km/h
Sensor: Nr:Datum:Temp:Abs-Feuchte:Windchill:Wind:
Aussen-T/F 1551 09-01-2014 19:10:00 9.8 C 7.7 g/m*3 7.19 C 19.3 km/h
1552 09-01-2014 19:15:00 9.8 C 7.7 g/m*3 7.36 C 17.7 km/h
1553 09-01-2014 19:20:00 9.8 C 7.7 g/m*3 7.19 C 19.3 km/h
1554 09-01-2014 19:25:00 9.8 C 7.79 g/m*3 7.36 C 17.7 km/h
1555 09-01-2014 19:30:00 9.7 C 7.74 g/m*3 7.61 C 14.5 km/h
1556 09-01-2014 19:35:00 9.7 C 7.84 g/m*3 7.41 C 16.1 km/h
1557 09-01-2014 19:40:00 9.7 C 7.84 g/m*3 7.61 C 14.5 km/h
1558 09-01-2014 19:45:00 9.6 C 7.88 g/m*3 7.29 C 16.1 km/h
1559 09-01-2014 19:50:00 9.6 C 7.88 g/m*3 6.94 C 19.3 km/h
1560 09-01-2014 19:55:00 9.6 C 7.79 g/m*3 7.94 C 11.3 km/h
1561 09-01-2014 20:00:00 9.6 C 7.79 g/m*3 7.48 C 14.5 km/h
1562 09-01-2014 20:05:00 9.6 C 7.79 g/m*3 8.52 C 8.1 km/h
1563 09-01-2014 20:10:00 9.6 C 7.69 g/m*3 7.11 C 17.7 km/h
1564 09-01-2014 20:15:00 9.7 C 7.56 g/m*3 7.82 C 12.9 km/h
1565 09-01-2014 20:20:00 9.7 C 7.38 g/m*3 7.23 C 17.7 km/h
1566 09-01-2014 20:25:00 9.6 C 7.05 g/m*3 6.94 C 19.3 km/h
1567 09-01-2014 20:30:00 9.6 C 7.05 g/m*3 7.11 C 17.7 km/h
1568 09-01-2014 20:35:00 9.6 C 6.96 g/m*3 7.29 C 16.1 km/h
1569 09-01-2014 20:40:00 9.4 C 6.96 g/m*3 7.46 C 12.9 km/h
1570 09-01-2014 20:45:00 9.4 C 6.96 g/m*3 7.7 C 11.3 km/h
1571 09-01-2014 20:50:00 9.3 C 6.92 g/m*3 7.33 C 12.9 km/h
1572 09-01-2014 20:55:00 9.3 C 6.92 g/m*3 6.73 C 17.7 km/h
1573 09-01-2014 21:00:00 9.2 C 6.97 g/m*3 7.21 C 12.9 km/h
1574 09-01-2014 21:05:00 9.1 C 6.83 g/m*3 6 C 22.5 km/h
1575 09-01-2014 21:10:00 8.9 C 6.57 g/m*3 6.06 C 19.3 km/h
Sensor: Nr:Datum:Temp:Abs-Feuchte:Windchill:Wind:
Aussen-T/F 1576 09-01-2014 21:15:00 8.8 C 6.44 g/m*3 6.5 C 14.5 km/h
1577 09-01-2014 21:20:00 8.7 C 6.31 g/m*3 6.38 C 14.5 km/h
1578 09-01-2014 21:25:00 8.5 C 6.23 g/m*3 5.56 C 19.3 km/h
1579 09-01-2014 21:30:00 8.4 C 6.28 g/m*3 6.49 C 11.3 km/h
1580 09-01-2014 21:35:00 8.3 C 6.24 g/m*3 5.89 C 14.5 km/h
1581 09-01-2014 21:40:00 8.2 C 6.2 g/m*3 5.99 C 12.9 km/h
1582 09-01-2014 21:45:00 8.1 C 6.07 g/m*3 5.87 C 12.9 km/h
1583 09-01-2014 21:50:00 7.9 C 6.08 g/m*3 5.63 C 12.9 km/h
1584 09-01-2014 21:55:00 7.8 C 6.12 g/m*3 7.8 C 4.8 km/h
1585 09-01-2014 22:00:00 7.7 C 6.08 g/m*3 5.15 C 14.5 km/h
1586 09-01-2014 22:05:00 7.5 C 6 g/m*3 7.5 C 4.8 km/h
1587 09-01-2014 22:10:00 7.3 C 5.93 g/m*3 7.3 C 3.2 km/h
1588 09-01-2014 22:15:00 7.1 C 6.01 g/m*3 5.58 C 8.1 km/h
1589 09-01-2014 22:20:00 6.9 C 5.85 g/m*3 4.99 C 9.7 km/h
1590 09-01-2014 22:25:00 6.9 C 5.93 g/m*3 6.9 C 4.8 km/h
1591 09-01-2014 22:30:00 6.8 C 5.74 g/m*3 6.8 C 4.8 km/h
1592 09-01-2014 22:35:00 6.7 C 5.77 g/m*3 5.11 C 8.1 km/h
1593 09-01-2014 22:40:00 6.7 C 5.7 g/m*3 4.75 C 9.7 km/h
1594 09-01-2014 22:45:00 6.7 C 5.77 g/m*3 6.7 C 4.8 km/h
1595 09-01-2014 22:50:00 6.5 C 5.7 g/m*3 4.2 C 11.3 km/h
1596 09-01-2014 22:55:00 6.6 C 5.66 g/m*3 4.63 C 9.7 km/h
1597 09-01-2014 23:00:00 6.6 C 5.74 g/m*3 6.6 C 4.8 km/h
1598 09-01-2014 23:05:00 6.4 C 5.74 g/m*3 6.4 C 4.8 km/h
1599 09-01-2014 23:10:00 6.2 C 5.81 g/m*3 4.98 C 6.4 km/h
1600 09-01-2014 23:15:00 6.2 C 5.81 g/m*3 6.2 C 3.2 km/h
Sensor: Nr:Datum:Temp:Abs-Feuchte:Windchill:Wind:
Aussen-T/F 1601 09-01-2014 23:20:00 6.2 C 5.81 g/m*3 4.52 C 8.1 km/h
1602 09-01-2014 23:25:00 6.3 C 5.85 g/m*3 6.3 C 3.2 km/h
1603 09-01-2014 23:30:00 6.4 C 5.81 g/m*3 5.21 C 6.4 km/h
1604 09-01-2014 23:35:00 6.5 C 5.92 g/m*3 6.5 C 1.6 km/h
1605 09-01-2014 23:40:00 6.6 C 5.96 g/m*3 5.44 C 6.4 km/h
1606 09-01-2014 23:45:00 6.6 C 5.96 g/m*3 6.6 C 4.8 km/h
1607 09-01-2014 23:50:00 6.6 C 5.96 g/m*3 6.6 C 1.6 km/h
1608 09-01-2014 23:55:00 6.5 C 6 g/m*3 6.5 C 0 km/h
1609 10-01-2014 00:00:00 6.4 C 5.96 g/m*3 6.4 C 0 km/h
1610 10-01-2014 00:05:00 6.3 C 6.07 g/m*3 6.3 C 0 km/h
1611 10-01-2014 00:10:00 6.2 C 6.18 g/m*3 6.2 C 0 km/h
1612 10-01-2014 00:15:00 6.1 C 6.14 g/m*3 6.1 C 0 km/h
1613 10-01-2014 00:20:00 6 C 6.24 g/m*3 6 C 0 km/h
1614 10-01-2014 00:25:00 5.8 C 6.16 g/m*3 5.8 C 0 km/h
1615 10-01-2014 00:30:00 5.8 C 6.23 g/m*3 5.8 C 0 km/h
1616 10-01-2014 00:35:00 5.7 C 6.19 g/m*3 5.7 C 0 km/h
1617 10-01-2014 00:40:00 5.7 C 6.19 g/m*3 5.7 C 0 km/h
1618 10-01-2014 00:45:00 5.7 C 6.19 g/m*3 5.7 C 0 km/h
1619 10-01-2014 00:50:00 5.7 C 6.19 g/m*3 5.7 C 0 km/h
1620 10-01-2014 00:55:00 5.7 C 6.19 g/m*3 5.7 C 0 km/h
1621 10-01-2014 01:00:00 5.7 C 6.26 g/m*3 5.7 C 1.6 km/h
1622 10-01-2014 01:05:00 5.7 C 6.26 g/m*3 5.7 C 3.2 km/h
1623 10-01-2014 01:10:00 5.7 C 6.26 g/m*3 5.7 C 3.2 km/h
1624 10-01-2014 01:15:00 5.7 C 6.26 g/m*3 5.7 C 1.6 km/h
1625 10-01-2014 01:20:00 5.6 C 6.29 g/m*3 5.6 C 1.6 km/h
Sensor: Nr:Datum:Temp:Abs-Feuchte:Windchill:Wind:
Aussen-T/F 1626 10-01-2014 01:25:00 5.6 C 6.29 g/m*3 5.6 C 0 km/h
1627 10-01-2014 01:30:00 5.6 C 6.29 g/m*3 5.6 C 0 km/h
1628 10-01-2014 01:35:00 5.6 C 6.29 g/m*3 5.6 C 1.6 km/h
1629 10-01-2014 01:40:00 5.7 C 6.33 g/m*3 5.7 C 0 km/h
1630 10-01-2014 01:45:00 5.8 C 6.38 g/m*3 5.8 C 0 km/h
1631 10-01-2014 01:50:00 5.8 C 6.38 g/m*3 5.8 C 1.6 km/h
1632 10-01-2014 01:55:00 5.9 C 6.35 g/m*3 5.9 C 1.6 km/h
1633 10-01-2014 02:00:00 5.9 C 6.35 g/m*3 5.9 C 3.2 km/h
1634 10-01-2014 02:05:00 6 C 6.31 g/m*3 6 C 4.8 km/h
1635 10-01-2014 02:10:00 6.1 C 6.36 g/m*3 6.1 C 3.2 km/h
1636 10-01-2014 02:15:00 6.2 C 6.32 g/m*3 4.98 C 6.4 km/h
1637 10-01-2014 02:20:00 6.2 C 6.32 g/m*3 6.2 C 3.2 km/h
1638 10-01-2014 02:25:00 6.3 C 6.37 g/m*3 6.3 C 3.2 km/h
1639 10-01-2014 02:30:00 6.3 C 6.37 g/m*3 6.3 C 4.8 km/h
1640 10-01-2014 02:35:00 6.3 C 6.37 g/m*3 6.3 C 4.8 km/h
1641 10-01-2014 02:40:00 6.3 C 6.37 g/m*3 6.3 C 4.8 km/h
1642 10-01-2014 02:45:00 6.3 C 6.37 g/m*3 6.3 C 4.8 km/h
1643 10-01-2014 02:50:00 6.3 C 6.37 g/m*3 6.3 C 0 km/h
1644 10-01-2014 02:55:00 6.2 C 6.32 g/m*3 6.2 C 3.2 km/h
1645 10-01-2014 03:00:00 6.2 C 6.32 g/m*3 6.2 C 3.2 km/h
1646 10-01-2014 03:05:00 6.1 C 6.28 g/m*3 4.4 C 8.1 km/h
1647 10-01-2014 03:10:00 6.1 C 6.28 g/m*3 4.4 C 8.1 km/h
1648 10-01-2014 03:15:00 6.1 C 6.36 g/m*3 6.1 C 3.2 km/h
1649 10-01-2014 03:20:00 6.1 C 6.28 g/m*3 6.1 C 4.8 km/h
1650 10-01-2014 03:25:00 6.1 C 6.28 g/m*3 4.86 C 6.4 km/h
Sensor: Nr:Datum:Temp:Abs-Feuchte:Windchill:Wind:
Aussen-T/F 1651 10-01-2014 03:30:00 6 C 6.24 g/m*3 6 C 3.2 km/h
1652 10-01-2014 03:35:00 5.8 C 6.16 g/m*3 5.8 C 4.8 km/h
1653 10-01-2014 03:40:00 5.7 C 6.19 g/m*3 5.7 C 3.2 km/h
1654 10-01-2014 03:45:00 5.6 C 6.15 g/m*3 5.6 C 4.8 km/h
1655 10-01-2014 03:50:00 5.5 C 6.11 g/m*3 5.5 C 3.2 km/h
1656 10-01-2014 03:55:00 5.3 C 6.03 g/m*3 5.3 C 3.2 km/h
1657 10-01-2014 04:00:00 5.1 C 6.02 g/m*3 5.1 C 3.2 km/h
1658 10-01-2014 04:05:00 4.9 C 6.01 g/m*3 4.9 C 3.2 km/h
1659 10-01-2014 04:10:00 4.8 C 5.97 g/m*3 4.8 C 3.2 km/h
1660 10-01-2014 04:15:00 4.7 C 5.93 g/m*3 3.25 C 6.4 km/h
1661 10-01-2014 04:20:00 4.7 C 5.93 g/m*3 4.7 C 4.8 km/h
1662 10-01-2014 04:25:00 4.8 C 5.97 g/m*3 3.36 C 6.4 km/h
1663 10-01-2014 04:30:00 4.8 C 5.97 g/m*3 4.8 C 4.8 km/h
1664 10-01-2014 04:35:00 4.7 C 5.93 g/m*3 4.7 C 3.2 km/h
1665 10-01-2014 04:40:00 4.7 C 5.93 g/m*3 4.7 C 4.8 km/h
1666 10-01-2014 04:45:00 4.8 C 5.9 g/m*3 2.87 C 8.1 km/h
1667 10-01-2014 04:50:00 4.8 C 5.9 g/m*3 4.8 C 4.8 km/h
1668 10-01-2014 04:55:00 4.7 C 5.93 g/m*3 4.7 C 4.8 km/h
1669 10-01-2014 05:00:00 4.6 C 5.89 g/m*3 4.6 C 4.8 km/h
1670 10-01-2014 05:05:00 4.7 C 5.93 g/m*3 4.7 C 4.8 km/h
1671 10-01-2014 05:10:00 4.8 C 5.9 g/m*3 2.49 C 9.7 km/h
1672 10-01-2014 05:15:00 4.7 C 5.86 g/m*3 4.7 C 3.2 km/h
1673 10-01-2014 05:20:00 4.7 C 5.93 g/m*3 3.25 C 6.4 km/h
1674 10-01-2014 05:25:00 4.7 C 5.93 g/m*3 4.7 C 4.8 km/h
1675 10-01-2014 05:30:00 4.7 C 5.93 g/m*3 2.03 C 11.3 km/h
Sensor: Nr:Datum:Temp:Abs-Feuchte:Windchill:Wind:
Aussen-T/F 1676 10-01-2014 05:35:00 5.1 C 6.02 g/m*3 2.51 C 11.3 km/h
1677 10-01-2014 05:40:00 5.4 C 6 g/m*3 2.87 C 11.3 km/h
1678 10-01-2014 05:45:00 5.6 C 6.01 g/m*3 2.33 C 16.1 km/h
1679 10-01-2014 05:50:00 5.6 C 6.01 g/m*3 3.11 C 11.3 km/h
1680 10-01-2014 05:55:00 5.4 C 5.93 g/m*3 4.06 C 6.4 km/h
1681 10-01-2014 06:00:00 5.2 C 5.92 g/m*3 3.82 C 6.4 km/h
1682 10-01-2014 06:05:00 5.1 C 5.95 g/m*3 3.71 C 6.4 km/h
1683 10-01-2014 06:10:00 4.9 C 5.87 g/m*3 4.9 C 4.8 km/h
1684 10-01-2014 06:15:00 4.8 C 5.9 g/m*3 4.8 C 3.2 km/h
1685 10-01-2014 06:20:00 4.6 C 5.89 g/m*3 4.6 C 3.2 km/h
1686 10-01-2014 06:25:00 4.5 C 5.85 g/m*3 4.5 C 3.2 km/h
1687 10-01-2014 06:30:00 4.3 C 5.84 g/m*3 4.3 C 4.8 km/h
1688 10-01-2014 06:35:00 4.7 C 6 g/m*3 2.03 C 11.3 km/h
1689 10-01-2014 06:40:00 4.8 C 5.97 g/m*3 4.8 C 4.8 km/h
1690 10-01-2014 06:45:00 4.7 C 5.93 g/m*3 4.7 C 4.8 km/h
1691 10-01-2014 06:50:00 4.7 C 5.93 g/m*3 4.7 C 3.2 km/h
1692 10-01-2014 06:55:00 4.6 C 5.89 g/m*3 4.6 C 4.8 km/h
1693 10-01-2014 07:00:00 4.7 C 5.93 g/m*3 4.7 C 3.2 km/h
1694 10-01-2014 07:05:00 4.7 C 6 g/m*3 2.76 C 8.1 km/h
1695 10-01-2014 07:10:00 5 C 6.05 g/m*3 2.72 C 9.7 km/h
1696 10-01-2014 07:15:00 5.1 C 6.02 g/m*3 3.23 C 8.1 km/h
1697 10-01-2014 07:20:00 5.2 C 6.06 g/m*3 2.96 C 9.7 km/h
1698 10-01-2014 07:25:00 5.2 C 6.06 g/m*3 2.96 C 9.7 km/h
1699 10-01-2014 07:30:00 5.2 C 5.99 g/m*3 2.96 C 9.7 km/h
1700 10-01-2014 07:35:00 5.2 C 6.06 g/m*3 2.96 C 9.7 km/h
Sensor: Nr:Datum:Temp:Abs-Feuchte:Windchill:Wind:
Aussen-T/F 1701 10-01-2014 07:40:00 5.2 C 6.06 g/m*3 2.63 C 11.3 km/h
1702 10-01-2014 07:45:00 5.1 C 6.02 g/m*3 2.84 C 9.7 km/h
1703 10-01-2014 07:50:00 5.1 C 6.02 g/m*3 2.84 C 9.7 km/h
1704 10-01-2014 07:55:00 5 C 5.98 g/m*3 5 C 4.8 km/h
1705 10-01-2014 08:00:00 4.9 C 5.94 g/m*3 3.48 C 6.4 km/h
1706 10-01-2014 08:05:00 4.8 C 5.9 g/m*3 4.8 C 4.8 km/h
1707 10-01-2014 08:10:00 4.6 C 5.89 g/m*3 3.13 C 6.4 km/h
1708 10-01-2014 08:15:00 4.9 C 6.08 g/m*3 1.24 C 17.7 km/h
1709 10-01-2014 08:20:00 5.2 C 6.06 g/m*3 1.61 C 17.7 km/h
1710 10-01-2014 08:25:00 5.5 C 6.11 g/m*3 2.7 C 12.9 km/h
1711 10-01-2014 08:30:00 5.7 C 6.12 g/m*3 3.93 C 8.1 km/h
1712 10-01-2014 08:35:00 5.8 C 6.09 g/m*3 2.81 C 14.5 km/h
1713 10-01-2014 08:40:00 5.8 C 6.09 g/m*3 3.68 C 9.7 km/h
1714 10-01-2014 08:45:00 5.9 C 6.06 g/m*3 2.93 C 14.5 km/h
1715 10-01-2014 08:50:00 6 C 6.1 g/m*3 4.28 C 8.1 km/h
1716 10-01-2014 08:55:00 5.9 C 6.06 g/m*3 4.17 C 8.1 km/h
1717 10-01-2014 09:00:00 5.8 C 6.09 g/m*3 3.68 C 9.7 km/h
1718 10-01-2014 09:05:00 5.7 C 6.12 g/m*3 4.4 C 6.4 km/h
1719 10-01-2014 09:10:00 5.4 C 6 g/m*3 5.4 C 3.2 km/h
1720 10-01-2014 09:15:00 5.2 C 5.99 g/m*3 5.2 C 3.2 km/h
1721 10-01-2014 09:20:00 5.1 C 6.09 g/m*3 3.71 C 6.4 km/h
1722 10-01-2014 09:25:00 5.1 C 6.09 g/m*3 2.51 C 11.3 km/h
1723 10-01-2014 09:30:00 5.2 C 6.13 g/m*3 3.34 C 8.1 km/h
1724 10-01-2014 09:35:00 5.3 C 6.1 g/m*3 2.75 C 11.3 km/h
1725 10-01-2014 09:40:00 5.3 C 6.17 g/m*3 3.94 C 6.4 km/h
Sensor: Nr:Datum:Temp:Abs-Feuchte:Windchill:Wind:
Aussen-T/F 1726 10-01-2014 09:45:00 5.3 C 6.1 g/m*3 5.3 C 4.8 km/h
1727 10-01-2014 09:50:00 5.3 C 6.17 g/m*3 3.46 C 8.1 km/h
1728 10-01-2014 09:55:00 5.4 C 6.21 g/m*3 3.2 C 9.7 km/h
1729 10-01-2014 10:00:00 5.4 C 6.14 g/m*3 4.06 C 6.4 km/h
1730 10-01-2014 10:05:00 5.4 C 6.21 g/m*3 4.06 C 6.4 km/h
1731 10-01-2014 10:10:00 5.4 C 6.21 g/m*3 3.58 C 8.1 km/h
1732 10-01-2014 10:15:00 5.4 C 6.21 g/m*3 5.4 C 4.8 km/h
1733 10-01-2014 10:20:00 5.4 C 6.21 g/m*3 2.58 C 12.9 km/h
1734 10-01-2014 10:25:00 5.6 C 6.29 g/m*3 3.81 C 8.1 km/h
1735 10-01-2014 10:30:00 5.7 C 6.33 g/m*3 3.56 C 9.7 km/h
1736 10-01-2014 10:35:00 5.9 C 6.35 g/m*3 3.48 C 11.3 km/h
1737 10-01-2014 10:40:00 5.9 C 6.27 g/m*3 4.63 C 6.4 km/h
1738 10-01-2014 10:45:00 5.9 C 6.27 g/m*3 4.63 C 6.4 km/h
1739 10-01-2014 10:50:00 6.1 C 6.36 g/m*3 6.1 C 4.8 km/h
1740 10-01-2014 10:55:00 6.2 C 6.32 g/m*3 6.2 C 4.8 km/h
1741 10-01-2014 11:00:00 6.3 C 6.37 g/m*3 5.1 C 6.4 km/h
1742 10-01-2014 11:05:00 6.4 C 6.33 g/m*3 5.21 C 6.4 km/h
1743 10-01-2014 11:10:00 6.4 C 6.33 g/m*3 4.08 C 11.3 km/h
1744 10-01-2014 11:15:00 6.5 C 6.3 g/m*3 4.2 C 11.3 km/h
1745 10-01-2014 11:20:00 6.6 C 6.34 g/m*3 4.04 C 12.9 km/h
1746 10-01-2014 11:25:00 6.6 C 6.34 g/m*3 3.36 C 17.7 km/h
1747 10-01-2014 11:30:00 6.7 C 6.31 g/m*3 3.69 C 16.1 km/h
1748 10-01-2014 11:35:00 6.8 C 6.35 g/m*3 3.42 C 19.3 km/h
1749 10-01-2014 11:40:00 6.8 C 6.35 g/m*3 3.82 C 16.1 km/h
1750 10-01-2014 11:45:00 6.9 C 6.39 g/m*3 4.16 C 14.5 km/h
Sensor: Nr:Datum:Temp:Abs-Feuchte:Windchill:Wind:
Aussen-T/F 1751 10-01-2014 11:50:00 7 C 6.43 g/m*3 4.29 C 14.5 km/h
1752 10-01-2014 11:55:00 7.1 C 6.4 g/m*3 5.58 C 8.1 km/h
1753 10-01-2014 12:00:00 7.1 C 6.4 g/m*3 4.92 C 11.3 km/h
1754 10-01-2014 12:05:00 7.2 C 6.44 g/m*3 4.53 C 14.5 km/h
1755 10-01-2014 12:10:00 7.2 C 6.44 g/m*3 5.04 C 11.3 km/h
1756 10-01-2014 12:15:00 7.2 C 6.36 g/m*3 5.04 C 11.3 km/h
1757 10-01-2014 12:20:00 7.3 C 6.48 g/m*3 4.44 C 16.1 km/h
1758 10-01-2014 12:25:00 7.5 C 6.48 g/m*3 5.14 C 12.9 km/h
1759 10-01-2014 12:30:00 7.6 C 6.53 g/m*3 6.6 C 6.4 km/h
1760 10-01-2014 12:35:00 7.6 C 6.53 g/m*3 6.6 C 6.4 km/h
1761 10-01-2014 12:40:00 7.7 C 6.57 g/m*3 5.94 C 9.7 km/h
1762 10-01-2014 12:45:00 7.8 C 6.61 g/m*3 5.77 C 11.3 km/h
1763 10-01-2014 12:50:00 7.9 C 6.57 g/m*3 5.63 C 12.9 km/h
1764 10-01-2014 12:55:00 7.9 C 6.57 g/m*3 5.39 C 14.5 km/h
1765 10-01-2014 13:00:00 7.8 C 6.53 g/m*3 5.51 C 12.9 km/h
1766 10-01-2014 13:05:00 7.8 C 6.53 g/m*3 5.77 C 11.3 km/h
1767 10-01-2014 13:10:00 7.7 C 6.57 g/m*3 5.65 C 11.3 km/h
1768 10-01-2014 13:15:00 7.7 C 6.57 g/m*3 5.38 C 12.9 km/h
1769 10-01-2014 13:20:00 7.7 C 6.57 g/m*3 4.93 C 16.1 km/h
1770 10-01-2014 13:25:00 7.7 C 6.57 g/m*3 4.93 C 16.1 km/h
1771 10-01-2014 13:30:00 7.7 C 6.57 g/m*3 5.65 C 11.3 km/h
1772 10-01-2014 13:35:00 7.7 C 6.57 g/m*3 5.38 C 12.9 km/h
1773 10-01-2014 13:40:00 7.7 C 6.49 g/m*3 4.93 C 16.1 km/h
1774 10-01-2014 13:45:00 7.7 C 6.49 g/m*3 5.65 C 11.3 km/h
1775 10-01-2014 13:50:00 7.7 C 6.49 g/m*3 5.38 C 12.9 km/h
Sensor: Nr:Datum:Temp:Abs-Feuchte:Windchill:Wind:
Aussen-T/F 1776 10-01-2014 13:55:00 7.7 C 6.49 g/m*3 6.28 C 8.1 km/h
1777 10-01-2014 14:00:00 7.7 C 6.57 g/m*3 5.65 C 11.3 km/h
1778 10-01-2014 14:05:00 7.7 C 6.57 g/m*3 5.65 C 11.3 km/h
1779 10-01-2014 14:10:00 7.7 C 6.57 g/m*3 5.15 C 14.5 km/h
1780 10-01-2014 14:15:00 7.7 C 6.57 g/m*3 6.71 C 6.4 km/h
1781 10-01-2014 14:20:00 7.7 C 6.57 g/m*3 5.94 C 9.7 km/h
1782 10-01-2014 14:25:00 7.7 C 6.57 g/m*3 6.71 C 6.4 km/h
1783 10-01-2014 14:30:00 7.7 C 6.57 g/m*3 5.65 C 11.3 km/h
1784 10-01-2014 14:35:00 7.8 C 6.61 g/m*3 6.4 C 8.1 km/h
1785 10-01-2014 14:40:00 7.8 C 6.61 g/m*3 6.83 C 6.4 km/h
1786 10-01-2014 14:45:00 7.8 C 6.61 g/m*3 5.77 C 11.3 km/h
1787 10-01-2014 14:50:00 7.8 C 6.61 g/m*3 5.51 C 12.9 km/h
1788 10-01-2014 14:55:00 7.8 C 6.61 g/m*3 5.51 C 12.9 km/h
1789 10-01-2014 15:00:00 7.8 C 6.61 g/m*3 6.4 C 8.1 km/h
1790 10-01-2014 15:05:00 7.9 C 6.74 g/m*3 6.52 C 8.1 km/h
1791 10-01-2014 15:10:00 7.9 C 6.65 g/m*3 5.89 C 11.3 km/h
1792 10-01-2014 15:15:00 8 C 6.7 g/m*3 5.75 C 12.9 km/h
1793 10-01-2014 15:20:00 8.1 C 6.74 g/m*3 8.1 C 4.8 km/h
1794 10-01-2014 15:25:00 8.1 C 6.66 g/m*3 6.42 C 9.7 km/h
1795 10-01-2014 15:30:00 8.1 C 6.74 g/m*3 8.1 C 4.8 km/h
1796 10-01-2014 15:35:00 7.8 C 6.69 g/m*3 6.83 C 6.4 km/h
1797 10-01-2014 15:40:00 7.7 C 6.57 g/m*3 5.94 C 9.7 km/h
1798 10-01-2014 15:45:00 7.7 C 6.57 g/m*3 6.71 C 6.4 km/h
1799 10-01-2014 15:50:00 7.7 C 6.57 g/m*3 7.7 C 4.8 km/h
1800 10-01-2014 15:55:00 7.5 C 6.48 g/m*3 7.5 C 4.8 km/h
Sensor: Nr:Datum:Temp:Abs-Feuchte:Windchill:Wind:
Aussen-T/F 1801 10-01-2014 16:00:00 7.4 C 6.52 g/m*3 7.4 C 4.8 km/h
1802 10-01-2014 16:05:00 7.3 C 6.48 g/m*3 6.25 C 6.4 km/h
1803 10-01-2014 16:10:00 7.2 C 6.52 g/m*3 7.2 C 4.8 km/h
1804 10-01-2014 16:15:00 7.1 C 6.47 g/m*3 6.02 C 6.4 km/h
1805 10-01-2014 16:20:00 6.8 C 6.42 g/m*3 6.8 C 3.2 km/h
1806 10-01-2014 16:25:00 6.6 C 6.42 g/m*3 6.6 C 4.8 km/h
1807 10-01-2014 16:30:00 6.3 C 6.29 g/m*3 6.3 C 4.8 km/h
1808 10-01-2014 16:35:00 6.3 C 6.37 g/m*3 6.3 C 3.2 km/h
1809 10-01-2014 16:40:00 6.1 C 6.28 g/m*3 6.1 C 3.2 km/h
1810 10-01-2014 16:45:00 5.8 C 6.23 g/m*3 5.8 C 3.2 km/h
1811 10-01-2014 16:50:00 5.7 C 6.26 g/m*3 5.7 C 3.2 km/h
1812 10-01-2014 16:55:00 5.4 C 6.21 g/m*3 5.4 C 3.2 km/h
1813 10-01-2014 17:00:00 5.3 C 6.17 g/m*3 5.3 C 3.2 km/h
1814 10-01-2014 17:05:00 5.2 C 6.13 g/m*3 5.2 C 3.2 km/h
1815 10-01-2014 17:10:00 5.2 C 6.2 g/m*3 5.2 C 4.8 km/h
1816 10-01-2014 17:15:00 5.1 C 6.16 g/m*3 5.1 C 4.8 km/h
1817 10-01-2014 17:20:00 5.1 C 6.16 g/m*3 5.1 C 3.2 km/h
1818 10-01-2014 17:25:00 5.2 C 6.2 g/m*3 5.2 C 3.2 km/h
1819 10-01-2014 17:30:00 5.2 C 6.13 g/m*3 5.2 C 3.2 km/h
1820 10-01-2014 17:35:00 5.1 C 6.09 g/m*3 5.1 C 4.8 km/h
1821 10-01-2014 17:40:00 5 C 6.12 g/m*3 5 C 3.2 km/h
1822 10-01-2014 17:45:00 5.1 C 6.09 g/m*3 5.1 C 3.2 km/h
1823 10-01-2014 17:50:00 4.9 C 6.01 g/m*3 4.9 C 3.2 km/h
1824 10-01-2014 17:55:00 4.8 C 6.04 g/m*3 4.8 C 3.2 km/h
1825 10-01-2014 18:00:00 4.7 C 6 g/m*3 4.7 C 3.2 km/h
Sensor: Nr:Datum:Temp:Abs-Feuchte:Windchill:Wind:
Aussen-T/F 1826 10-01-2014 18:05:00 4.8 C 6.04 g/m*3 4.8 C 4.8 km/h
1827 10-01-2014 18:10:00 5 C 6.12 g/m*3 5 C 4.8 km/h
1828 10-01-2014 18:15:00 5 C 6.05 g/m*3 5 C 4.8 km/h
1829 10-01-2014 18:20:00 5.2 C 6.13 g/m*3 3.82 C 6.4 km/h
1830 10-01-2014 18:25:00 5.5 C 6.11 g/m*3 4.17 C 6.4 km/h
1831 10-01-2014 18:30:00 5.3 C 6.03 g/m*3 5.3 C 4.8 km/h
1832 10-01-2014 18:35:00 5.2 C 6.06 g/m*3 3.82 C 6.4 km/h
1833 10-01-2014 18:40:00 5.1 C 6.02 g/m*3 5.1 C 4.8 km/h
1834 10-01-2014 18:45:00 5.1 C 6.09 g/m*3 5.1 C 4.8 km/h
1835 10-01-2014 18:50:00 5.1 C 6.02 g/m*3 5.1 C 4.8 km/h
1836 10-01-2014 18:55:00 5 C 6.05 g/m*3 5 C 4.8 km/h
1837 10-01-2014 19:00:00 4.9 C 6.01 g/m*3 4.9 C 4.8 km/h
1838 10-01-2014 19:05:00 4.9 C 6.01 g/m*3 4.9 C 4.8 km/h
1839 10-01-2014 19:10:00 5 C 6.05 g/m*3 5 C 4.8 km/h
1840 10-01-2014 19:15:00 5.1 C 6.09 g/m*3 3.71 C 6.4 km/h
1841 10-01-2014 19:20:00 5.4 C 6.14 g/m*3 4.06 C 6.4 km/h
1842 10-01-2014 19:25:00 5.6 C 6.15 g/m*3 5.6 C 4.8 km/h
1843 10-01-2014 19:30:00 5.7 C 6.19 g/m*3 5.7 C 4.8 km/h
1844 10-01-2014 19:35:00 5.6 C 6.08 g/m*3 5.6 C 4.8 km/h
1845 10-01-2014 19:40:00 5.7 C 6.12 g/m*3 3.93 C 8.1 km/h
1846 10-01-2014 19:45:00 5.6 C 6.08 g/m*3 4.29 C 6.4 km/h
1847 10-01-2014 19:50:00 5.5 C 6.04 g/m*3 5.5 C 4.8 km/h
1848 10-01-2014 19:55:00 5.4 C 6 g/m*3 5.4 C 4.8 km/h
1849 10-01-2014 20:00:00 5.4 C 6 g/m*3 5.4 C 3.2 km/h
1850 10-01-2014 20:05:00 5.1 C 5.95 g/m*3 5.1 C 3.2 km/h
Sensor: Nr:Datum:Temp:Abs-Feuchte:Windchill:Wind:
Aussen-T/F 1851 10-01-2014 20:10:00 4.9 C 5.94 g/m*3 4.9 C 4.8 km/h
1852 10-01-2014 20:15:00 4.8 C 5.97 g/m*3 4.8 C 4.8 km/h
1853 10-01-2014 20:20:00 4.8 C 5.97 g/m*3 4.8 C 4.8 km/h
1854 10-01-2014 20:25:00 4.7 C 5.93 g/m*3 4.7 C 4.8 km/h
1855 10-01-2014 20:30:00 4.6 C 5.89 g/m*3 4.6 C 3.2 km/h
1856 10-01-2014 20:35:00 4.5 C 5.85 g/m*3 4.5 C 3.2 km/h
1857 10-01-2014 20:40:00 4.4 C 5.88 g/m*3 4.4 C 4.8 km/h
1858 10-01-2014 20:45:00 4.5 C 5.85 g/m*3 4.5 C 3.2 km/h
1859 10-01-2014 20:50:00 4.4 C 5.81 g/m*3 4.4 C 3.2 km/h
1860 10-01-2014 20:55:00 4.3 C 5.84 g/m*3 4.3 C 4.8 km/h
1861 10-01-2014 21:00:00 4.4 C 5.88 g/m*3 4.4 C 3.2 km/h
1862 10-01-2014 21:05:00 4.4 C 5.88 g/m*3 4.4 C 3.2 km/h
1863 10-01-2014 21:10:00 4.4 C 5.88 g/m*3 4.4 C 3.2 km/h
1864 10-01-2014 21:15:00 4.3 C 5.84 g/m*3 4.3 C 1.6 km/h
1865 10-01-2014 21:20:00 4.2 C 5.86 g/m*3 4.2 C 0 km/h
1866 10-01-2014 21:25:00 4.2 C 5.86 g/m*3 4.2 C 1.6 km/h
1867 10-01-2014 21:30:00 4.1 C 5.82 g/m*3 4.1 C 3.2 km/h
1868 10-01-2014 21:35:00 4 C 5.79 g/m*3 4 C 0 km/h
1869 10-01-2014 21:40:00 3.8 C 5.71 g/m*3 3.8 C 0 km/h
1870 10-01-2014 21:45:00 3.8 C 5.77 g/m*3 3.8 C 0 km/h
1871 10-01-2014 21:50:00 3.7 C 5.73 g/m*3 3.7 C 1.6 km/h
1872 10-01-2014 21:55:00 3.6 C 5.69 g/m*3 3.6 C 0 km/h
1873 10-01-2014 22:00:00 3.5 C 5.66 g/m*3 3.5 C 0 km/h
1874 10-01-2014 22:05:00 3.4 C 5.68 g/m*3 3.4 C 0 km/h
1875 10-01-2014 22:10:00 3.4 C 5.68 g/m*3 3.4 C 0 km/h
Sensor: Nr:Datum:Temp:Abs-Feuchte:Windchill:Wind:
Aussen-T/F 1876 10-01-2014 22:15:00 3.4 C 5.68 g/m*3 3.4 C 0 km/h
1877 10-01-2014 22:20:00 3.3 C 5.64 g/m*3 3.3 C 0 km/h
1878 10-01-2014 22:25:00 3.2 C 5.6 g/m*3 3.2 C 0 km/h
1879 10-01-2014 22:30:00 3.2 C 5.6 g/m*3 3.2 C 0 km/h
1880 10-01-2014 22:35:00 3.1 C 5.57 g/m*3 3.1 C 0 km/h
1881 10-01-2014 22:40:00 3.1 C 5.63 g/m*3 3.1 C 3.2 km/h
1882 10-01-2014 22:45:00 3.1 C 5.63 g/m*3 3.1 C 1.6 km/h
1883 10-01-2014 22:50:00 3.1 C 5.63 g/m*3 3.1 C 0 km/h
1884 10-01-2014 22:55:00 3.2 C 5.66 g/m*3 3.2 C 0 km/h
1885 10-01-2014 23:00:00 3.1 C 5.63 g/m*3 3.1 C 0 km/h
1886 10-01-2014 23:05:00 3.1 C 5.63 g/m*3 3.1 C 0 km/h
1887 10-01-2014 23:10:00 3.1 C 5.63 g/m*3 3.1 C 0 km/h
1888 10-01-2014 23:15:00 3 C 5.59 g/m*3 3 C 0 km/h
1889 10-01-2014 23:20:00 3.1 C 5.69 g/m*3 3.1 C 0 km/h
1890 10-01-2014 23:25:00 3.1 C 5.63 g/m*3 3.1 C 0 km/h
1891 10-01-2014 23:30:00 3 C 5.59 g/m*3 3 C 0 km/h
1892 10-01-2014 23:35:00 3.1 C 5.69 g/m*3 3.1 C 0 km/h
1893 10-01-2014 23:40:00 3.1 C 5.69 g/m*3 3.1 C 0 km/h
1894 10-01-2014 23:45:00 3.1 C 5.69 g/m*3 3.1 C 0 km/h
1895 10-01-2014 23:50:00 3 C 5.65 g/m*3 3 C 0 km/h
1896 10-01-2014 23:55:00 2.9 C 5.61 g/m*3 2.9 C 0 km/h
1897 11-01-2014 00:00:00 2.8 C 5.57 g/m*3 2.8 C 0 km/h
1898 11-01-2014 00:05:00 2.8 C 5.57 g/m*3 2.8 C 0 km/h
1899 11-01-2014 00:10:00 2.8 C 5.57 g/m*3 2.8 C 0 km/h
1900 11-01-2014 00:15:00 2.7 C 5.54 g/m*3 2.7 C 0 km/h
Sensor: Nr:Datum:Temp:Abs-Feuchte:Windchill:Wind:
Aussen-T/F 1901 11-01-2014 00:20:00 2.6 C 5.5 g/m*3 2.6 C 0 km/h
1902 11-01-2014 00:25:00 2.5 C 5.46 g/m*3 2.5 C 0 km/h
1903 11-01-2014 00:30:00 2.4 C 5.42 g/m*3 2.4 C 0 km/h
1904 11-01-2014 00:35:00 2.3 C 5.39 g/m*3 2.3 C 0 km/h
1905 11-01-2014 00:40:00 2.3 C 5.39 g/m*3 2.3 C 0 km/h
1906 11-01-2014 00:45:00 2.4 C 5.42 g/m*3 2.4 C 0 km/h
1907 11-01-2014 00:50:00 2.4 C 5.42 g/m*3 2.4 C 0 km/h
1908 11-01-2014 00:55:00 2.3 C 5.39 g/m*3 2.3 C 0 km/h
1909 11-01-2014 01:00:00 2.3 C 5.39 g/m*3 2.3 C 1.6 km/h
1910 11-01-2014 01:05:00 2.3 C 5.39 g/m*3 2.3 C 0 km/h
1911 11-01-2014 01:10:00 2.3 C 5.39 g/m*3 2.3 C 0 km/h
1912 11-01-2014 01:15:00 2.2 C 5.35 g/m*3 2.2 C 0 km/h
1913 11-01-2014 01:20:00 2.2 C 5.41 g/m*3 2.2 C 0 km/h
1914 11-01-2014 01:25:00 2.2 C 5.35 g/m*3 2.2 C 0 km/h
1915 11-01-2014 01:30:00 2.1 C 5.31 g/m*3 2.1 C 0 km/h
1916 11-01-2014 01:35:00 2.1 C 5.31 g/m*3 2.1 C 0 km/h
1917 11-01-2014 01:40:00 1.9 C 5.24 g/m*3 1.9 C 0 km/h
1918 11-01-2014 01:45:00 1.9 C 5.24 g/m*3 1.9 C 0 km/h
1919 11-01-2014 01:50:00 1.8 C 5.21 g/m*3 1.8 C 0 km/h
1920 11-01-2014 01:55:00 1.7 C 5.17 g/m*3 1.7 C 0 km/h
1921 11-01-2014 02:00:00 1.7 C 5.17 g/m*3 1.7 C 0 km/h
1922 11-01-2014 02:05:00 1.7 C 5.23 g/m*3 1.7 C 1.6 km/h
1923 11-01-2014 02:10:00 1.7 C 5.23 g/m*3 1.7 C 0 km/h
1924 11-01-2014 02:15:00 1.7 C 5.23 g/m*3 1.7 C 0 km/h
1925 11-01-2014 02:20:00 1.7 C 5.23 g/m*3 1.7 C 0 km/h
Sensor: Nr:Datum:Temp:Abs-Feuchte:Windchill:Wind:
Aussen-T/F 1926 11-01-2014 02:25:00 1.8 C 5.26 g/m*3 1.8 C 0 km/h
1927 11-01-2014 02:30:00 1.9 C 5.3 g/m*3 1.9 C 0 km/h
1928 11-01-2014 02:35:00 1.9 C 5.3 g/m*3 1.9 C 0 km/h
1929 11-01-2014 02:40:00 1.9 C 5.3 g/m*3 1.9 C 0 km/h
1930 11-01-2014 02:45:00 1.8 C 5.26 g/m*3 1.8 C 1.6 km/h
1931 11-01-2014 02:50:00 1.8 C 5.26 g/m*3 1.8 C 1.6 km/h
1932 11-01-2014 02:55:00 1.8 C 5.26 g/m*3 1.8 C 0 km/h
1933 11-01-2014 03:00:00 1.8 C 5.26 g/m*3 1.8 C 0 km/h
1934 11-01-2014 03:05:00 1.8 C 5.26 g/m*3 1.8 C 0 km/h
1935 11-01-2014 03:10:00 1.8 C 5.26 g/m*3 1.8 C 0 km/h
1936 11-01-2014 03:15:00 1.7 C 5.23 g/m*3 1.7 C 0 km/h
1937 11-01-2014 03:20:00 1.5 C 5.16 g/m*3 1.5 C 0 km/h
1938 11-01-2014 03:25:00 1.4 C 5.12 g/m*3 1.4 C 0 km/h
1939 11-01-2014 03:30:00 1.4 C 5.12 g/m*3 1.4 C 1.6 km/h
1940 11-01-2014 03:35:00 1.4 C 5.12 g/m*3 1.4 C 0 km/h
1941 11-01-2014 03:40:00 1.4 C 5.12 g/m*3 1.4 C 0 km/h
1942 11-01-2014 03:45:00 1.4 C 5.12 g/m*3 1.4 C 0 km/h
1943 11-01-2014 03:50:00 1.4 C 5.12 g/m*3 1.4 C 0 km/h
1944 11-01-2014 03:55:00 1.5 C 5.16 g/m*3 1.5 C 1.6 km/h
1945 11-01-2014 04:00:00 1.5 C 5.16 g/m*3 1.5 C 0 km/h
1946 11-01-2014 04:05:00 1.4 C 5.12 g/m*3 1.4 C 0 km/h
1947 11-01-2014 04:10:00 1.4 C 5.12 g/m*3 1.4 C 0 km/h
1948 11-01-2014 04:15:00 1.3 C 5.09 g/m*3 1.3 C 0 km/h
1949 11-01-2014 04:20:00 1.3 C 5.09 g/m*3 1.3 C 0 km/h
1950 11-01-2014 04:25:00 1.3 C 5.09 g/m*3 1.3 C 0 km/h
Sensor: Nr:Datum:Temp:Abs-Feuchte:Windchill:Wind:
Aussen-T/F 1951 11-01-2014 04:30:00 1.3 C 5.09 g/m*3 1.3 C 0 km/h
1952 11-01-2014 04:35:00 1.3 C 5.09 g/m*3 1.3 C 0 km/h
1953 11-01-2014 04:40:00 1.3 C 5.09 g/m*3 1.3 C 0 km/h
1954 11-01-2014 04:45:00 1.4 C 5.12 g/m*3 1.4 C 3.2 km/h
1955 11-01-2014 04:50:00 1.4 C 5.17 g/m*3 1.4 C 1.6 km/h
1956 11-01-2014 04:55:00 1.3 C 5.14 g/m*3 1.3 C 0 km/h
1957 11-01-2014 05:00:00 1.3 C 5.14 g/m*3 1.3 C 0 km/h
1958 11-01-2014 05:05:00 1.1 C 5.02 g/m*3 1.1 C 0 km/h
1959 11-01-2014 05:10:00 0.9 C 4.95 g/m*3 0.9 C 0 km/h
1960 11-01-2014 05:15:00 0.8 C 4.91 g/m*3 0.8 C 0 km/h
1961 11-01-2014 05:20:00 0.9 C 5 g/m*3 0.9 C 0 km/h
1962 11-01-2014 05:25:00 0.8 C 4.91 g/m*3 0.8 C 0 km/h
1963 11-01-2014 05:30:00 0.8 C 4.91 g/m*3 0.8 C 0 km/h
1964 11-01-2014 05:35:00 0.8 C 4.91 g/m*3 0.8 C 0 km/h
1965 11-01-2014 05:40:00 0.8 C 4.91 g/m*3 0.8 C 0 km/h
1966 11-01-2014 05:45:00 0.8 C 4.97 g/m*3 0.8 C 0 km/h
1967 11-01-2014 05:50:00 0.9 C 5 g/m*3 0.9 C 0 km/h
1968 11-01-2014 05:55:00 0.8 C 4.97 g/m*3 0.8 C 0 km/h
1969 11-01-2014 06:00:00 0.9 C 5 g/m*3 0.9 C 0 km/h
1970 11-01-2014 06:05:00 0.9 C 5 g/m*3 0.9 C 0 km/h
1971 11-01-2014 06:10:00 1 C 5.03 g/m*3 1 C 0 km/h
1972 11-01-2014 06:15:00 1.1 C 5.07 g/m*3 1.1 C 0 km/h
1973 11-01-2014 06:20:00 1.1 C 5.07 g/m*3 1.1 C 0 km/h
1974 11-01-2014 06:25:00 1.1 C 5.07 g/m*3 1.1 C 0 km/h
1975 11-01-2014 06:30:00 1.2 C 5.1 g/m*3 1.2 C 0 km/h
Sensor: Nr:Datum:Temp:Abs-Feuchte:Windchill:Wind:
Aussen-T/F 1976 11-01-2014 06:35:00 1.2 C 5.1 g/m*3 1.2 C 0 km/h
1977 11-01-2014 06:40:00 1.2 C 5.1 g/m*3 1.2 C 0 km/h
1978 11-01-2014 06:45:00 1.2 C 5.1 g/m*3 1.2 C 0 km/h
1979 11-01-2014 06:50:00 1.2 C 5.1 g/m*3 1.2 C 1.6 km/h
1980 11-01-2014 06:55:00 1.2 C 5.1 g/m*3 -0.8 C 6.4 km/h
1981 11-01-2014 07:00:00 1.2 C 5.1 g/m*3 -0.8 C 6.4 km/h
1982 11-01-2014 07:05:00 1.3 C 5.14 g/m*3 1.3 C 0 km/h
1983 11-01-2014 07:10:00 1.3 C 5.14 g/m*3 1.3 C 1.6 km/h
1984 11-01-2014 07:15:00 1.3 C 5.14 g/m*3 1.3 C 0 km/h
1985 11-01-2014 07:20:00 1.3 C 5.14 g/m*3 1.3 C 1.6 km/h
1986 11-01-2014 07:25:00 1.3 C 5.14 g/m*3 1.3 C 3.2 km/h
1987 11-01-2014 07:30:00 1.4 C 5.17 g/m*3 1.4 C 1.6 km/h
1988 11-01-2014 07:35:00 1.4 C 5.17 g/m*3 1.4 C 1.6 km/h
1989 11-01-2014 07:40:00 1.5 C 5.21 g/m*3 1.5 C 0 km/h
1990 11-01-2014 07:45:00 1.6 C 5.25 g/m*3 1.6 C 0 km/h
1991 11-01-2014 07:50:00 1.6 C 5.25 g/m*3 1.6 C 1.6 km/h
1992 11-01-2014 07:55:00 1.6 C 5.25 g/m*3 1.6 C 3.2 km/h
1993 11-01-2014 08:00:00 1.7 C 5.28 g/m*3 1.7 C 1.6 km/h
1994 11-01-2014 08:05:00 1.7 C 5.28 g/m*3 1.7 C 1.6 km/h
1995 11-01-2014 08:10:00 1.8 C 5.32 g/m*3 1.8 C 1.6 km/h
1996 11-01-2014 08:15:00 1.8 C 5.32 g/m*3 1.8 C 0 km/h
1997 11-01-2014 08:20:00 1.8 C 5.32 g/m*3 1.8 C 0 km/h
1998 11-01-2014 08:25:00 1.9 C 5.35 g/m*3 1.9 C 0 km/h
1999 11-01-2014 08:30:00 1.9 C 5.35 g/m*3 1.9 C 1.6 km/h
2000 11-01-2014 08:35:00 1.9 C 5.35 g/m*3 1.9 C 3.2 km/h
Sensor: Nr:Datum:Temp:Abs-Feuchte:Windchill:Wind:
Aussen-T/F 2001 11-01-2014 08:40:00 1.9 C 5.35 g/m*3 1.9 C 1.6 km/h
2002 11-01-2014 08:45:00 1.9 C 5.35 g/m*3 1.9 C 3.2 km/h
2003 11-01-2014 08:50:00 2 C 5.39 g/m*3 2 C 0 km/h
2004 11-01-2014 08:55:00 2.1 C 5.43 g/m*3 2.1 C 0 km/h
2005 11-01-2014 09:00:00 2.1 C 5.43 g/m*3 2.1 C 0 km/h
2006 11-01-2014 09:05:00 2.1 C 5.43 g/m*3 2.1 C 0 km/h
2007 11-01-2014 09:10:00 2.2 C 5.46 g/m*3 2.2 C 0 km/h
2008 11-01-2014 09:15:00 2.3 C 5.5 g/m*3 2.3 C 0 km/h
2009 11-01-2014 09:20:00 2.3 C 5.5 g/m*3 2.3 C 0 km/h
2010 11-01-2014 09:25:00 2.3 C 5.5 g/m*3 2.3 C 0 km/h
2011 11-01-2014 09:30:00 2.3 C 5.5 g/m*3 2.3 C 0 km/h
2012 11-01-2014 09:35:00 2.3 C 5.5 g/m*3 2.3 C 0 km/h
2013 11-01-2014 09:40:00 2.3 C 5.5 g/m*3 2.3 C 0 km/h
2014 11-01-2014 09:45:00 2.3 C 5.5 g/m*3 2.3 C 0 km/h
2015 11-01-2014 09:50:00 2.3 C 5.5 g/m*3 2.3 C 0 km/h
2016 11-01-2014 09:55:00 2.3 C 5.5 g/m*3 2.3 C 0 km/h
2017 11-01-2014 10:00:00 2.3 C 5.5 g/m*3 2.3 C 1.6 km/h
2018 11-01-2014 10:05:00 2.3 C 5.5 g/m*3 2.3 C 1.6 km/h
2019 11-01-2014 10:10:00 2.3 C 5.5 g/m*3 2.3 C 0 km/h
2020 11-01-2014 10:15:00 2.4 C 5.54 g/m*3 2.4 C 0 km/h
2021 11-01-2014 10:20:00 2.4 C 5.54 g/m*3 2.4 C 0 km/h
2022 11-01-2014 10:25:00 2.6 C 5.61 g/m*3 2.6 C 0 km/h
2023 11-01-2014 10:30:00 2.6 C 5.61 g/m*3 2.6 C 0 km/h
2024 11-01-2014 10:35:00 2.7 C 5.65 g/m*3 2.7 C 0 km/h
2025 11-01-2014 10:40:00 2.8 C 5.69 g/m*3 2.8 C 0 km/h
Sensor: Nr:Datum:Temp:Abs-Feuchte:Windchill:Wind:
Aussen-T/F 2026 11-01-2014 10:45:00 2.9 C 5.73 g/m*3 2.9 C 0 km/h
2027 11-01-2014 10:50:00 2.9 C 5.73 g/m*3 2.9 C 0 km/h
2028 11-01-2014 10:55:00 3 C 5.77 g/m*3 3 C 0 km/h
2029 11-01-2014 11:00:00 3.1 C 5.81 g/m*3 3.1 C 0 km/h
2030 11-01-2014 11:05:00 3.2 C 5.85 g/m*3 3.2 C 0 km/h
2031 11-01-2014 11:10:00 3.3 C 5.88 g/m*3 3.3 C 0 km/h
2032 11-01-2014 11:15:00 3.4 C 5.99 g/m*3 3.4 C 0 km/h
2033 11-01-2014 11:20:00 3.5 C 6.03 g/m*3 3.5 C 0 km/h
2034 11-01-2014 11:25:00 3.7 C 6.04 g/m*3 3.7 C 0 km/h
2035 11-01-2014 11:30:00 3.8 C 6.15 g/m*3 3.8 C 1.6 km/h
2036 11-01-2014 11:35:00 3.8 C 6.15 g/m*3 3.8 C 3.2 km/h
2037 11-01-2014 11:40:00 4 C 6.17 g/m*3 4 C 3.2 km/h
2038 11-01-2014 11:45:00 4.3 C 6.36 g/m*3 2.78 C 6.4 km/h
2039 11-01-2014 11:50:00 4.6 C 6.48 g/m*3 2.25 C 9.7 km/h
2040 11-01-2014 11:55:00 4.8 C 6.57 g/m*3 2.49 C 9.7 km/h
2041 11-01-2014 12:00:00 5.1 C 6.63 g/m*3 2.84 C 9.7 km/h
2042 11-01-2014 12:05:00 5.3 C 6.65 g/m*3 2.75 C 11.3 km/h
2043 11-01-2014 12:10:00 5.6 C 6.72 g/m*3 3.81 C 8.1 km/h
2044 11-01-2014 12:15:00 5.8 C 6.66 g/m*3 3.36 C 11.3 km/h
2045 11-01-2014 12:20:00 6 C 6.68 g/m*3 3.92 C 9.7 km/h
2046 11-01-2014 12:25:00 6.1 C 6.72 g/m*3 4.4 C 8.1 km/h
2047 11-01-2014 12:30:00 6.2 C 6.69 g/m*3 3.84 C 11.3 km/h
2048 11-01-2014 12:35:00 6.2 C 6.69 g/m*3 4.52 C 8.1 km/h
2049 11-01-2014 12:40:00 6.2 C 6.62 g/m*3 4.98 C 6.4 km/h
2050 11-01-2014 12:45:00 6.3 C 6.66 g/m*3 4.64 C 8.1 km/h
Sensor: Nr:Datum:Temp:Abs-Feuchte:Windchill:Wind:
Aussen-T/F 2051 11-01-2014 12:50:00 6.3 C 6.66 g/m*3 3.96 C 11.3 km/h
2052 11-01-2014 12:55:00 6.6 C 6.72 g/m*3 4.32 C 11.3 km/h
2053 11-01-2014 13:00:00 6.6 C 6.72 g/m*3 4.63 C 9.7 km/h
2054 11-01-2014 13:05:00 6.6 C 6.72 g/m*3 4.04 C 12.9 km/h
2055 11-01-2014 13:10:00 6.6 C 6.72 g/m*3 4.99 C 8.1 km/h
2056 11-01-2014 13:15:00 6.9 C 6.7 g/m*3 4.99 C 9.7 km/h
2057 11-01-2014 13:20:00 6.9 C 6.7 g/m*3 6.9 C 4.8 km/h
2058 11-01-2014 13:25:00 6.9 C 6.7 g/m*3 5.79 C 6.4 km/h
2059 11-01-2014 13:30:00 6.8 C 6.65 g/m*3 6.8 C 4.8 km/h
2060 11-01-2014 13:35:00 6.9 C 6.7 g/m*3 5.79 C 6.4 km/h
2061 11-01-2014 13:40:00 6.8 C 6.65 g/m*3 4.56 C 11.3 km/h
2062 11-01-2014 13:45:00 6.9 C 6.7 g/m*3 4.68 C 11.3 km/h
2063 11-01-2014 13:50:00 7.1 C 6.71 g/m*3 4.92 C 11.3 km/h
2064 11-01-2014 13:55:00 7.2 C 6.83 g/m*3 5.69 C 8.1 km/h
2065 11-01-2014 14:00:00 7.3 C 6.79 g/m*3 4.23 C 17.7 km/h
2066 11-01-2014 14:05:00 7.5 C 6.8 g/m*3 4.9 C 14.5 km/h
2067 11-01-2014 14:10:00 7.7 C 6.81 g/m*3 5.15 C 14.5 km/h
2068 11-01-2014 14:15:00 7.9 C 6.9 g/m*3 5.89 C 11.3 km/h
2069 11-01-2014 14:20:00 7.9 C 6.82 g/m*3 4.8 C 19.3 km/h
2070 11-01-2014 14:25:00 8 C 6.86 g/m*3 4.93 C 19.3 km/h
2071 11-01-2014 14:30:00 7.8 C 6.77 g/m*3 5.77 C 11.3 km/h
2072 11-01-2014 14:35:00 7.8 C 6.86 g/m*3 5.27 C 14.5 km/h
2073 11-01-2014 14:40:00 7.7 C 6.81 g/m*3 5.94 C 9.7 km/h
2074 11-01-2014 14:45:00 7.6 C 6.77 g/m*3 6.16 C 8.1 km/h
2075 11-01-2014 14:50:00 7.5 C 6.8 g/m*3 6.48 C 6.4 km/h
Sensor: Nr:Datum:Temp:Abs-Feuchte:Windchill:Wind:
Aussen-T/F 2076 11-01-2014 14:55:00 7.3 C 6.72 g/m*3 7.3 C 3.2 km/h
2077 11-01-2014 15:00:00 7.2 C 6.75 g/m*3 7.2 C 3.2 km/h
2078 11-01-2014 15:05:00 6.9 C 6.7 g/m*3 6.9 C 3.2 km/h
2079 11-01-2014 15:10:00 6.7 C 6.69 g/m*3 6.7 C 3.2 km/h
2080 11-01-2014 15:15:00 6.5 C 6.67 g/m*3 6.5 C 0 km/h
2081 11-01-2014 15:20:00 6.5 C 6.67 g/m*3 4.51 C 9.7 km/h
2082 11-01-2014 15:25:00 6.8 C 6.73 g/m*3 6.8 C 3.2 km/h
2083 11-01-2014 15:30:00 7.1 C 6.86 g/m*3 5.23 C 9.7 km/h
2084 11-01-2014 15:35:00 7.4 C 6.84 g/m*3 4.56 C 16.1 km/h
2085 11-01-2014 15:40:00 7.7 C 6.89 g/m*3 4.93 C 16.1 km/h
2086 11-01-2014 15:45:00 7.7 C 6.89 g/m*3 4.93 C 16.1 km/h
2087 11-01-2014 15:50:00 7.6 C 6.85 g/m*3 5.26 C 12.9 km/h
2088 11-01-2014 15:55:00 7.5 C 6.88 g/m*3 5.7 C 9.7 km/h
2089 11-01-2014 16:00:00 7.5 C 6.88 g/m*3 6.05 C 8.1 km/h
2090 11-01-2014 16:05:00 7.6 C 6.93 g/m*3 5.53 C 11.3 km/h
2091 11-01-2014 16:10:00 7.7 C 6.89 g/m*3 5.94 C 9.7 km/h
2092 11-01-2014 16:15:00 7.7 C 6.97 g/m*3 5.94 C 9.7 km/h
2093 11-01-2014 16:20:00 7.7 C 6.97 g/m*3 5.38 C 12.9 km/h
2094 11-01-2014 16:25:00 7.6 C 7.01 g/m*3 5.53 C 11.3 km/h
2095 11-01-2014 16:30:00 7.5 C 6.96 g/m*3 5.41 C 11.3 km/h
2096 11-01-2014 16:35:00 7.3 C 7.03 g/m*3 4.9 C 12.9 km/h
2097 11-01-2014 16:40:00 7.2 C 7.06 g/m*3 5.69 C 8.1 km/h
2098 11-01-2014 16:45:00 7 C 7.05 g/m*3 4.8 C 11.3 km/h
2099 11-01-2014 16:50:00 6.9 C 7.08 g/m*3 5.79 C 6.4 km/h
2100 11-01-2014 16:55:00 6.7 C 6.99 g/m*3 5.11 C 8.1 km/h
Sensor: Nr:Datum:Temp:Abs-Feuchte:Windchill:Wind:
Aussen-T/F 2101 11-01-2014 17:00:00 6.7 C 7.07 g/m*3 3.69 C 16.1 km/h
2102 11-01-2014 17:05:00 6.6 C 7.02 g/m*3 6.6 C 3.2 km/h
2103 11-01-2014 17:10:00 6.6 C 7.02 g/m*3 6.6 C 4.8 km/h
2104 11-01-2014 17:15:00 6.5 C 7.05 g/m*3 4.87 C 8.1 km/h
2105 11-01-2014 17:20:00 6.4 C 7 g/m*3 4.75 C 8.1 km/h
2106 11-01-2014 17:25:00 6.4 C 7 g/m*3 4.75 C 8.1 km/h
2107 11-01-2014 17:30:00 6.4 C 7 g/m*3 6.4 C 3.2 km/h
2108 11-01-2014 17:35:00 6.4 C 7 g/m*3 6.4 C 4.8 km/h
2109 11-01-2014 17:40:00 6.3 C 6.96 g/m*3 6.3 C 3.2 km/h
2110 11-01-2014 17:45:00 6.3 C 6.96 g/m*3 6.3 C 1.6 km/h
2111 11-01-2014 17:50:00 6.2 C 6.99 g/m*3 6.2 C 1.6 km/h
2112 11-01-2014 17:55:00 6.2 C 6.99 g/m*3 6.2 C 1.6 km/h
2113 11-01-2014 18:00:00 6.2 C 6.99 g/m*3 3.84 C 11.3 km/h
2114 11-01-2014 18:05:00 6.2 C 6.84 g/m*3 6.2 C 4.8 km/h
2115 11-01-2014 18:10:00 6.4 C 6.71 g/m*3 4.39 C 9.7 km/h
2116 11-01-2014 18:15:00 6.5 C 6.67 g/m*3 4.87 C 8.1 km/h
2117 11-01-2014 18:20:00 6.6 C 6.64 g/m*3 6.6 C 4.8 km/h
2118 11-01-2014 18:25:00 6.4 C 6.48 g/m*3 4.39 C 9.7 km/h
2119 11-01-2014 18:30:00 6.4 C 6.48 g/m*3 5.21 C 6.4 km/h
2120 11-01-2014 18:35:00 6.3 C 6.51 g/m*3 5.1 C 6.4 km/h
2121 11-01-2014 18:40:00 6.2 C 6.4 g/m*3 4.98 C 6.4 km/h
2122 11-01-2014 18:45:00 6.1 C 6.5 g/m*3 6.1 C 4.8 km/h
2123 11-01-2014 18:50:00 5.8 C 6.45 g/m*3 5.8 C 3.2 km/h
2124 11-01-2014 18:55:00 5.8 C 6.45 g/m*3 5.8 C 1.6 km/h
2125 11-01-2014 19:00:00 5.7 C 6.48 g/m*3 5.7 C 4.8 km/h
Sensor: Nr:Datum:Temp:Abs-Feuchte:Windchill:Wind:
Aussen-T/F 2126 11-01-2014 19:05:00 5.8 C 6.52 g/m*3 5.8 C 3.2 km/h
2127 11-01-2014 19:10:00 5.7 C 6.48 g/m*3 5.7 C 0 km/h
2128 11-01-2014 19:15:00 5.6 C 6.36 g/m*3 3.11 C 11.3 km/h
2129 11-01-2014 19:20:00 5.8 C 6.3 g/m*3 4.05 C 8.1 km/h
2130 11-01-2014 19:25:00 6.1 C 6.28 g/m*3 4.4 C 8.1 km/h
2131 11-01-2014 19:30:00 6.2 C 6.32 g/m*3 4.52 C 8.1 km/h
2132 11-01-2014 19:35:00 6.1 C 6.28 g/m*3 6.1 C 3.2 km/h
2133 11-01-2014 19:40:00 5.9 C 6.27 g/m*3 5.9 C 3.2 km/h
2134 11-01-2014 19:45:00 5.4 C 6.14 g/m*3 5.4 C 1.6 km/h
2135 11-01-2014 19:50:00 5.1 C 6.16 g/m*3 5.1 C 1.6 km/h
2136 11-01-2014 19:55:00 4.9 C 6.08 g/m*3 4.9 C 0 km/h
2137 11-01-2014 20:00:00 4.7 C 6.06 g/m*3 4.7 C 3.2 km/h
2138 11-01-2014 20:05:00 4.6 C 6.09 g/m*3 4.6 C 1.6 km/h
2139 11-01-2014 20:10:00 4.4 C 6.01 g/m*3 4.4 C 3.2 km/h
2140 11-01-2014 20:15:00 4.4 C 6.07 g/m*3 4.4 C 1.6 km/h
2141 11-01-2014 20:20:00 4.3 C 6.03 g/m*3 4.3 C 3.2 km/h
2142 11-01-2014 20:25:00 4.3 C 6.03 g/m*3 4.3 C 1.6 km/h
2143 11-01-2014 20:30:00 4.3 C 6.03 g/m*3 4.3 C 3.2 km/h
2144 11-01-2014 20:35:00 4.3 C 6.03 g/m*3 4.3 C 3.2 km/h
2145 11-01-2014 20:40:00 4.3 C 5.97 g/m*3 4.3 C 3.2 km/h
2146 11-01-2014 20:45:00 4.6 C 6.09 g/m*3 4.6 C 4.8 km/h
2147 11-01-2014 20:50:00 4.7 C 6.06 g/m*3 4.7 C 4.8 km/h
2148 11-01-2014 20:55:00 4.7 C 6 g/m*3 4.7 C 3.2 km/h
2149 11-01-2014 21:00:00 4.7 C 6 g/m*3 4.7 C 4.8 km/h
2150 11-01-2014 21:05:00 4.6 C 5.96 g/m*3 4.6 C 4.8 km/h
Sensor: Nr:Datum:Temp:Abs-Feuchte:Windchill:Wind:
Aussen-T/F 2151 11-01-2014 21:10:00 4.4 C 5.94 g/m*3 2.9 C 6.4 km/h
2152 11-01-2014 21:15:00 4.5 C 5.98 g/m*3 4.5 C 4.8 km/h
2153 11-01-2014 21:20:00 4.4 C 5.88 g/m*3 4.4 C 3.2 km/h
2154 11-01-2014 21:25:00 4.3 C 5.9 g/m*3 4.3 C 4.8 km/h
2155 11-01-2014 21:30:00 4.1 C 5.89 g/m*3 4.1 C 3.2 km/h
2156 11-01-2014 21:35:00 4.1 C 5.89 g/m*3 4.1 C 4.8 km/h
2157 11-01-2014 21:40:00 4.2 C 5.93 g/m*3 4.2 C 4.8 km/h
2158 11-01-2014 21:45:00 4.3 C 5.9 g/m*3 4.3 C 3.2 km/h
2159 11-01-2014 21:50:00 4.2 C 5.86 g/m*3 2.67 C 6.4 km/h
2160 11-01-2014 21:55:00 4.2 C 5.86 g/m*3 4.2 C 4.8 km/h
2161 11-01-2014 22:00:00 4.2 C 5.8 g/m*3 2.67 C 6.4 km/h
2162 11-01-2014 22:05:00 4.2 C 5.8 g/m*3 4.2 C 4.8 km/h
2163 11-01-2014 22:10:00 3.9 C 5.75 g/m*3 3.9 C 4.8 km/h
2164 11-01-2014 22:15:00 3.8 C 5.71 g/m*3 3.8 C 4.8 km/h
2165 11-01-2014 22:20:00 3.8 C 5.71 g/m*3 3.8 C 3.2 km/h
2166 11-01-2014 22:25:00 3.6 C 5.69 g/m*3 3.6 C 0 km/h
2167 11-01-2014 22:30:00 3.4 C 5.62 g/m*3 3.4 C 1.6 km/h
2168 11-01-2014 22:35:00 3.2 C 5.54 g/m*3 3.2 C 0 km/h
2169 11-01-2014 22:40:00 3 C 5.53 g/m*3 3 C 1.6 km/h
2170 11-01-2014 22:45:00 2.8 C 5.46 g/m*3 2.8 C 1.6 km/h
2171 11-01-2014 22:50:00 2.8 C 5.46 g/m*3 2.8 C 1.6 km/h
2172 11-01-2014 22:55:00 2.8 C 5.51 g/m*3 2.8 C 3.2 km/h
2173 11-01-2014 23:00:00 2.7 C 5.48 g/m*3 2.7 C 4.8 km/h
2174 11-01-2014 23:05:00 2.7 C 5.48 g/m*3 2.7 C 3.2 km/h
2175 11-01-2014 23:10:00 2.6 C 5.44 g/m*3 2.6 C 1.6 km/h
Sensor: Nr:Datum:Temp:Abs-Feuchte:Windchill:Wind:
Aussen-T/F 2176 11-01-2014 23:15:00 2.6 C 5.44 g/m*3 2.6 C 3.2 km/h
2177 11-01-2014 23:20:00 2.6 C 5.44 g/m*3 2.6 C 1.6 km/h
2178 11-01-2014 23:25:00 2.5 C 5.4 g/m*3 2.5 C 3.2 km/h
2179 11-01-2014 23:30:00 2.4 C 5.37 g/m*3 2.4 C 0 km/h
2180 11-01-2014 23:35:00 2.4 C 5.37 g/m*3 2.4 C 3.2 km/h
2181 11-01-2014 23:40:00 2.4 C 5.42 g/m*3 2.4 C 1.6 km/h
2182 11-01-2014 23:45:00 2.4 C 5.42 g/m*3 2.4 C 1.6 km/h
2183 11-01-2014 23:50:00 2.3 C 5.33 g/m*3 2.3 C 0 km/h
2184 11-01-2014 23:55:00 2.3 C 5.33 g/m*3 2.3 C 0 km/h
2185 12-01-2014 00:00:00 2.2 C 5.35 g/m*3 2.2 C 3.2 km/h
2186 12-01-2014 00:05:00 2.2 C 5.35 g/m*3 2.2 C 4.8 km/h
2187 12-01-2014 00:10:00 2.2 C 5.35 g/m*3 2.2 C 1.6 km/h
2188 12-01-2014 00:15:00 2.1 C 5.31 g/m*3 2.1 C 3.2 km/h
2189 12-01-2014 00:20:00 2.1 C 5.31 g/m*3 2.1 C 3.2 km/h
2190 12-01-2014 00:25:00 2.1 C 5.31 g/m*3 2.1 C 3.2 km/h
2191 12-01-2014 00:30:00 1.9 C 5.24 g/m*3 1.9 C 3.2 km/h
2192 12-01-2014 00:35:00 1.8 C 5.21 g/m*3 1.8 C 3.2 km/h
2193 12-01-2014 00:40:00 1.8 C 5.21 g/m*3 1.8 C 3.2 km/h
2194 12-01-2014 00:45:00 1.8 C 5.21 g/m*3 1.8 C 3.2 km/h
2195 12-01-2014 00:50:00 1.9 C 5.24 g/m*3 1.9 C 1.6 km/h
2196 12-01-2014 00:55:00 1.9 C 5.24 g/m*3 1.9 C 3.2 km/h
2197 12-01-2014 01:00:00 1.8 C 5.21 g/m*3 1.8 C 4.8 km/h
2198 12-01-2014 01:05:00 1.8 C 5.21 g/m*3 1.8 C 3.2 km/h
2199 12-01-2014 01:10:00 1.7 C 5.17 g/m*3 1.7 C 3.2 km/h
2200 12-01-2014 01:15:00 1.7 C 5.17 g/m*3 1.7 C 1.6 km/h
Sensor: Nr:Datum:Temp:Abs-Feuchte:Windchill:Wind:
Aussen-T/F 2201 12-01-2014 01:20:00 1.7 C 5.17 g/m*3 1.7 C 3.2 km/h
2202 12-01-2014 01:25:00 1.6 C 5.14 g/m*3 -0.89 C 8.1 km/h
2203 12-01-2014 01:30:00 1.6 C 5.14 g/m*3 1.6 C 1.6 km/h
2204 12-01-2014 01:35:00 1.5 C 5.1 g/m*3 1.5 C 4.8 km/h
2205 12-01-2014 01:40:00 1.5 C 5.1 g/m*3 1.5 C 4.8 km/h
2206 12-01-2014 01:45:00 1.4 C 5.07 g/m*3 1.4 C 1.6 km/h
2207 12-01-2014 01:50:00 1.3 C 5.03 g/m*3 1.3 C 3.2 km/h
2208 12-01-2014 01:55:00 1.3 C 5.03 g/m*3 1.3 C 4.8 km/h
2209 12-01-2014 02:00:00 1.4 C 5.07 g/m*3 1.4 C 4.8 km/h
2210 12-01-2014 02:05:00 1.3 C 5.03 g/m*3 1.3 C 4.8 km/h
2211 12-01-2014 02:10:00 1.3 C 5.03 g/m*3 -1.69 C 9.7 km/h
2212 12-01-2014 02:15:00 1.3 C 5.03 g/m*3 -1.69 C 9.7 km/h
2213 12-01-2014 02:20:00 1.2 C 5 g/m*3 1.2 C 3.2 km/h
2214 12-01-2014 02:25:00 1.1 C 4.96 g/m*3 -1.48 C 8.1 km/h
2215 12-01-2014 02:30:00 1.1 C 4.96 g/m*3 -1.48 C 8.1 km/h
2216 12-01-2014 02:35:00 1 C 4.93 g/m*3 -1.59 C 8.1 km/h
2217 12-01-2014 02:40:00 0.9 C 4.9 g/m*3 0.9 C 3.2 km/h
2218 12-01-2014 02:45:00 0.8 C 4.86 g/m*3 -1.83 C 8.1 km/h
2219 12-01-2014 02:50:00 0.9 C 4.95 g/m*3 -1.14 C 6.4 km/h
2220 12-01-2014 02:55:00 0.9 C 4.95 g/m*3 -2.16 C 9.7 km/h
2221 12-01-2014 03:00:00 0.9 C 4.95 g/m*3 -2.16 C 9.7 km/h
2222 12-01-2014 03:05:00 0.9 C 4.95 g/m*3 -2.9 C 12.9 km/h
2223 12-01-2014 03:10:00 0.9 C 4.95 g/m*3 -2.9 C 12.9 km/h
2224 12-01-2014 03:15:00 0.9 C 4.95 g/m*3 -2.16 C 9.7 km/h
2225 12-01-2014 03:20:00 0.9 C 4.95 g/m*3 -1.71 C 8.1 km/h
Sensor: Nr:Datum:Temp:Abs-Feuchte:Windchill:Wind:
Aussen-T/F 2226 12-01-2014 03:25:00 0.9 C 4.95 g/m*3 -1.71 C 8.1 km/h
2227 12-01-2014 03:30:00 0.9 C 4.95 g/m*3 0.9 C 4.8 km/h
2228 12-01-2014 03:35:00 1 C 4.98 g/m*3 -2.04 C 9.7 km/h
2229 12-01-2014 03:40:00 1 C 4.98 g/m*3 -1.03 C 6.4 km/h
2230 12-01-2014 03:45:00 1.1 C 5.02 g/m*3 -0.91 C 6.4 km/h
2231 12-01-2014 03:50:00 1.1 C 5.02 g/m*3 -2.31 C 11.3 km/h
2232 12-01-2014 03:55:00 1.1 C 5.02 g/m*3 -0.91 C 6.4 km/h
2233 12-01-2014 04:00:00 1.1 C 5.02 g/m*3 -1.92 C 9.7 km/h
2234 12-01-2014 04:05:00 1.2 C 5.05 g/m*3 -1.36 C 8.1 km/h
2235 12-01-2014 04:10:00 1.2 C 5.05 g/m*3 -2.19 C 11.3 km/h
2236 12-01-2014 04:15:00 1.2 C 5.05 g/m*3 -0.8 C 6.4 km/h
2237 12-01-2014 04:20:00 1.3 C 5.09 g/m*3 -1.24 C 8.1 km/h
2238 12-01-2014 04:25:00 1.3 C 5.09 g/m*3 -1.69 C 9.7 km/h
2239 12-01-2014 04:30:00 1.3 C 5.09 g/m*3 -0.68 C 6.4 km/h
2240 12-01-2014 04:35:00 1.3 C 5.09 g/m*3 -1.69 C 9.7 km/h
2241 12-01-2014 04:40:00 1.3 C 5.09 g/m*3 -1.69 C 9.7 km/h
2242 12-01-2014 04:45:00 1.3 C 5.09 g/m*3 -1.24 C 8.1 km/h
2243 12-01-2014 04:50:00 1.2 C 5.05 g/m*3 -2.19 C 11.3 km/h
2244 12-01-2014 04:55:00 1.2 C 5.05 g/m*3 -1.36 C 8.1 km/h
2245 12-01-2014 05:00:00 1.3 C 5.09 g/m*3 -1.69 C 9.7 km/h
2246 12-01-2014 05:05:00 1.3 C 5.09 g/m*3 -2.07 C 11.3 km/h
2247 12-01-2014 05:10:00 1.3 C 5.09 g/m*3 -1.69 C 9.7 km/h
2248 12-01-2014 05:15:00 1.3 C 5.09 g/m*3 -1.69 C 9.7 km/h
2249 12-01-2014 05:20:00 1.2 C 5.05 g/m*3 -0.8 C 6.4 km/h
2250 12-01-2014 05:25:00 1.2 C 5.05 g/m*3 1.2 C 4.8 km/h
Sensor: Nr:Datum:Temp:Abs-Feuchte:Windchill:Wind:
Aussen-T/F 2251 12-01-2014 05:30:00 1.2 C 5.05 g/m*3 -0.8 C 6.4 km/h
2252 12-01-2014 05:35:00 1.2 C 5.05 g/m*3 -0.8 C 6.4 km/h
2253 12-01-2014 05:40:00 1.1 C 5.02 g/m*3 1.1 C 4.8 km/h
2254 12-01-2014 05:45:00 1.1 C 5.02 g/m*3 -0.91 C 6.4 km/h
2255 12-01-2014 05:50:00 1.1 C 5.02 g/m*3 1.1 C 4.8 km/h
2256 12-01-2014 05:55:00 1 C 4.98 g/m*3 1 C 3.2 km/h
2257 12-01-2014 06:00:00 0.9 C 4.95 g/m*3 -1.14 C 6.4 km/h
2258 12-01-2014 06:05:00 0.9 C 4.95 g/m*3 0.9 C 1.6 km/h
2259 12-01-2014 06:10:00 0.8 C 4.91 g/m*3 0.8 C 3.2 km/h
2260 12-01-2014 06:15:00 0.8 C 4.91 g/m*3 0.8 C 0 km/h
2261 12-01-2014 06:20:00 0.7 C 4.88 g/m*3 0.7 C 1.6 km/h
2262 12-01-2014 06:25:00 0.6 C 4.85 g/m*3 0.6 C 1.6 km/h
2263 12-01-2014 06:30:00 0.6 C 4.85 g/m*3 0.6 C 3.2 km/h
2264 12-01-2014 06:35:00 0.6 C 4.85 g/m*3 0.6 C 3.2 km/h
2265 12-01-2014 06:40:00 0.6 C 4.85 g/m*3 0.6 C 4.8 km/h
2266 12-01-2014 06:45:00 0.6 C 4.85 g/m*3 0.6 C 0 km/h
2267 12-01-2014 06:50:00 0.6 C 4.85 g/m*3 0.6 C 0 km/h
2268 12-01-2014 06:55:00 0.6 C 4.85 g/m*3 0.6 C 3.2 km/h
2269 12-01-2014 07:00:00 0.6 C 4.85 g/m*3 0.6 C 3.2 km/h
2270 12-01-2014 07:05:00 0.7 C 4.93 g/m*3 0.7 C 1.6 km/h
2271 12-01-2014 07:10:00 0.7 C 4.93 g/m*3 0.7 C 0 km/h
2272 12-01-2014 07:15:00 0.7 C 4.93 g/m*3 0.7 C 4.8 km/h
2273 12-01-2014 07:20:00 0.6 C 4.9 g/m*3 0.6 C 4.8 km/h
2274 12-01-2014 07:25:00 0.6 C 4.9 g/m*3 0.6 C 1.6 km/h
2275 12-01-2014 07:30:00 0.6 C 4.85 g/m*3 0.6 C 3.2 km/h
Sensor: Nr:Datum:Temp:Abs-Feuchte:Windchill:Wind:
Aussen-T/F 2276 12-01-2014 07:35:00 0.5 C 4.81 g/m*3 0.5 C 4.8 km/h
2277 12-01-2014 07:40:00 0.4 C 4.83 g/m*3 -1.72 C 6.4 km/h
2278 12-01-2014 07:45:00 0.4 C 4.83 g/m*3 -1.72 C 6.4 km/h
2279 12-01-2014 07:50:00 0.4 C 4.83 g/m*3 0.4 C 4.8 km/h
2280 12-01-2014 07:55:00 0.3 C 4.8 g/m*3 0.3 C 4.8 km/h
2281 12-01-2014 08:00:00 0.3 C 4.8 g/m*3 0.3 C 3.2 km/h
2282 12-01-2014 08:05:00 0.3 C 4.8 g/m*3 0.3 C 3.2 km/h
2283 12-01-2014 08:10:00 0.2 C 4.77 g/m*3 -3 C 9.7 km/h
2284 12-01-2014 08:15:00 0.2 C 4.77 g/m*3 -2.53 C 8.1 km/h
2285 12-01-2014 08:20:00 0.2 C 4.77 g/m*3 0.2 C 4.8 km/h
2286 12-01-2014 08:25:00 0.1 C 4.73 g/m*3 0.1 C 3.2 km/h
2287 12-01-2014 08:30:00 0.1 C 4.73 g/m*3 0.1 C 4.8 km/h
2288 12-01-2014 08:35:00 0.1 C 4.73 g/m*3 0.1 C 3.2 km/h
2289 12-01-2014 08:40:00 0 C 4.7 g/m*3 0 C 1.6 km/h
2290 12-01-2014 08:45:00 0 C 4.7 g/m*3 0 C 1.6 km/h
2291 12-01-2014 08:50:00 -0.1 C 4.67 g/m*3 -0.1 C 0 km/h
2292 12-01-2014 08:55:00 0 C 4.7 g/m*3 0 C 1.6 km/h
2293 12-01-2014 09:00:00 0 C 4.7 g/m*3 0 C 3.2 km/h
2294 12-01-2014 09:05:00 0 C 4.7 g/m*3 0 C 0 km/h
2295 12-01-2014 09:10:00 0 C 4.7 g/m*3 0 C 1.6 km/h
2296 12-01-2014 09:15:00 0 C 4.7 g/m*3 0 C 3.2 km/h
2297 12-01-2014 09:20:00 -0.1 C 4.67 g/m*3 -0.1 C 1.6 km/h
2298 12-01-2014 09:25:00 0 C 4.7 g/m*3 0 C 1.6 km/h
2299 12-01-2014 09:30:00 0 C 4.7 g/m*3 0 C 0 km/h
2300 12-01-2014 09:35:00 0 C 4.7 g/m*3 0 C 0 km/h
Sensor: Nr:Datum:Temp:Abs-Feuchte:Windchill:Wind:
Aussen-T/F 2301 12-01-2014 09:40:00 0 C 4.7 g/m*3 0 C 1.6 km/h
2302 12-01-2014 09:45:00 0 C 4.7 g/m*3 0 C 1.6 km/h
2303 12-01-2014 09:50:00 0.1 C 4.73 g/m*3 0.1 C 4.8 km/h
2304 12-01-2014 09:55:00 -0.1 C 4.67 g/m*3 -0.1 C 4.8 km/h
2305 12-01-2014 10:00:00 0 C 4.7 g/m*3 0 C 1.6 km/h
2306 12-01-2014 10:05:00 0.1 C 4.73 g/m*3 -2.07 C 6.4 km/h
2307 12-01-2014 10:10:00 0.1 C 4.73 g/m*3 0.1 C 4.8 km/h
2308 12-01-2014 10:15:00 0.1 C 4.73 g/m*3 0.1 C 1.6 km/h
2309 12-01-2014 10:20:00 0.1 C 4.73 g/m*3 0.1 C 4.8 km/h
2310 12-01-2014 10:25:00 0.2 C 4.77 g/m*3 0.2 C 3.2 km/h
2311 12-01-2014 10:30:00 0.2 C 4.77 g/m*3 0.2 C 3.2 km/h
2312 12-01-2014 10:35:00 0.2 C 4.77 g/m*3 0.2 C 4.8 km/h
2313 12-01-2014 10:40:00 0.2 C 4.77 g/m*3 -1.95 C 6.4 km/h
2314 12-01-2014 10:45:00 0.2 C 4.77 g/m*3 0.2 C 4.8 km/h
2315 12-01-2014 10:50:00 0.2 C 4.77 g/m*3 -2.53 C 8.1 km/h
2316 12-01-2014 10:55:00 0.2 C 4.77 g/m*3 -3 C 9.7 km/h
2317 12-01-2014 11:00:00 0.2 C 4.77 g/m*3 -1.95 C 6.4 km/h
2318 12-01-2014 11:05:00 0.2 C 4.77 g/m*3 -2.53 C 8.1 km/h
2319 12-01-2014 11:10:00 0.2 C 4.77 g/m*3 -2.53 C 8.1 km/h
2320 12-01-2014 11:15:00 0.2 C 4.77 g/m*3 -1.95 C 6.4 km/h
2321 12-01-2014 11:20:00 0.2 C 4.77 g/m*3 -2.53 C 8.1 km/h
2322 12-01-2014 11:25:00 0.3 C 4.85 g/m*3 -1.84 C 6.4 km/h
2323 12-01-2014 11:30:00 0.3 C 4.85 g/m*3 -1.84 C 6.4 km/h
2324 12-01-2014 11:35:00 0.3 C 4.85 g/m*3 0.3 C 1.6 km/h
2325 12-01-2014 11:40:00 0.3 C 4.85 g/m*3 0.3 C 4.8 km/h
Sensor: Nr:Datum:Temp:Abs-Feuchte:Windchill:Wind:
Aussen-T/F 2326 12-01-2014 11:45:00 0.3 C 4.85 g/m*3 0.3 C 4.8 km/h
2327 12-01-2014 11:50:00 0.3 C 4.85 g/m*3 0.3 C 4.8 km/h
2328 12-01-2014 11:55:00 0.3 C 4.85 g/m*3 0.3 C 1.6 km/h
2329 12-01-2014 12:00:00 0.4 C 4.88 g/m*3 0.4 C 3.2 km/h
2330 12-01-2014 12:05:00 0.4 C 4.88 g/m*3 0.4 C 3.2 km/h
2331 12-01-2014 12:10:00 0.4 C 4.88 g/m*3 0.4 C 1.6 km/h
2332 12-01-2014 12:15:00 0.4 C 4.88 g/m*3 0.4 C 3.2 km/h
2333 12-01-2014 12:20:00 0.4 C 4.88 g/m*3 0.4 C 1.6 km/h
2334 12-01-2014 12:25:00 0.4 C 4.88 g/m*3 0.4 C 1.6 km/h
2335 12-01-2014 12:30:00 0.5 C 4.91 g/m*3 0.5 C 3.2 km/h
2336 12-01-2014 12:35:00 0.5 C 4.91 g/m*3 0.5 C 3.2 km/h
2337 12-01-2014 12:40:00 0.5 C 4.91 g/m*3 0.5 C 3.2 km/h
2338 12-01-2014 12:45:00 0.5 C 4.91 g/m*3 0.5 C 1.6 km/h
2339 12-01-2014 12:50:00 0.6 C 4.95 g/m*3 0.6 C 0 km/h
2340 12-01-2014 12:55:00 0.6 C 4.95 g/m*3 0.6 C 1.6 km/h
2341 12-01-2014 13:00:00 0.6 C 4.95 g/m*3 0.6 C 0 km/h
2342 12-01-2014 13:05:00 0.6 C 4.95 g/m*3 0.6 C 1.6 km/h
2343 12-01-2014 13:10:00 0.7 C 4.98 g/m*3 0.7 C 0 km/h
2344 12-01-2014 13:15:00 0.7 C 4.98 g/m*3 0.7 C 1.6 km/h
2345 12-01-2014 13:20:00 0.8 C 5.02 g/m*3 0.8 C 1.6 km/h
2346 12-01-2014 13:25:00 0.8 C 5.02 g/m*3 0.8 C 1.6 km/h
2347 12-01-2014 13:30:00 0.8 C 5.02 g/m*3 0.8 C 3.2 km/h
2348 12-01-2014 13:35:00 0.8 C 5.02 g/m*3 0.8 C 0 km/h
2349 12-01-2014 13:40:00 1 C 5.09 g/m*3 1 C 4.8 km/h
2350 12-01-2014 13:45:00 1.1 C 5.12 g/m*3 1.1 C 3.2 km/h
Sensor: Nr:Datum:Temp:Abs-Feuchte:Windchill:Wind:
Aussen-T/F 2351 12-01-2014 13:50:00 1.1 C 5.12 g/m*3 1.1 C 4.8 km/h
2352 12-01-2014 13:55:00 1.1 C 5.12 g/m*3 1.1 C 4.8 km/h
2353 12-01-2014 14:00:00 1.1 C 5.12 g/m*3 1.1 C 0 km/h
2354 12-01-2014 14:05:00 1.2 C 5.16 g/m*3 1.2 C 1.6 km/h
2355 12-01-2014 14:10:00 1.3 C 5.19 g/m*3 1.3 C 4.8 km/h
2356 12-01-2014 14:15:00 1.4 C 5.23 g/m*3 1.4 C 3.2 km/h
2357 12-01-2014 14:20:00 1.4 C 5.23 g/m*3 1.4 C 1.6 km/h
2358 12-01-2014 14:25:00 1.4 C 5.23 g/m*3 1.4 C 3.2 km/h
2359 12-01-2014 14:30:00 1.4 C 5.23 g/m*3 1.4 C 1.6 km/h
2360 12-01-2014 14:35:00 1.4 C 5.23 g/m*3 1.4 C 1.6 km/h
2361 12-01-2014 14:40:00 1.4 C 5.23 g/m*3 1.4 C 0 km/h
2362 12-01-2014 14:45:00 1.4 C 5.23 g/m*3 1.4 C 3.2 km/h
2363 12-01-2014 14:50:00 1.4 C 5.23 g/m*3 1.4 C 3.2 km/h
2364 12-01-2014 14:55:00 1.4 C 5.23 g/m*3 1.4 C 0 km/h
2365 12-01-2014 15:00:00 1.4 C 5.23 g/m*3 1.4 C 1.6 km/h
2366 12-01-2014 15:05:00 1.4 C 5.23 g/m*3 1.4 C 3.2 km/h
2367 12-01-2014 15:10:00 1.3 C 5.19 g/m*3 1.3 C 3.2 km/h
2368 12-01-2014 15:15:00 1.3 C 5.19 g/m*3 1.3 C 3.2 km/h
2369 12-01-2014 15:20:00 1.2 C 5.16 g/m*3 1.2 C 3.2 km/h
2370 12-01-2014 15:25:00 1.2 C 5.16 g/m*3 1.2 C 3.2 km/h
2371 12-01-2014 15:30:00 1.2 C 5.16 g/m*3 1.2 C 1.6 km/h
2372 12-01-2014 16:05:00 1.1 C 5.12 g/m*3 1.1 C 1.6 km/h
2373 12-01-2014 16:10:00 1.1 C 5.12 g/m*3 1.1 C 0 km/h
2374 12-01-2014 16:15:00 1.1 C 5.12 g/m*3 1.1 C 0 km/h
2375 12-01-2014 16:20:00 1 C 5.09 g/m*3 1 C 1.6 km/h
Sensor: Nr:Datum:Temp:Abs-Feuchte:Windchill:Wind:
Aussen-T/F 2376 12-01-2014 16:25:00 1 C 5.09 g/m*3 1 C 3.2 km/h
2377 12-01-2014 16:30:00 0.9 C 5.05 g/m*3 0.9 C 1.6 km/h
2378 12-01-2014 16:35:00 0.9 C 5.05 g/m*3 0.9 C 1.6 km/h
2379 12-01-2014 16:40:00 0.9 C 5.05 g/m*3 0.9 C 0 km/h
2380 12-01-2014 17:20:00 0.4 C 4.88 g/m*3 0.4 C 0 km/h
2381 12-01-2014 17:25:00 0.3 C 4.85 g/m*3 0.3 C 0 km/h
2382 12-01-2014 17:30:00 0.3 C 4.85 g/m*3 0.3 C 1.6 km/h
2383 12-01-2014 17:35:00 0.2 C 4.81 g/m*3 0.2 C 1.6 km/h
2384 12-01-2014 17:40:00 0.2 C 4.81 g/m*3 0.2 C 1.6 km/h
2385 12-01-2014 17:45:00 0.1 C 4.78 g/m*3 0.1 C 0 km/h
2386 12-01-2014 17:50:00 0.1 C 4.78 g/m*3 0.1 C 0 km/h
2387 12-01-2014 17:55:00 -0.1 C 4.72 g/m*3 -0.1 C 0 km/h
2388 12-01-2014 18:00:00 -0.1 C 4.72 g/m*3 -0.1 C 3.2 km/h
2389 12-01-2014 18:05:00 -0.1 C 4.72 g/m*3 -0.1 C 4.8 km/h
2390 12-01-2014 18:10:00 -0.2 C 4.68 g/m*3 -0.2 C 0 km/h
2391 12-01-2014 18:15:00 -0.2 C 4.68 g/m*3 -0.2 C 0 km/h
2392 12-01-2014 18:20:00 -0.2 C 4.68 g/m*3 -0.2 C 0 km/h
2393 12-01-2014 18:25:00 -0.3 C 4.65 g/m*3 -0.3 C 0 km/h
2394 12-01-2014 18:30:00 -0.3 C 4.65 g/m*3 -0.3 C 0 km/h
2395 12-01-2014 18:35:00 -0.3 C 4.65 g/m*3 -0.3 C 1.6 km/h
2396 12-01-2014 18:40:00 -0.3 C 4.65 g/m*3 -0.3 C 0 km/h
2397 12-01-2014 18:45:00 -0.4 C 4.62 g/m*3 -0.4 C 0 km/h
2398 12-01-2014 18:50:00 -0.4 C 4.62 g/m*3 -0.4 C 0 km/h
2399 12-01-2014 18:55:00 -0.4 C 4.62 g/m*3 -0.4 C 0 km/h
2400 12-01-2014 19:00:00 -0.4 C 4.62 g/m*3 -0.4 C 0 km/h
Sensor: Nr:Datum:Temp:Abs-Feuchte:Windchill:Wind:
Aussen-T/F 2401 12-01-2014 19:05:00 -0.4 C 4.62 g/m*3 -0.4 C 1.6 km/h
2402 12-01-2014 19:10:00 -0.5 C 4.59 g/m*3 -0.5 C 1.6 km/h
2403 12-01-2014 19:15:00 -0.5 C 4.59 g/m*3 -0.5 C 0 km/h
2404 12-01-2014 19:20:00 -0.6 C 4.56 g/m*3 -0.6 C 0 km/h
2405 12-01-2014 19:25:00 -0.6 C 4.56 g/m*3 -0.6 C 0 km/h
2406 12-01-2014 19:30:00 -0.6 C 4.56 g/m*3 -0.6 C 0 km/h
2407 12-01-2014 19:35:00 -0.6 C 4.56 g/m*3 -0.6 C 0 km/h
2408 12-01-2014 19:40:00 -0.6 C 4.56 g/m*3 -0.6 C 0 km/h
2409 12-01-2014 19:45:00 -0.6 C 4.56 g/m*3 -0.6 C 0 km/h
2410 12-01-2014 19:50:00 -0.6 C 4.56 g/m*3 -0.6 C 0 km/h
2411 12-01-2014 19:55:00 -0.7 C 4.52 g/m*3 -0.7 C 1.6 km/h
2412 12-01-2014 20:00:00 -0.7 C 4.52 g/m*3 -0.7 C 3.2 km/h
2413 12-01-2014 20:05:00 -0.7 C 4.52 g/m*3 -0.7 C 3.2 km/h
2414 12-01-2014 20:10:00 -0.8 C 4.49 g/m*3 -0.8 C 3.2 km/h
2415 12-01-2014 20:15:00 -0.8 C 4.49 g/m*3 -0.8 C 3.2 km/h
2416 12-01-2014 20:20:00 -0.8 C 4.49 g/m*3 -0.8 C 0 km/h
2417 12-01-2014 20:25:00 -0.8 C 4.49 g/m*3 -0.8 C 0 km/h
2418 12-01-2014 20:30:00 -0.8 C 4.49 g/m*3 -0.8 C 0 km/h
2419 12-01-2014 20:35:00 -0.8 C 4.49 g/m*3 -0.8 C 0 km/h
2420 12-01-2014 20:40:00 -0.8 C 4.49 g/m*3 -0.8 C 0 km/h
2421 12-01-2014 20:45:00 -0.9 C 4.46 g/m*3 -0.9 C 0 km/h
2422 12-01-2014 20:50:00 -0.9 C 4.46 g/m*3 -0.9 C 0 km/h
2423 12-01-2014 20:55:00 -0.9 C 4.46 g/m*3 -0.9 C 1.6 km/h
2424 12-01-2014 21:00:00 -1 C 4.43 g/m*3 -1 C 3.2 km/h
2425 12-01-2014 21:05:00 -1.1 C 4.4 g/m*3 -1.1 C 1.6 km/h
Sensor: Nr:Datum:Temp:Abs-Feuchte:Windchill:Wind:
Aussen-T/F 2426 12-01-2014 21:10:00 -1.1 C 4.4 g/m*3 -1.1 C 3.2 km/h
2427 12-01-2014 21:15:00 -1.2 C 4.37 g/m*3 -1.2 C 3.2 km/h
2428 12-01-2014 21:20:00 -1.2 C 4.37 g/m*3 -1.2 C 0 km/h
2429 12-01-2014 21:25:00 -1.2 C 4.37 g/m*3 -1.2 C 1.6 km/h
2430 12-01-2014 21:30:00 -1.2 C 4.37 g/m*3 -1.2 C 3.2 km/h
2431 12-01-2014 21:35:00 -1.3 C 4.34 g/m*3 -1.3 C 4.8 km/h
2432 12-01-2014 21:40:00 -1.3 C 4.34 g/m*3 -3.68 C 6.4 km/h
2433 12-01-2014 21:45:00 -1.3 C 4.34 g/m*3 -1.3 C 0 km/h
2434 12-01-2014 21:50:00 -1.4 C 4.31 g/m*3 -1.4 C 1.6 km/h
2435 12-01-2014 21:55:00 -1.4 C 4.31 g/m*3 -1.4 C 1.6 km/h
2436 12-01-2014 22:00:00 -1.4 C 4.31 g/m*3 -1.4 C 3.2 km/h
2437 12-01-2014 22:05:00 -1.4 C 4.31 g/m*3 -1.4 C 3.2 km/h
2438 12-01-2014 22:10:00 -1.4 C 4.31 g/m*3 -1.4 C 3.2 km/h
2439 12-01-2014 22:15:00 -1.5 C 4.28 g/m*3 -1.5 C 1.6 km/h
2440 12-01-2014 22:20:00 -1.5 C 4.28 g/m*3 -1.5 C 0 km/h
2441 12-01-2014 22:25:00 -1.5 C 4.28 g/m*3 -1.5 C 0 km/h
2442 12-01-2014 22:30:00 -1.6 C 4.25 g/m*3 -1.6 C 3.2 km/h
2443 12-01-2014 22:35:00 -1.6 C 4.25 g/m*3 -1.6 C 3.2 km/h
2444 12-01-2014 22:40:00 -1.6 C 4.25 g/m*3 -1.6 C 4.8 km/h
2445 12-01-2014 22:45:00 -1.7 C 4.22 g/m*3 -1.7 C 3.2 km/h
2446 12-01-2014 22:50:00 -1.7 C 4.22 g/m*3 -1.7 C 3.2 km/h
2447 12-01-2014 22:55:00 -1.7 C 4.22 g/m*3 -1.7 C 3.2 km/h
2448 12-01-2014 23:00:00 -1.7 C 4.22 g/m*3 -1.7 C 3.2 km/h
2449 12-01-2014 23:05:00 -1.7 C 4.22 g/m*3 -1.7 C 3.2 km/h
2450 12-01-2014 23:10:00 -1.7 C 4.22 g/m*3 -1.7 C 4.8 km/h
Sensor: Nr:Datum:Temp:Abs-Feuchte:Windchill:Wind:
Aussen-T/F 2451 12-01-2014 23:15:00 -1.7 C 4.22 g/m*3 -1.7 C 1.6 km/h
2452 12-01-2014 23:20:00 -1.7 C 4.22 g/m*3 -1.7 C 3.2 km/h
2453 12-01-2014 23:25:00 -1.7 C 4.22 g/m*3 -1.7 C 1.6 km/h
2454 12-01-2014 23:30:00 -1.7 C 4.22 g/m*3 -1.7 C 3.2 km/h
2455 12-01-2014 23:35:00 -1.7 C 4.22 g/m*3 -1.7 C 1.6 km/h
2456 12-01-2014 23:40:00 -1.7 C 4.22 g/m*3 -1.7 C 0 km/h
2457 12-01-2014 23:45:00 -1.7 C 4.22 g/m*3 -1.7 C 0 km/h
2458 12-01-2014 23:50:00 -1.7 C 4.22 g/m*3 -1.7 C 1.6 km/h
2459 12-01-2014 23:55:00 -1.7 C 4.22 g/m*3 -1.7 C 0 km/h
2460 13-01-2014 00:00:00 -1.7 C 4.22 g/m*3 -1.7 C 0 km/h
2461 13-01-2014 00:05:00 -1.7 C 4.22 g/m*3 -1.7 C 0 km/h
2462 13-01-2014 00:10:00 -1.7 C 4.22 g/m*3 -1.7 C 0 km/h
2463 13-01-2014 00:15:00 -1.7 C 4.22 g/m*3 -1.7 C 0 km/h
2464 13-01-2014 00:20:00 -1.7 C 4.22 g/m*3 -1.7 C 0 km/h
2465 13-01-2014 00:25:00 -1.7 C 4.22 g/m*3 -1.7 C 0 km/h
2466 13-01-2014 00:30:00 -1.7 C 4.22 g/m*3 -1.7 C 1.6 km/h
2467 13-01-2014 00:35:00 -1.7 C 4.22 g/m*3 -1.7 C 0 km/h
2468 13-01-2014 00:40:00 -1.7 C 4.22 g/m*3 -1.7 C 0 km/h
2469 13-01-2014 00:45:00 -1.7 C 4.22 g/m*3 -1.7 C 0 km/h
2470 13-01-2014 00:50:00 -1.7 C 4.22 g/m*3 -1.7 C 1.6 km/h
2471 13-01-2014 00:55:00 -1.7 C 4.22 g/m*3 -1.7 C 0 km/h
2472 13-01-2014 01:00:00 -1.7 C 4.22 g/m*3 -1.7 C 1.6 km/h
2473 13-01-2014 01:05:00 -1.7 C 4.22 g/m*3 -1.7 C 0 km/h
2474 13-01-2014 01:10:00 -1.7 C 4.22 g/m*3 -1.7 C 0 km/h
2475 13-01-2014 01:15:00 -1.7 C 4.22 g/m*3 -1.7 C 0 km/h
Sensor: Nr:Datum:Temp:Abs-Feuchte:Windchill:Wind:
Aussen-T/F 2476 13-01-2014 01:20:00 -1.7 C 4.22 g/m*3 -1.7 C 0 km/h
2477 13-01-2014 01:25:00 -1.7 C 4.22 g/m*3 -1.7 C 0 km/h
2478 13-01-2014 01:30:00 -1.7 C 4.22 g/m*3 -1.7 C 0 km/h
2479 13-01-2014 01:35:00 -1.7 C 4.22 g/m*3 -1.7 C 0 km/h
2480 13-01-2014 01:40:00 -1.7 C 4.22 g/m*3 -1.7 C 1.6 km/h
2481 13-01-2014 01:45:00 -1.7 C 4.22 g/m*3 -1.7 C 0 km/h
2482 13-01-2014 01:50:00 -1.6 C 4.25 g/m*3 -1.6 C 0 km/h
2483 13-01-2014 01:55:00 -1.6 C 4.25 g/m*3 -1.6 C 0 km/h
2484 13-01-2014 02:00:00 -1.6 C 4.25 g/m*3 -1.6 C 0 km/h
2485 13-01-2014 02:05:00 -1.5 C 4.28 g/m*3 -1.5 C 0 km/h
2486 13-01-2014 02:10:00 -1.4 C 4.31 g/m*3 -1.4 C 0 km/h
2487 13-01-2014 02:15:00 -1.3 C 4.34 g/m*3 -1.3 C 1.6 km/h
2488 13-01-2014 02:20:00 -1.3 C 4.34 g/m*3 -1.3 C 1.6 km/h
2489 13-01-2014 02:25:00 -1.1 C 4.4 g/m*3 -1.1 C 1.6 km/h
2490 13-01-2014 02:30:00 -1 C 4.43 g/m*3 -1 C 1.6 km/h
2491 13-01-2014 02:35:00 -0.9 C 4.46 g/m*3 -0.9 C 1.6 km/h
2492 13-01-2014 02:40:00 -0.8 C 4.49 g/m*3 -0.8 C 0 km/h
2493 13-01-2014 02:45:00 -0.8 C 4.49 g/m*3 -0.8 C 0 km/h
2494 13-01-2014 02:50:00 -0.7 C 4.52 g/m*3 -0.7 C 0 km/h
2495 13-01-2014 02:55:00 -0.6 C 4.56 g/m*3 -0.6 C 0 km/h
2496 13-01-2014 03:00:00 -0.5 C 4.59 g/m*3 -0.5 C 0 km/h
2497 13-01-2014 03:05:00 -0.5 C 4.59 g/m*3 -0.5 C 0 km/h
2498 13-01-2014 03:10:00 -0.4 C 4.62 g/m*3 -0.4 C 4.8 km/h
2499 13-01-2014 03:15:00 -0.3 C 4.65 g/m*3 -0.3 C 1.6 km/h
2500 13-01-2014 03:20:00 -0.2 C 4.68 g/m*3 -0.2 C 4.8 km/h
Sensor: Nr:Datum:Temp:Abs-Feuchte:Windchill:Wind:
Aussen-T/F 2501 13-01-2014 03:25:00 -0.1 C 4.72 g/m*3 -0.1 C 4.8 km/h
2502 13-01-2014 03:30:00 -0.1 C 4.72 g/m*3 -0.1 C 0 km/h
2503 13-01-2014 03:35:00 -0.1 C 4.72 g/m*3 -0.1 C 4.8 km/h
2504 13-01-2014 03:40:00 -0.1 C 4.72 g/m*3 -0.1 C 1.6 km/h
2505 13-01-2014 03:45:00 -0.1 C 4.72 g/m*3 -0.1 C 0 km/h
2506 13-01-2014 03:50:00 -0.1 C 4.72 g/m*3 -0.1 C 1.6 km/h
2507 13-01-2014 03:55:00 0 C 4.75 g/m*3 0 C 1.6 km/h
2508 13-01-2014 04:00:00 0.1 C 4.78 g/m*3 -2.07 C 6.4 km/h
2509 13-01-2014 04:05:00 0.1 C 4.78 g/m*3 0.1 C 1.6 km/h
2510 13-01-2014 04:10:00 0.1 C 4.78 g/m*3 0.1 C 3.2 km/h
2511 13-01-2014 04:15:00 0.2 C 4.81 g/m*3 0.2 C 3.2 km/h
2512 13-01-2014 04:20:00 0.2 C 4.81 g/m*3 0.2 C 3.2 km/h
2513 13-01-2014 04:25:00 0.2 C 4.81 g/m*3 0.2 C 3.2 km/h
2514 13-01-2014 04:30:00 0.2 C 4.81 g/m*3 0.2 C 0 km/h
2515 13-01-2014 04:35:00 0.2 C 4.81 g/m*3 0.2 C 0 km/h
2516 13-01-2014 04:40:00 0.3 C 4.85 g/m*3 0.3 C 0 km/h
2517 13-01-2014 04:45:00 0.3 C 4.85 g/m*3 0.3 C 3.2 km/h
2518 13-01-2014 04:50:00 0.4 C 4.88 g/m*3 0.4 C 0 km/h
2519 13-01-2014 04:55:00 0.6 C 4.95 g/m*3 0.6 C 1.6 km/h
2520 13-01-2014 05:00:00 0.6 C 4.95 g/m*3 0.6 C 3.2 km/h
2521 13-01-2014 05:05:00 0.7 C 4.98 g/m*3 0.7 C 0 km/h
2522 13-01-2014 05:10:00 0.8 C 5.02 g/m*3 0.8 C 1.6 km/h
2523 13-01-2014 05:15:00 0.9 C 5.05 g/m*3 0.9 C 0 km/h
2524 13-01-2014 05:20:00 1 C 5.09 g/m*3 1 C 0 km/h
2525 13-01-2014 05:25:00 1.1 C 5.12 g/m*3 1.1 C 0 km/h
Sensor: Nr:Datum:Temp:Abs-Feuchte:Windchill:Wind:
Aussen-T/F 2526 13-01-2014 05:30:00 1.2 C 5.16 g/m*3 1.2 C 0 km/h
2527 13-01-2014 05:35:00 1.2 C 5.16 g/m*3 1.2 C 0 km/h
2528 13-01-2014 05:40:00 1.2 C 5.16 g/m*3 1.2 C 0 km/h
2529 13-01-2014 05:45:00 1.3 C 5.19 g/m*3 1.3 C 0 km/h
2530 13-01-2014 05:50:00 1.3 C 5.19 g/m*3 1.3 C 0 km/h
2531 13-01-2014 05:55:00 1.4 C 5.23 g/m*3 1.4 C 1.6 km/h
2532 13-01-2014 06:00:00 1.4 C 5.23 g/m*3 1.4 C 0 km/h
2533 13-01-2014 06:05:00 1.5 C 5.26 g/m*3 1.5 C 0 km/h
2534 13-01-2014 06:10:00 1.6 C 5.3 g/m*3 1.6 C 0 km/h
2535 13-01-2014 06:15:00 1.7 C 5.34 g/m*3 1.7 C 0 km/h
2536 13-01-2014 06:20:00 1.8 C 5.37 g/m*3 1.8 C 1.6 km/h
2537 13-01-2014 06:25:00 1.8 C 5.37 g/m*3 1.8 C 3.2 km/h
2538 13-01-2014 06:30:00 1.9 C 5.41 g/m*3 1.9 C 3.2 km/h
2539 13-01-2014 06:35:00 1.9 C 5.41 g/m*3 1.9 C 1.6 km/h
2540 13-01-2014 06:40:00 2 C 5.45 g/m*3 2 C 0 km/h
2541 13-01-2014 06:45:00 2 C 5.45 g/m*3 2 C 0 km/h
2542 13-01-2014 06:50:00 2.1 C 5.48 g/m*3 2.1 C 3.2 km/h
2543 13-01-2014 06:55:00 2.2 C 5.52 g/m*3 2.2 C 1.6 km/h
2544 13-01-2014 07:00:00 2.2 C 5.52 g/m*3 2.2 C 1.6 km/h
2545 13-01-2014 07:05:00 2.3 C 5.56 g/m*3 2.3 C 0 km/h
2546 13-01-2014 07:10:00 2.2 C 5.52 g/m*3 2.2 C 0 km/h
2547 13-01-2014 07:15:00 2.2 C 5.52 g/m*3 2.2 C 0 km/h
2548 13-01-2014 07:20:00 2.3 C 5.56 g/m*3 2.3 C 0 km/h
2549 13-01-2014 07:25:00 2.3 C 5.56 g/m*3 2.3 C 0 km/h
2550 13-01-2014 07:30:00 2.3 C 5.56 g/m*3 2.3 C 0 km/h
Sensor: Nr:Datum:Temp:Abs-Feuchte:Windchill:Wind:
Aussen-T/F 2551 13-01-2014 07:35:00 2.4 C 5.6 g/m*3 2.4 C 1.6 km/h
2552 13-01-2014 07:40:00 2.4 C 5.6 g/m*3 2.4 C 0 km/h
2553 13-01-2014 07:45:00 2.4 C 5.6 g/m*3 2.4 C 1.6 km/h
2554 13-01-2014 07:50:00 2.5 C 5.63 g/m*3 2.5 C 0 km/h
2555 13-01-2014 07:55:00 2.5 C 5.63 g/m*3 2.5 C 0 km/h
2556 13-01-2014 08:00:00 2.4 C 5.6 g/m*3 2.4 C 0 km/h
2557 13-01-2014 08:05:00 2.4 C 5.6 g/m*3 2.4 C 0 km/h
2558 13-01-2014 08:10:00 2.5 C 5.63 g/m*3 2.5 C 0 km/h
2559 13-01-2014 08:15:00 2.6 C 5.67 g/m*3 2.6 C 1.6 km/h
2560 13-01-2014 08:20:00 2.6 C 5.67 g/m*3 2.6 C 0 km/h
2561 13-01-2014 08:25:00 2.7 C 5.71 g/m*3 2.7 C 0 km/h
2562 13-01-2014 08:30:00 2.7 C 5.71 g/m*3 2.7 C 0 km/h
2563 13-01-2014 08:35:00 2.8 C 5.75 g/m*3 2.8 C 0 km/h
2564 13-01-2014 08:40:00 2.8 C 5.75 g/m*3 2.8 C 0 km/h
2565 13-01-2014 08:45:00 2.8 C 5.75 g/m*3 2.8 C 0 km/h
2566 13-01-2014 08:50:00 2.8 C 5.75 g/m*3 2.8 C 3.2 km/h
2567 13-01-2014 08:55:00 2.8 C 5.75 g/m*3 2.8 C 1.6 km/h
2568 13-01-2014 09:00:00 2.9 C 5.79 g/m*3 2.9 C 0 km/h
2569 13-01-2014 09:05:00 2.9 C 5.79 g/m*3 2.9 C 0 km/h
2570 13-01-2014 09:10:00 3 C 5.83 g/m*3 3 C 0 km/h
2571 13-01-2014 09:15:00 3.1 C 5.87 g/m*3 3.1 C 0 km/h
2572 13-01-2014 09:20:00 3.1 C 5.87 g/m*3 3.1 C 0 km/h
2573 13-01-2014 09:25:00 3.2 C 5.91 g/m*3 3.2 C 0 km/h
2574 13-01-2014 09:30:00 3.2 C 5.91 g/m*3 3.2 C 0 km/h
2575 13-01-2014 09:35:00 3.3 C 5.95 g/m*3 3.3 C 0 km/h
Sensor: Nr:Datum:Temp:Abs-Feuchte:Windchill:Wind:
Aussen-T/F 2576 13-01-2014 09:40:00 3.3 C 5.95 g/m*3 3.3 C 0 km/h
2577 13-01-2014 09:45:00 3.4 C 6.05 g/m*3 3.4 C 0 km/h
2578 13-01-2014 09:50:00 3.4 C 5.99 g/m*3 3.4 C 0 km/h
2579 13-01-2014 09:55:00 3.4 C 5.99 g/m*3 3.4 C 0 km/h
2580 13-01-2014 10:00:00 3.5 C 6.03 g/m*3 3.5 C 0 km/h
2581 13-01-2014 10:05:00 3.6 C 6.07 g/m*3 3.6 C 0 km/h
2582 13-01-2014 10:10:00 3.7 C 6.11 g/m*3 3.7 C 3.2 km/h
2583 13-01-2014 10:15:00 3.7 C 6.11 g/m*3 3.7 C 0 km/h
2584 13-01-2014 10:20:00 3.7 C 6.17 g/m*3 3.7 C 0 km/h
2585 13-01-2014 10:25:00 3.7 C 6.17 g/m*3 3.7 C 0 km/h
2586 13-01-2014 10:30:00 3.8 C 6.21 g/m*3 3.8 C 0 km/h
2587 13-01-2014 10:35:00 3.8 C 6.15 g/m*3 3.8 C 0 km/h
2588 13-01-2014 10:40:00 3.9 C 6.19 g/m*3 3.9 C 0 km/h
2589 13-01-2014 10:45:00 4 C 6.23 g/m*3 4 C 0 km/h
2590 13-01-2014 10:50:00 4.2 C 6.38 g/m*3 4.2 C 1.6 km/h
2591 13-01-2014 10:55:00 4.4 C 6.46 g/m*3 4.4 C 1.6 km/h
2592 13-01-2014 11:00:00 4.9 C 6.68 g/m*3 4.9 C 4.8 km/h
2593 13-01-2014 11:05:00 5.3 C 6.86 g/m*3 5.3 C 4.8 km/h
2594 13-01-2014 11:10:00 5.2 C 6.75 g/m*3 5.2 C 4.8 km/h
2595 13-01-2014 11:15:00 4.9 C 6.68 g/m*3 4.9 C 4.8 km/h
2596 13-01-2014 11:20:00 4.8 C 6.57 g/m*3 4.8 C 3.2 km/h
2597 13-01-2014 11:25:00 4.8 C 6.57 g/m*3 4.8 C 0 km/h
2598 13-01-2014 11:30:00 4.9 C 6.68 g/m*3 4.9 C 0 km/h
2599 13-01-2014 11:35:00 5.1 C 6.77 g/m*3 5.1 C 0 km/h
2600 13-01-2014 11:40:00 5.1 C 6.77 g/m*3 5.1 C 0 km/h
Sensor: Nr:Datum:Temp:Abs-Feuchte:Windchill:Wind:
Aussen-T/F 2601 13-01-2014 11:45:00 5.4 C 6.91 g/m*3 5.4 C 0 km/h
2602 13-01-2014 11:50:00 5.6 C 7 g/m*3 5.6 C 1.6 km/h
2603 13-01-2014 11:55:00 5.5 C 6.95 g/m*3 5.5 C 3.2 km/h
2604 13-01-2014 12:00:00 5.6 C 7 g/m*3 5.6 C 1.6 km/h
2605 13-01-2014 12:05:00 5.8 C 7.09 g/m*3 4.05 C 8.1 km/h
2606 13-01-2014 12:10:00 6.1 C 7.23 g/m*3 4.04 C 9.7 km/h
2607 13-01-2014 12:15:00 6.2 C 7.28 g/m*3 3.3 C 14.5 km/h
2608 13-01-2014 12:20:00 6.3 C 7.33 g/m*3 3.43 C 14.5 km/h
2609 13-01-2014 12:25:00 6.3 C 7.33 g/m*3 5.1 C 6.4 km/h
2610 13-01-2014 12:30:00 6.4 C 7.38 g/m*3 6.4 C 4.8 km/h
2611 13-01-2014 12:35:00 6.6 C 7.47 g/m*3 6.6 C 4.8 km/h
2612 13-01-2014 12:40:00 6.6 C 7.4 g/m*3 6.6 C 4.8 km/h
2613 13-01-2014 12:45:00 6.7 C 7.37 g/m*3 5.56 C 6.4 km/h
2614 13-01-2014 12:50:00 6.9 C 7.39 g/m*3 4.99 C 9.7 km/h
2615 13-01-2014 12:55:00 7.1 C 7.41 g/m*3 5.23 C 9.7 km/h
2616 13-01-2014 13:00:00 7.2 C 7.46 g/m*3 7.2 C 4.8 km/h
2617 13-01-2014 13:05:00 7.3 C 7.43 g/m*3 7.3 C 4.8 km/h
2618 13-01-2014 13:10:00 7.6 C 7.41 g/m*3 7.6 C 3.2 km/h
2619 13-01-2014 13:15:00 7.7 C 7.38 g/m*3 6.28 C 8.1 km/h
2620 13-01-2014 13:20:00 7.8 C 7.35 g/m*3 6.83 C 6.4 km/h
2621 13-01-2014 13:25:00 7.9 C 7.31 g/m*3 6.94 C 6.4 km/h
2622 13-01-2014 13:30:00 8.1 C 7.41 g/m*3 6.75 C 8.1 km/h
2623 13-01-2014 13:35:00 8.1 C 7.32 g/m*3 6.75 C 8.1 km/h
2624 13-01-2014 13:40:00 8.2 C 7.37 g/m*3 7.29 C 6.4 km/h
2625 13-01-2014 13:45:00 8.2 C 7.29 g/m*3 6.54 C 9.7 km/h
Sensor: Nr:Datum:Temp:Abs-Feuchte:Windchill:Wind:
Aussen-T/F 2626 13-01-2014 13:50:00 8.2 C 7.2 g/m*3 8.2 C 4.8 km/h
2627 13-01-2014 13:55:00 8.2 C 7.12 g/m*3 6.25 C 11.3 km/h
2628 13-01-2014 14:00:00 8.2 C 7.2 g/m*3 6.54 C 9.7 km/h
2629 13-01-2014 14:05:00 8.2 C 7.12 g/m*3 7.29 C 6.4 km/h
2630 13-01-2014 14:10:00 8.2 C 7.2 g/m*3 6.87 C 8.1 km/h
2631 13-01-2014 14:15:00 8.1 C 7.07 g/m*3 6.42 C 9.7 km/h
2632 13-01-2014 14:20:00 8.1 C 7.16 g/m*3 5.43 C 16.1 km/h
2633 13-01-2014 14:25:00 8.1 C 7.16 g/m*3 5.64 C 14.5 km/h
2634 13-01-2014 14:30:00 8 C 7.11 g/m*3 8 C 4.8 km/h
2635 13-01-2014 14:35:00 8 C 7.11 g/m*3 8 C 3.2 km/h
2636 13-01-2014 14:40:00 7.9 C 7.15 g/m*3 7.9 C 3.2 km/h
2637 13-01-2014 14:45:00 7.9 C 7.06 g/m*3 7.9 C 4.8 km/h
2638 13-01-2014 14:50:00 7.8 C 7.1 g/m*3 7.8 C 3.2 km/h
2639 13-01-2014 14:55:00 7.8 C 7.1 g/m*3 7.8 C 3.2 km/h
2640 13-01-2014 15:00:00 7.8 C 7.1 g/m*3 7.8 C 4.8 km/h
2641 13-01-2014 15:05:00 7.7 C 7.14 g/m*3 7.7 C 0 km/h
2642 13-01-2014 15:10:00 7.6 C 7.17 g/m*3 7.6 C 1.6 km/h
2643 13-01-2014 15:15:00 7.6 C 7.09 g/m*3 7.6 C 3.2 km/h
2644 13-01-2014 15:20:00 7.6 C 7.09 g/m*3 7.6 C 0 km/h
2645 13-01-2014 15:25:00 7.4 C 7.16 g/m*3 7.4 C 3.2 km/h
2646 13-01-2014 15:30:00 7.4 C 7.16 g/m*3 7.4 C 0 km/h
2647 13-01-2014 15:35:00 7.3 C 7.11 g/m*3 7.3 C 0 km/h
2648 13-01-2014 15:40:00 7.2 C 7.14 g/m*3 7.2 C 1.6 km/h
2649 13-01-2014 15:45:00 7.1 C 7.1 g/m*3 7.1 C 0 km/h
2650 13-01-2014 15:50:00 7 C 7.13 g/m*3 7 C 0 km/h
Sensor: Nr:Datum:Temp:Abs-Feuchte:Windchill:Wind:
Aussen-T/F 2651 13-01-2014 15:55:00 6.9 C 7.08 g/m*3 6.9 C 0 km/h
2652 13-01-2014 16:00:00 6.9 C 7.16 g/m*3 6.9 C 0 km/h
2653 13-01-2014 16:05:00 6.9 C 7.16 g/m*3 6.9 C 0 km/h
2654 13-01-2014 16:10:00 6.9 C 7.16 g/m*3 6.9 C 4.8 km/h
2655 13-01-2014 16:15:00 7 C 7.21 g/m*3 7 C 3.2 km/h
2656 13-01-2014 16:20:00 7 C 7.13 g/m*3 7 C 0 km/h
2657 13-01-2014 16:25:00 6.9 C 7.08 g/m*3 6.9 C 1.6 km/h
2658 13-01-2014 16:30:00 6.8 C 7.04 g/m*3 6.8 C 1.6 km/h
2659 13-01-2014 16:35:00 6.6 C 6.95 g/m*3 6.6 C 3.2 km/h
2660 13-01-2014 16:40:00 6.4 C 6.93 g/m*3 6.4 C 3.2 km/h
2661 13-01-2014 16:45:00 6.3 C 6.96 g/m*3 6.3 C 1.6 km/h
2662 13-01-2014 16:50:00 6.2 C 6.91 g/m*3 6.2 C 1.6 km/h
2663 13-01-2014 16:55:00 6.2 C 6.91 g/m*3 6.2 C 3.2 km/h
2664 13-01-2014 17:00:00 6.2 C 6.91 g/m*3 6.2 C 1.6 km/h
2665 13-01-2014 17:05:00 6.2 C 6.91 g/m*3 6.2 C 0 km/h
2666 13-01-2014 17:10:00 6.2 C 6.91 g/m*3 6.2 C 0 km/h
2667 13-01-2014 17:15:00 6.2 C 6.99 g/m*3 6.2 C 0 km/h
2668 13-01-2014 17:20:00 6.2 C 6.99 g/m*3 6.2 C 0 km/h
2669 13-01-2014 17:25:00 6.2 C 6.99 g/m*3 6.2 C 0 km/h
2670 13-01-2014 17:30:00 6.2 C 6.99 g/m*3 6.2 C 0 km/h
2671 13-01-2014 17:35:00 6.3 C 7.03 g/m*3 6.3 C 1.6 km/h
2672 13-01-2014 17:40:00 6.2 C 6.99 g/m*3 6.2 C 0 km/h
2673 13-01-2014 17:45:00 6.2 C 6.99 g/m*3 6.2 C 0 km/h
2674 13-01-2014 17:50:00 6.2 C 6.99 g/m*3 6.2 C 0 km/h
2675 13-01-2014 17:55:00 6.2 C 6.91 g/m*3 6.2 C 0 km/h
Sensor: Nr:Datum:Temp:Abs-Feuchte:Windchill:Wind:
Aussen-T/F 2676 13-01-2014 18:00:00 6.1 C 6.94 g/m*3 6.1 C 0 km/h
2677 13-01-2014 18:05:00 6.2 C 6.99 g/m*3 6.2 C 0 km/h
2678 13-01-2014 18:10:00 6.1 C 6.94 g/m*3 6.1 C 0 km/h
2679 13-01-2014 18:15:00 6.2 C 6.99 g/m*3 6.2 C 0 km/h
2680 13-01-2014 18:20:00 6.2 C 6.99 g/m*3 6.2 C 0 km/h
2681 13-01-2014 18:25:00 6.2 C 6.99 g/m*3 6.2 C 0 km/h
2682 13-01-2014 18:30:00 6.2 C 6.99 g/m*3 6.2 C 0 km/h
2683 13-01-2014 18:35:00 6.1 C 7.01 g/m*3 6.1 C 0 km/h
2684 13-01-2014 18:40:00 6.1 C 7.01 g/m*3 6.1 C 0 km/h
2685 13-01-2014 18:45:00 6.1 C 7.01 g/m*3 6.1 C 0 km/h
2686 13-01-2014 18:50:00 6.1 C 7.01 g/m*3 6.1 C 0 km/h
2687 13-01-2014 18:55:00 6.1 C 7.01 g/m*3 6.1 C 0 km/h
2688 13-01-2014 19:00:00 6.1 C 7.01 g/m*3 6.1 C 0 km/h
2689 13-01-2014 19:05:00 6.1 C 7.01 g/m*3 6.1 C 0 km/h
2690 13-01-2014 19:10:00 6.1 C 7.01 g/m*3 6.1 C 0 km/h
2691 13-01-2014 19:15:00 6.1 C 7.01 g/m*3 6.1 C 0 km/h
2692 13-01-2014 19:20:00 6.1 C 7.01 g/m*3 6.1 C 0 km/h
2693 13-01-2014 19:25:00 6 C 6.97 g/m*3 6 C 0 km/h
2694 13-01-2014 19:30:00 6 C 6.97 g/m*3 6 C 0 km/h
2695 13-01-2014 19:35:00 6 C 6.97 g/m*3 6 C 0 km/h
2696 13-01-2014 19:40:00 6 C 6.97 g/m*3 6 C 0 km/h
2697 13-01-2014 19:45:00 6 C 6.97 g/m*3 6 C 0 km/h
2698 13-01-2014 19:50:00 5.9 C 6.92 g/m*3 5.9 C 0 km/h
2699 13-01-2014 19:55:00 5.9 C 6.92 g/m*3 5.9 C 0 km/h
2700 13-01-2014 20:00:00 5.8 C 6.88 g/m*3 5.8 C 0 km/h
Sensor: Nr:Datum:Temp:Abs-Feuchte:Windchill:Wind:
Aussen-T/F 2701 13-01-2014 20:05:00 5.8 C 6.88 g/m*3 5.8 C 0 km/h
2702 13-01-2014 20:10:00 5.8 C 6.88 g/m*3 5.8 C 0 km/h
2703 13-01-2014 20:15:00 5.8 C 6.88 g/m*3 5.8 C 0 km/h
2704 13-01-2014 20:20:00 5.7 C 6.83 g/m*3 5.7 C 0 km/h
2705 13-01-2014 20:25:00 5.7 C 6.83 g/m*3 5.7 C 1.6 km/h
2706 13-01-2014 20:30:00 5.7 C 6.83 g/m*3 5.7 C 0 km/h
2707 13-01-2014 20:35:00 5.7 C 6.83 g/m*3 5.7 C 0 km/h
2708 13-01-2014 20:40:00 5.7 C 6.83 g/m*3 5.7 C 0 km/h
2709 13-01-2014 20:45:00 5.7 C 6.83 g/m*3 5.7 C 0 km/h
2710 13-01-2014 20:50:00 5.7 C 6.83 g/m*3 5.7 C 0 km/h
2711 13-01-2014 20:55:00 5.7 C 6.83 g/m*3 5.7 C 1.6 km/h
2712 13-01-2014 21:00:00 5.6 C 6.79 g/m*3 5.6 C 0 km/h
2713 13-01-2014 21:05:00 5.6 C 6.79 g/m*3 5.6 C 0 km/h
2714 13-01-2014 21:10:00 5.6 C 6.79 g/m*3 5.6 C 0 km/h
2715 13-01-2014 21:15:00 5.6 C 6.79 g/m*3 5.6 C 0 km/h
2716 13-01-2014 21:20:00 5.6 C 6.79 g/m*3 5.6 C 0 km/h
2717 13-01-2014 21:25:00 5.6 C 6.79 g/m*3 5.6 C 0 km/h
2718 13-01-2014 21:30:00 5.4 C 6.63 g/m*3 5.4 C 0 km/h
2719 13-01-2014 21:35:00 5.2 C 6.54 g/m*3 5.2 C 0 km/h
2720 13-01-2014 21:40:00 5 C 6.46 g/m*3 5 C 0 km/h
2721 13-01-2014 21:45:00 4.8 C 6.37 g/m*3 4.8 C 0 km/h
2722 13-01-2014 21:50:00 4.8 C 6.37 g/m*3 4.8 C 0 km/h
2723 13-01-2014 21:55:00 4.8 C 6.44 g/m*3 4.8 C 0 km/h
2724 13-01-2014 22:00:00 4.7 C 6.39 g/m*3 4.7 C 0 km/h
2725 13-01-2014 22:05:00 4.6 C 6.35 g/m*3 4.6 C 0 km/h
Sensor: Nr:Datum:Temp:Abs-Feuchte:Windchill:Wind:
Aussen-T/F 2726 13-01-2014 22:10:00 4.5 C 6.31 g/m*3 4.5 C 0 km/h
2727 13-01-2014 22:15:00 4.5 C 6.31 g/m*3 4.5 C 1.6 km/h
2728 13-01-2014 22:20:00 4.5 C 6.31 g/m*3 4.5 C 0 km/h
2729 13-01-2014 22:25:00 4.4 C 6.27 g/m*3 4.4 C 0 km/h
2730 13-01-2014 22:30:00 4.3 C 6.23 g/m*3 4.3 C 0 km/h
2731 13-01-2014 22:35:00 4.2 C 6.19 g/m*3 4.2 C 0 km/h
2732 13-01-2014 22:40:00 4.1 C 6.14 g/m*3 4.1 C 0 km/h
2733 13-01-2014 22:45:00 4 C 6.1 g/m*3 4 C 0 km/h
2734 13-01-2014 22:50:00 3.9 C 6.06 g/m*3 3.9 C 0 km/h
2735 13-01-2014 22:55:00 3.8 C 6.02 g/m*3 3.8 C 0 km/h
2736 13-01-2014 23:00:00 3.8 C 6.02 g/m*3 3.8 C 0 km/h
2737 13-01-2014 23:05:00 3.8 C 6.02 g/m*3 3.8 C 3.2 km/h
2738 13-01-2014 23:10:00 3.8 C 6.09 g/m*3 3.8 C 1.6 km/h
2739 13-01-2014 23:15:00 3.8 C 6.02 g/m*3 3.8 C 0 km/h
2740 13-01-2014 23:20:00 3.8 C 6.02 g/m*3 3.8 C 1.6 km/h
2741 13-01-2014 23:25:00 3.8 C 6.09 g/m*3 3.8 C 1.6 km/h
2742 13-01-2014 23:30:00 3.9 C 6.13 g/m*3 3.9 C 0 km/h
2743 13-01-2014 23:35:00 3.9 C 6.13 g/m*3 3.9 C 1.6 km/h
2744 13-01-2014 23:40:00 4.1 C 6.21 g/m*3 4.1 C 1.6 km/h
2745 13-01-2014 23:45:00 4.2 C 6.25 g/m*3 4.2 C 1.6 km/h
2746 13-01-2014 23:50:00 4.2 C 6.25 g/m*3 4.2 C 1.6 km/h
2747 13-01-2014 23:55:00 4.2 C 6.25 g/m*3 4.2 C 0 km/h
2748 14-01-2014 00:00:00 4.2 C 6.25 g/m*3 4.2 C 0 km/h
2749 14-01-2014 00:05:00 4.1 C 6.21 g/m*3 4.1 C 1.6 km/h
2750 14-01-2014 00:10:00 4.1 C 6.21 g/m*3 4.1 C 3.2 km/h
Sensor: Nr:Datum:Temp:Abs-Feuchte:Windchill:Wind:
Aussen-T/F 2751 14-01-2014 00:15:00 4.1 C 6.21 g/m*3 4.1 C 1.6 km/h
2752 14-01-2014 00:20:00 4 C 6.1 g/m*3 4 C 1.6 km/h
2753 14-01-2014 00:25:00 3.9 C 6.06 g/m*3 3.9 C 1.6 km/h
2754 14-01-2014 00:30:00 3.7 C 5.98 g/m*3 3.7 C 1.6 km/h
2755 14-01-2014 00:35:00 3.7 C 6.04 g/m*3 3.7 C 3.2 km/h
2756 14-01-2014 00:40:00 3.7 C 5.98 g/m*3 3.7 C 3.2 km/h
2757 14-01-2014 00:45:00 3.7 C 5.98 g/m*3 3.7 C 1.6 km/h
2758 14-01-2014 00:50:00 3.6 C 5.94 g/m*3 3.6 C 3.2 km/h
2759 14-01-2014 00:55:00 3.7 C 6.04 g/m*3 3.7 C 3.2 km/h
2760 14-01-2014 01:00:00 3.7 C 6.04 g/m*3 3.7 C 1.6 km/h
2761 14-01-2014 01:05:00 3.6 C 6 g/m*3 3.6 C 3.2 km/h
2762 14-01-2014 01:10:00 3.6 C 6 g/m*3 3.6 C 3.2 km/h
2763 14-01-2014 01:15:00 3.7 C 6.04 g/m*3 3.7 C 3.2 km/h
2764 14-01-2014 01:20:00 3.7 C 6.04 g/m*3 3.7 C 0 km/h
2765 14-01-2014 01:25:00 3.6 C 6 g/m*3 3.6 C 3.2 km/h
2766 14-01-2014 01:30:00 3.6 C 6 g/m*3 3.6 C 3.2 km/h
2767 14-01-2014 01:35:00 3.5 C 5.96 g/m*3 3.5 C 1.6 km/h
2768 14-01-2014 01:40:00 3.3 C 5.82 g/m*3 3.3 C 0 km/h
2769 14-01-2014 01:45:00 3.3 C 5.88 g/m*3 3.3 C 0 km/h
2770 14-01-2014 01:50:00 3.2 C 5.85 g/m*3 3.2 C 1.6 km/h
2771 14-01-2014 01:55:00 3.2 C 5.85 g/m*3 3.2 C 3.2 km/h
2772 14-01-2014 02:00:00 3.3 C 5.88 g/m*3 3.3 C 0 km/h
2773 14-01-2014 02:05:00 3.2 C 5.85 g/m*3 3.2 C 1.6 km/h
2774 14-01-2014 02:10:00 3.2 C 5.85 g/m*3 3.2 C 3.2 km/h
2775 14-01-2014 02:15:00 3.2 C 5.85 g/m*3 3.2 C 3.2 km/h
Sensor: Nr:Datum:Temp:Abs-Feuchte:Windchill:Wind:
Aussen-T/F 2776 14-01-2014 02:20:00 3.2 C 5.85 g/m*3 3.2 C 3.2 km/h
2777 14-01-2014 02:25:00 3.3 C 5.88 g/m*3 3.3 C 1.6 km/h
2778 14-01-2014 02:30:00 3.2 C 5.85 g/m*3 3.2 C 1.6 km/h
2779 14-01-2014 02:35:00 3.2 C 5.85 g/m*3 3.2 C 0 km/h
2780 14-01-2014 02:40:00 3.3 C 5.88 g/m*3 3.3 C 1.6 km/h
2781 14-01-2014 02:45:00 3.4 C 5.92 g/m*3 3.4 C 1.6 km/h
2782 14-01-2014 02:50:00 3.5 C 5.96 g/m*3 3.5 C 0 km/h
2783 14-01-2014 02:55:00 3.6 C 6 g/m*3 3.6 C 0 km/h
2784 14-01-2014 03:00:00 3.7 C 6.04 g/m*3 3.7 C 0 km/h
2785 14-01-2014 03:05:00 3.8 C 6.09 g/m*3 3.8 C 0 km/h
2786 14-01-2014 03:10:00 3.9 C 6.13 g/m*3 3.9 C 0 km/h
2787 14-01-2014 03:15:00 4 C 6.23 g/m*3 4 C 1.6 km/h
2788 14-01-2014 03:20:00 4.1 C 6.27 g/m*3 4.1 C 0 km/h
2789 14-01-2014 03:25:00 4.1 C 6.27 g/m*3 4.1 C 0 km/h
2790 14-01-2014 03:30:00 4.1 C 6.27 g/m*3 4.1 C 0 km/h
2791 14-01-2014 03:35:00 4.1 C 6.21 g/m*3 4.1 C 1.6 km/h
2792 14-01-2014 03:40:00 4.1 C 6.21 g/m*3 4.1 C 0 km/h
2793 14-01-2014 03:45:00 4.1 C 6.21 g/m*3 4.1 C 0 km/h
2794 14-01-2014 03:50:00 4.1 C 6.21 g/m*3 4.1 C 0 km/h
2795 14-01-2014 03:55:00 4.1 C 6.21 g/m*3 4.1 C 0 km/h
2796 14-01-2014 04:00:00 4.1 C 6.21 g/m*3 4.1 C 0 km/h
2797 14-01-2014 04:05:00 4.2 C 6.25 g/m*3 4.2 C 0 km/h
2798 14-01-2014 04:10:00 4.2 C 6.25 g/m*3 4.2 C 0 km/h
2799 14-01-2014 04:15:00 4.2 C 6.25 g/m*3 4.2 C 0 km/h
2800 14-01-2014 04:20:00 4.2 C 6.25 g/m*3 4.2 C 0 km/h
Sensor: Nr:Datum:Temp:Abs-Feuchte:Windchill:Wind:
Aussen-T/F 2801 14-01-2014 04:25:00 4.2 C 6.25 g/m*3 4.2 C 0 km/h
2802 14-01-2014 04:30:00 4.2 C 6.25 g/m*3 4.2 C 0 km/h
2803 14-01-2014 04:35:00 4.3 C 6.29 g/m*3 4.3 C 0 km/h
2804 14-01-2014 04:40:00 4.3 C 6.29 g/m*3 4.3 C 0 km/h
2805 14-01-2014 04:45:00 4.5 C 6.44 g/m*3 4.5 C 1.6 km/h
2806 14-01-2014 04:50:00 4.7 C 6.53 g/m*3 4.7 C 4.8 km/h
2807 14-01-2014 04:55:00 4.8 C 6.57 g/m*3 3.36 C 6.4 km/h
2808 14-01-2014 05:00:00 5 C 6.66 g/m*3 3.59 C 6.4 km/h
2809 14-01-2014 05:05:00 5.1 C 6.7 g/m*3 3.71 C 6.4 km/h
2810 14-01-2014 05:10:00 5.2 C 6.68 g/m*3 5.2 C 4.8 km/h
2811 14-01-2014 05:15:00 5.2 C 6.68 g/m*3 3.82 C 6.4 km/h
2812 14-01-2014 05:20:00 5.3 C 6.65 g/m*3 3.46 C 8.1 km/h
2813 14-01-2014 05:25:00 5.3 C 6.58 g/m*3 3.46 C 8.1 km/h
2814 14-01-2014 05:30:00 5.4 C 6.63 g/m*3 5.4 C 4.8 km/h
2815 14-01-2014 05:35:00 5.5 C 6.67 g/m*3 4.17 C 6.4 km/h
2816 14-01-2014 05:40:00 5.6 C 6.72 g/m*3 4.29 C 6.4 km/h
2817 14-01-2014 05:45:00 5.6 C 6.65 g/m*3 4.29 C 6.4 km/h
2818 14-01-2014 05:50:00 5.5 C 6.6 g/m*3 4.17 C 6.4 km/h
2819 14-01-2014 05:55:00 5.5 C 6.6 g/m*3 4.17 C 6.4 km/h
2820 14-01-2014 06:00:00 5.4 C 6.56 g/m*3 5.4 C 4.8 km/h
2821 14-01-2014 06:05:00 5.4 C 6.49 g/m*3 5.4 C 4.8 km/h
2822 14-01-2014 06:10:00 5.3 C 6.52 g/m*3 5.3 C 4.8 km/h
2823 14-01-2014 06:15:00 5.3 C 6.52 g/m*3 5.3 C 4.8 km/h
2824 14-01-2014 06:20:00 5.3 C 6.52 g/m*3 3.46 C 8.1 km/h
2825 14-01-2014 06:25:00 5.2 C 6.47 g/m*3 5.2 C 3.2 km/h
Sensor: Nr:Datum:Temp:Abs-Feuchte:Windchill:Wind:
Aussen-T/F 2826 14-01-2014 06:30:00 5.2 C 6.47 g/m*3 3.82 C 6.4 km/h
2827 14-01-2014 06:35:00 5.2 C 6.47 g/m*3 5.2 C 1.6 km/h
2828 14-01-2014 06:40:00 5 C 6.39 g/m*3 5 C 3.2 km/h
2829 14-01-2014 06:45:00 4.9 C 6.35 g/m*3 4.9 C 3.2 km/h
2830 14-01-2014 06:50:00 5 C 6.46 g/m*3 5 C 4.8 km/h
2831 14-01-2014 06:55:00 5 C 6.46 g/m*3 5 C 4.8 km/h
2832 14-01-2014 07:00:00 4.9 C 6.41 g/m*3 4.9 C 1.6 km/h
2833 14-01-2014 07:05:00 4.9 C 6.41 g/m*3 4.9 C 0 km/h
2834 14-01-2014 07:10:00 4.7 C 6.26 g/m*3 4.7 C 0 km/h
2835 14-01-2014 07:15:00 4.6 C 6.29 g/m*3 4.6 C 3.2 km/h
2836 14-01-2014 07:20:00 4.6 C 6.29 g/m*3 4.6 C 3.2 km/h
2837 14-01-2014 07:25:00 4.8 C 6.44 g/m*3 2.87 C 8.1 km/h
2838 14-01-2014 07:30:00 4.8 C 6.37 g/m*3 4.8 C 4.8 km/h
2839 14-01-2014 07:35:00 4.8 C 6.37 g/m*3 3.36 C 6.4 km/h
2840 14-01-2014 07:40:00 4.7 C 6.33 g/m*3 4.7 C 0 km/h
2841 14-01-2014 07:45:00 4.5 C 6.24 g/m*3 4.5 C 0 km/h
2842 14-01-2014 07:50:00 4.3 C 6.16 g/m*3 4.3 C 1.6 km/h
2843 14-01-2014 07:55:00 4.2 C 6.12 g/m*3 4.2 C 1.6 km/h
2844 14-01-2014 08:00:00 4.2 C 6.19 g/m*3 4.2 C 4.8 km/h
2845 14-01-2014 08:05:00 4.2 C 6.19 g/m*3 4.2 C 1.6 km/h
2846 14-01-2014 08:10:00 4.5 C 6.38 g/m*3 3.02 C 6.4 km/h
2847 14-01-2014 08:15:00 4.6 C 6.42 g/m*3 2.25 C 9.7 km/h
2848 14-01-2014 08:20:00 4.7 C 6.39 g/m*3 4.7 C 1.6 km/h
2849 14-01-2014 08:25:00 4.5 C 6.31 g/m*3 4.5 C 1.6 km/h
2850 14-01-2014 08:30:00 4.3 C 6.16 g/m*3 4.3 C 0 km/h
Sensor: Nr:Datum:Temp:Abs-Feuchte:Windchill:Wind:
Aussen-T/F 2851 14-01-2014 08:35:00 4.1 C 6.08 g/m*3 4.1 C 1.6 km/h
2852 14-01-2014 08:40:00 4 C 6.1 g/m*3 4 C 0 km/h
2853 14-01-2014 08:45:00 4 C 6.1 g/m*3 4 C 1.6 km/h
2854 14-01-2014 08:50:00 4 C 6.1 g/m*3 4 C 1.6 km/h
2855 14-01-2014 08:55:00 4.2 C 6.25 g/m*3 4.2 C 0 km/h
2856 14-01-2014 09:00:00 4.3 C 6.29 g/m*3 4.3 C 3.2 km/h
2857 14-01-2014 09:05:00 4.4 C 6.33 g/m*3 4.4 C 1.6 km/h
2858 14-01-2014 09:10:00 4.4 C 6.33 g/m*3 4.4 C 0 km/h
2859 14-01-2014 09:15:00 4.6 C 6.42 g/m*3 4.6 C 4.8 km/h
2860 14-01-2014 09:20:00 4.7 C 6.46 g/m*3 4.7 C 1.6 km/h
2861 14-01-2014 09:25:00 4.9 C 6.55 g/m*3 4.9 C 3.2 km/h
2862 14-01-2014 09:30:00 5.1 C 6.63 g/m*3 3.71 C 6.4 km/h
2863 14-01-2014 09:35:00 5.2 C 6.68 g/m*3 5.2 C 1.6 km/h
2864 14-01-2014 09:40:00 5.3 C 6.72 g/m*3 5.3 C 1.6 km/h
2865 14-01-2014 09:45:00 5.5 C 6.74 g/m*3 5.5 C 3.2 km/h
2866 14-01-2014 09:50:00 5.6 C 6.79 g/m*3 5.6 C 0 km/h
2867 14-01-2014 09:55:00 5.7 C 6.76 g/m*3 5.7 C 3.2 km/h
2868 14-01-2014 10:00:00 5.8 C 6.81 g/m*3 5.8 C 4.8 km/h
2869 14-01-2014 10:05:00 5.8 C 6.81 g/m*3 5.8 C 3.2 km/h
2870 14-01-2014 10:10:00 5.8 C 6.73 g/m*3 5.8 C 4.8 km/h
2871 14-01-2014 10:15:00 5.8 C 6.73 g/m*3 5.8 C 4.8 km/h
2872 14-01-2014 10:20:00 5.8 C 6.66 g/m*3 5.8 C 1.6 km/h
2873 14-01-2014 10:25:00 5.8 C 6.66 g/m*3 5.8 C 3.2 km/h
2874 14-01-2014 10:30:00 5.8 C 6.66 g/m*3 5.8 C 3.2 km/h
2875 14-01-2014 10:35:00 5.8 C 6.66 g/m*3 5.8 C 1.6 km/h
Sensor: Nr:Datum:Temp:Abs-Feuchte:Windchill:Wind:
Aussen-T/F 2876 14-01-2014 10:40:00 5.8 C 6.66 g/m*3 5.8 C 1.6 km/h
2877 14-01-2014 10:45:00 5.8 C 6.66 g/m*3 5.8 C 0 km/h
2878 14-01-2014 10:50:00 5.8 C 6.73 g/m*3 5.8 C 3.2 km/h
2879 14-01-2014 10:55:00 5.8 C 6.73 g/m*3 5.8 C 3.2 km/h
2880 14-01-2014 11:00:00 5.8 C 6.73 g/m*3 5.8 C 1.6 km/h
2881 14-01-2014 11:05:00 5.9 C 6.78 g/m*3 5.9 C 1.6 km/h
2882 14-01-2014 11:10:00 5.9 C 6.78 g/m*3 5.9 C 3.2 km/h
2883 14-01-2014 11:15:00 5.9 C 6.78 g/m*3 5.9 C 3.2 km/h
2884 14-01-2014 11:20:00 5.9 C 6.78 g/m*3 5.9 C 4.8 km/h
2885 14-01-2014 12:05:00 6.8 C 7.04 g/m*3 6.8 C 1.6 km/h
2886 14-01-2014 12:10:00 6.9 C 7.01 g/m*3 6.9 C 1.6 km/h
2887 14-01-2014 12:15:00 6.9 C 7.01 g/m*3 6.9 C 1.6 km/h
2888 14-01-2014 12:20:00 6.9 C 6.93 g/m*3 6.9 C 0 km/h
2889 14-01-2014 12:25:00 6.9 C 6.93 g/m*3 6.9 C 3.2 km/h
2890 14-01-2014 12:30:00 6.9 C 7.01 g/m*3 5.34 C 8.1 km/h
2891 14-01-2014 12:35:00 6.9 C 6.93 g/m*3 6.9 C 4.8 km/h
2892 14-01-2014 12:40:00 6.9 C 7.01 g/m*3 6.9 C 1.6 km/h
2893 14-01-2014 12:45:00 6.9 C 7.01 g/m*3 6.9 C 0 km/h
2894 14-01-2014 12:50:00 6.9 C 7.08 g/m*3 6.9 C 3.2 km/h
2895 14-01-2014 12:55:00 7 C 7.05 g/m*3 7 C 3.2 km/h
2896 14-01-2014 13:00:00 7.1 C 7.1 g/m*3 7.1 C 3.2 km/h
2897 14-01-2014 13:05:00 7.3 C 7.19 g/m*3 7.3 C 4.8 km/h
2898 14-01-2014 13:10:00 7.4 C 7.24 g/m*3 7.4 C 1.6 km/h
2899 14-01-2014 13:15:00 7.5 C 7.12 g/m*3 7.5 C 3.2 km/h
2900 14-01-2014 13:20:00 7.6 C 7.17 g/m*3 7.6 C 3.2 km/h
Sensor: Nr:Datum:Temp:Abs-Feuchte:Windchill:Wind:
Aussen-T/F 2901 14-01-2014 13:25:00 7.6 C 7.17 g/m*3 7.6 C 4.8 km/h
2902 14-01-2014 13:30:00 7.6 C 7.09 g/m*3 7.6 C 4.8 km/h
2903 14-01-2014 13:35:00 7.6 C 7.17 g/m*3 7.6 C 3.2 km/h
2904 14-01-2014 13:40:00 7.7 C 7.14 g/m*3 7.7 C 0 km/h
2905 14-01-2014 13:45:00 7.7 C 7.14 g/m*3 7.7 C 3.2 km/h
2906 14-01-2014 13:50:00 7.8 C 7.18 g/m*3 7.8 C 4.8 km/h
2907 14-01-2014 13:55:00 7.8 C 7.18 g/m*3 7.8 C 3.2 km/h
2908 14-01-2014 14:00:00 7.9 C 7.15 g/m*3 7.9 C 3.2 km/h
2909 14-01-2014 14:05:00 8 C 7.19 g/m*3 8 C 3.2 km/h
2910 14-01-2014 14:10:00 8.1 C 7.24 g/m*3 8.1 C 4.8 km/h
2911 14-01-2014 14:15:00 8.1 C 7.24 g/m*3 8.1 C 3.2 km/h
2912 14-01-2014 14:20:00 8.1 C 7.16 g/m*3 8.1 C 1.6 km/h
2913 14-01-2014 14:25:00 8.1 C 7.24 g/m*3 8.1 C 0 km/h
2914 14-01-2014 14:30:00 8.1 C 7.24 g/m*3 8.1 C 1.6 km/h
2915 14-01-2014 14:35:00 8 C 7.19 g/m*3 8 C 1.6 km/h
2916 14-01-2014 14:40:00 7.9 C 7.23 g/m*3 7.9 C 1.6 km/h
2917 14-01-2014 14:45:00 7.8 C 7.1 g/m*3 7.8 C 3.2 km/h
2918 14-01-2014 14:50:00 7.8 C 7.1 g/m*3 7.8 C 4.8 km/h
2919 14-01-2014 14:55:00 7.8 C 7.1 g/m*3 6.83 C 6.4 km/h
2920 14-01-2014 15:00:00 7.7 C 7.14 g/m*3 7.7 C 0 km/h
2921 14-01-2014 15:05:00 7.5 C 7.12 g/m*3 7.5 C 0 km/h
2922 14-01-2014 15:10:00 7.3 C 7.11 g/m*3 7.3 C 0 km/h
2923 14-01-2014 15:15:00 7.1 C 7.1 g/m*3 7.1 C 0 km/h
2924 14-01-2014 15:20:00 7.2 C 7.22 g/m*3 7.2 C 0 km/h
2925 14-01-2014 15:25:00 7.2 C 7.22 g/m*3 7.2 C 0 km/h
Sensor: Nr:Datum:Temp:Abs-Feuchte:Windchill:Wind:
Aussen-T/F 2926 14-01-2014 15:30:00 7.2 C 7.14 g/m*3 7.2 C 3.2 km/h
2927 14-01-2014 15:35:00 7.3 C 7.11 g/m*3 7.3 C 3.2 km/h
2928 14-01-2014 15:40:00 7.4 C 7.16 g/m*3 7.4 C 3.2 km/h
2929 14-01-2014 15:45:00 7.5 C 7.12 g/m*3 7.5 C 3.2 km/h
2930 14-01-2014 15:50:00 7.6 C 7.09 g/m*3 7.6 C 4.8 km/h
2931 14-01-2014 15:55:00 7.6 C 7.01 g/m*3 7.6 C 3.2 km/h
2932 14-01-2014 16:00:00 7.6 C 7.09 g/m*3 7.6 C 0 km/h
2933 14-01-2014 16:05:00 7.6 C 7.09 g/m*3 7.6 C 3.2 km/h
2934 14-01-2014 16:10:00 7.6 C 7.01 g/m*3 7.6 C 3.2 km/h
2935 14-01-2014 16:15:00 7.6 C 7.01 g/m*3 7.6 C 4.8 km/h
2936 14-01-2014 16:20:00 7.5 C 6.96 g/m*3 6.48 C 6.4 km/h
2937 14-01-2014 16:25:00 7.4 C 6.92 g/m*3 7.4 C 3.2 km/h
2938 14-01-2014 16:30:00 7.3 C 6.95 g/m*3 7.3 C 3.2 km/h
2939 14-01-2014 16:35:00 7.2 C 6.91 g/m*3 7.2 C 1.6 km/h
2940 14-01-2014 16:40:00 7 C 6.82 g/m*3 7 C 4.8 km/h
2941 14-01-2014 16:45:00 6.8 C 6.81 g/m*3 6.8 C 1.6 km/h
2942 14-01-2014 16:50:00 6.7 C 6.84 g/m*3 6.7 C 3.2 km/h
2943 14-01-2014 16:55:00 6.5 C 6.75 g/m*3 6.5 C 3.2 km/h
2944 14-01-2014 17:00:00 6.4 C 6.71 g/m*3 6.4 C 3.2 km/h
2945 14-01-2014 17:05:00 6.4 C 6.71 g/m*3 6.4 C 3.2 km/h
2946 14-01-2014 17:10:00 6.4 C 6.78 g/m*3 6.4 C 3.2 km/h
2947 14-01-2014 17:15:00 6.4 C 6.78 g/m*3 6.4 C 3.2 km/h
2948 14-01-2014 17:20:00 6.4 C 6.78 g/m*3 6.4 C 1.6 km/h
2949 14-01-2014 17:25:00 6.4 C 6.85 g/m*3 6.4 C 1.6 km/h
2950 14-01-2014 17:30:00 6.4 C 6.85 g/m*3 6.4 C 0 km/h
Sensor: Nr:Datum:Temp:Abs-Feuchte:Windchill:Wind:
Aussen-T/F 2951 14-01-2014 17:35:00 6.4 C 6.85 g/m*3 6.4 C 1.6 km/h
2952 14-01-2014 17:40:00 6.3 C 6.88 g/m*3 6.3 C 1.6 km/h
2953 14-01-2014 17:45:00 6.3 C 6.88 g/m*3 6.3 C 3.2 km/h
2954 14-01-2014 17:50:00 6.2 C 6.91 g/m*3 6.2 C 3.2 km/h
2955 14-01-2014 17:55:00 6.1 C 6.87 g/m*3 6.1 C 1.6 km/h
2956 14-01-2014 18:00:00 6 C 6.82 g/m*3 6 C 0 km/h
2957 14-01-2014 18:05:00 5.9 C 6.85 g/m*3 5.9 C 0 km/h
2958 14-01-2014 18:10:00 5.8 C 6.81 g/m*3 5.8 C 0 km/h
2959 14-01-2014 18:15:00 5.7 C 6.76 g/m*3 5.7 C 1.6 km/h
2960 14-01-2014 18:20:00 5.6 C 6.72 g/m*3 5.6 C 0 km/h
2961 14-01-2014 18:25:00 5.4 C 6.63 g/m*3 5.4 C 1.6 km/h
2962 14-01-2014 18:30:00 5.2 C 6.54 g/m*3 5.2 C 0 km/h
2963 14-01-2014 18:35:00 5 C 6.46 g/m*3 5 C 0 km/h
2964 14-01-2014 18:40:00 4.7 C 6.33 g/m*3 4.7 C 3.2 km/h
2965 14-01-2014 18:45:00 4.6 C 6.29 g/m*3 4.6 C 3.2 km/h
2966 14-01-2014 18:50:00 4.4 C 6.2 g/m*3 4.4 C 3.2 km/h
2967 14-01-2014 18:55:00 4.2 C 6.12 g/m*3 4.2 C 3.2 km/h
2968 14-01-2014 19:00:00 4.1 C 6.14 g/m*3 4.1 C 3.2 km/h
2969 14-01-2014 19:05:00 4.1 C 6.14 g/m*3 4.1 C 3.2 km/h
2970 14-01-2014 19:10:00 3.9 C 6.06 g/m*3 3.9 C 1.6 km/h
2971 14-01-2014 19:15:00 3.8 C 6.02 g/m*3 3.8 C 1.6 km/h
2972 14-01-2014 19:20:00 3.8 C 6.02 g/m*3 3.8 C 1.6 km/h
2973 14-01-2014 19:25:00 3.6 C 5.94 g/m*3 3.6 C 3.2 km/h
2974 14-01-2014 19:30:00 3.4 C 5.86 g/m*3 3.4 C 3.2 km/h
2975 14-01-2014 19:35:00 3.4 C 5.86 g/m*3 3.4 C 3.2 km/h
Sensor: Nr:Datum:Temp:Abs-Feuchte:Windchill:Wind:
Aussen-T/F 2976 14-01-2014 19:40:00 3.3 C 5.82 g/m*3 3.3 C 0 km/h
2977 14-01-2014 19:45:00 3.2 C 5.79 g/m*3 3.2 C 0 km/h
2978 14-01-2014 19:50:00 3.2 C 5.79 g/m*3 3.2 C 0 km/h
2979 14-01-2014 19:55:00 3.1 C 5.75 g/m*3 3.1 C 0 km/h
2980 14-01-2014 20:00:00 3 C 5.71 g/m*3 3 C 0 km/h
2981 14-01-2014 20:05:00 3.1 C 5.75 g/m*3 3.1 C 0 km/h
2982 14-01-2014 20:10:00 3.1 C 5.75 g/m*3 3.1 C 0 km/h
2983 14-01-2014 20:15:00 3.2 C 5.85 g/m*3 3.2 C 0 km/h
2984 14-01-2014 20:20:00 3.2 C 5.85 g/m*3 3.2 C 0 km/h
2985 14-01-2014 20:25:00 3.2 C 5.85 g/m*3 3.2 C 0 km/h
2986 14-01-2014 20:30:00 3.2 C 5.85 g/m*3 3.2 C 0 km/h
2987 14-01-2014 20:35:00 3.2 C 5.85 g/m*3 3.2 C 0 km/h
2988 14-01-2014 20:40:00 3.3 C 5.88 g/m*3 3.3 C 0 km/h
2989 14-01-2014 20:45:00 3.3 C 5.88 g/m*3 3.3 C 0 km/h
2990 14-01-2014 20:50:00 3.4 C 5.92 g/m*3 3.4 C 0 km/h
2991 14-01-2014 20:55:00 3.4 C 5.92 g/m*3 3.4 C 0 km/h
2992 14-01-2014 21:00:00 3.5 C 5.96 g/m*3 3.5 C 0 km/h
2993 14-01-2014 21:05:00 3.5 C 5.96 g/m*3 3.5 C 0 km/h
2994 14-01-2014 21:10:00 3.4 C 5.92 g/m*3 3.4 C 0 km/h
2995 14-01-2014 21:15:00 3.3 C 5.88 g/m*3 3.3 C 0 km/h
2996 14-01-2014 21:20:00 3.2 C 5.85 g/m*3 3.2 C 0 km/h
2997 14-01-2014 21:25:00 3.2 C 5.85 g/m*3 3.2 C 0 km/h
2998 14-01-2014 21:30:00 3.2 C 5.85 g/m*3 3.2 C 3.2 km/h
2999 14-01-2014 21:35:00 3.2 C 5.85 g/m*3 3.2 C 1.6 km/h
3000 14-01-2014 21:40:00 3.4 C 5.92 g/m*3 3.4 C 1.6 km/h
Sensor: Nr:Datum:Temp:Abs-Feuchte:Windchill:Wind:
Aussen-T/F 3001 14-01-2014 21:45:00 3.6 C 6 g/m*3 3.6 C 0 km/h
3002 14-01-2014 21:50:00 3.5 C 5.96 g/m*3 3.5 C 0 km/h
3003 14-01-2014 21:55:00 3.4 C 5.92 g/m*3 3.4 C 0 km/h
3004 14-01-2014 22:00:00 3.4 C 5.92 g/m*3 3.4 C 0 km/h
3005 14-01-2014 22:05:00 3.4 C 5.92 g/m*3 3.4 C 1.6 km/h
3006 14-01-2014 22:10:00 3.5 C 5.96 g/m*3 3.5 C 0 km/h
3007 14-01-2014 22:15:00 3.6 C 6 g/m*3 3.6 C 0 km/h
3008 14-01-2014 22:20:00 3.7 C 6.11 g/m*3 3.7 C 0 km/h
3009 14-01-2014 22:25:00 3.8 C 6.15 g/m*3 3.8 C 0 km/h
3010 14-01-2014 22:30:00 3.9 C 6.13 g/m*3 3.9 C 0 km/h
3011 14-01-2014 22:35:00 4 C 6.17 g/m*3 4 C 0 km/h
3012 14-01-2014 22:40:00 4.1 C 6.21 g/m*3 4.1 C 1.6 km/h
3013 14-01-2014 22:45:00 4.1 C 6.27 g/m*3 4.1 C 0 km/h
3014 14-01-2014 22:50:00 4.1 C 6.27 g/m*3 4.1 C 0 km/h
3015 14-01-2014 22:55:00 4.2 C 6.31 g/m*3 4.2 C 0 km/h
3016 14-01-2014 23:00:00 4.2 C 6.25 g/m*3 4.2 C 0 km/h
3017 14-01-2014 23:05:00 4.2 C 6.25 g/m*3 4.2 C 1.6 km/h
3018 14-01-2014 23:10:00 4.2 C 6.25 g/m*3 4.2 C 0 km/h
3019 14-01-2014 23:15:00 4.2 C 6.25 g/m*3 4.2 C 0 km/h
3020 14-01-2014 23:20:00 4.3 C 6.29 g/m*3 4.3 C 0 km/h
3021 14-01-2014 23:25:00 4.3 C 6.29 g/m*3 4.3 C 1.6 km/h
3022 14-01-2014 23:30:00 4.3 C 6.36 g/m*3 4.3 C 3.2 km/h
3023 14-01-2014 23:35:00 4.3 C 6.36 g/m*3 4.3 C 3.2 km/h
3024 14-01-2014 23:40:00 4.4 C 6.4 g/m*3 4.4 C 3.2 km/h
3025 14-01-2014 23:45:00 4.6 C 6.42 g/m*3 4.6 C 3.2 km/h
Sensor: Nr:Datum:Temp:Abs-Feuchte:Windchill:Wind:
Aussen-T/F 3026 14-01-2014 23:50:00 4.7 C 6.53 g/m*3 4.7 C 4.8 km/h
3027 14-01-2014 23:55:00 4.8 C 6.5 g/m*3 4.8 C 4.8 km/h
3028 15-01-2014 00:00:00 4.8 C 6.5 g/m*3 4.8 C 1.6 km/h
3029 15-01-2014 00:05:00 4.8 C 6.5 g/m*3 4.8 C 0 km/h
3030 15-01-2014 00:10:00 4.8 C 6.5 g/m*3 4.8 C 3.2 km/h
3031 15-01-2014 00:15:00 4.8 C 6.5 g/m*3 4.8 C 1.6 km/h
3032 15-01-2014 00:20:00 4.8 C 6.5 g/m*3 4.8 C 1.6 km/h
3033 15-01-2014 00:25:00 4.8 C 6.5 g/m*3 4.8 C 3.2 km/h
3034 15-01-2014 00:30:00 4.8 C 6.5 g/m*3 3.36 C 6.4 km/h
3035 15-01-2014 00:35:00 4.8 C 6.44 g/m*3 4.8 C 3.2 km/h
3036 15-01-2014 00:40:00 4.8 C 6.44 g/m*3 4.8 C 0 km/h
3037 15-01-2014 00:45:00 4.8 C 6.44 g/m*3 4.8 C 1.6 km/h
3038 15-01-2014 00:50:00 4.8 C 6.44 g/m*3 4.8 C 3.2 km/h
3039 15-01-2014 00:55:00 4.8 C 6.44 g/m*3 4.8 C 1.6 km/h
3040 15-01-2014 01:00:00 4.8 C 6.44 g/m*3 4.8 C 0 km/h
3041 15-01-2014 01:05:00 4.8 C 6.44 g/m*3 4.8 C 0 km/h
3042 15-01-2014 01:10:00 4.8 C 6.44 g/m*3 4.8 C 1.6 km/h
3043 15-01-2014 01:15:00 4.9 C 6.48 g/m*3 4.9 C 3.2 km/h
3044 15-01-2014 01:20:00 4.9 C 6.48 g/m*3 4.9 C 1.6 km/h
3045 15-01-2014 01:25:00 4.9 C 6.48 g/m*3 4.9 C 4.8 km/h
3046 15-01-2014 01:30:00 4.9 C 6.48 g/m*3 4.9 C 4.8 km/h
3047 15-01-2014 01:35:00 4.9 C 6.41 g/m*3 4.9 C 4.8 km/h
3048 15-01-2014 01:40:00 4.9 C 6.41 g/m*3 4.9 C 4.8 km/h
3049 15-01-2014 01:45:00 5 C 6.46 g/m*3 5 C 4.8 km/h
3050 15-01-2014 01:50:00 5 C 6.46 g/m*3 5 C 0 km/h
Sensor: Nr:Datum:Temp:Abs-Feuchte:Windchill:Wind:
Aussen-T/F 3051 15-01-2014 01:55:00 5 C 6.46 g/m*3 5 C 0 km/h
3052 15-01-2014 02:00:00 4.9 C 6.41 g/m*3 4.9 C 1.6 km/h
3053 15-01-2014 02:05:00 4.9 C 6.41 g/m*3 4.9 C 0 km/h
3054 15-01-2014 02:10:00 4.8 C 6.37 g/m*3 4.8 C 3.2 km/h
3055 15-01-2014 02:15:00 4.8 C 6.37 g/m*3 4.8 C 1.6 km/h
3056 15-01-2014 02:20:00 4.7 C 6.33 g/m*3 4.7 C 3.2 km/h
3057 15-01-2014 02:25:00 4.7 C 6.26 g/m*3 4.7 C 3.2 km/h
3058 15-01-2014 02:30:00 4.8 C 6.3 g/m*3 4.8 C 3.2 km/h
3059 15-01-2014 02:35:00 4.8 C 6.3 g/m*3 4.8 C 3.2 km/h
3060 15-01-2014 02:40:00 4.8 C 6.24 g/m*3 4.8 C 1.6 km/h
3061 15-01-2014 02:45:00 4.8 C 6.24 g/m*3 4.8 C 4.8 km/h
3062 15-01-2014 02:50:00 4.8 C 6.24 g/m*3 4.8 C 3.2 km/h
3063 15-01-2014 02:55:00 4.8 C 6.24 g/m*3 4.8 C 1.6 km/h
3064 15-01-2014 03:00:00 4.8 C 6.24 g/m*3 4.8 C 1.6 km/h
3065 15-01-2014 03:05:00 4.7 C 6.13 g/m*3 4.7 C 3.2 km/h
3066 15-01-2014 03:10:00 4.8 C 6.17 g/m*3 4.8 C 3.2 km/h
3067 15-01-2014 03:15:00 4.7 C 6.13 g/m*3 4.7 C 3.2 km/h
3068 15-01-2014 03:20:00 4.7 C 6.13 g/m*3 4.7 C 3.2 km/h
3069 15-01-2014 03:25:00 4.7 C 6.13 g/m*3 3.25 C 6.4 km/h
3070 15-01-2014 03:30:00 4.8 C 6.1 g/m*3 2.87 C 8.1 km/h
3071 15-01-2014 03:35:00 4.8 C 6.1 g/m*3 3.36 C 6.4 km/h
3072 15-01-2014 03:40:00 4.8 C 6.04 g/m*3 3.36 C 6.4 km/h
3073 15-01-2014 03:45:00 4.8 C 6.04 g/m*3 2.49 C 9.7 km/h
3074 15-01-2014 03:50:00 4.8 C 6.04 g/m*3 2.49 C 9.7 km/h
3075 15-01-2014 03:55:00 4.7 C 5.93 g/m*3 4.7 C 4.8 km/h
Sensor: Nr:Datum:Temp:Abs-Feuchte:Windchill:Wind:
Aussen-T/F 3076 15-01-2014 04:00:00 4.6 C 5.89 g/m*3 2.64 C 8.1 km/h
3077 15-01-2014 04:05:00 4.6 C 5.76 g/m*3 2.25 C 9.7 km/h
3078 15-01-2014 04:10:00 4.6 C 5.69 g/m*3 2.64 C 8.1 km/h
3079 15-01-2014 04:15:00 4.5 C 5.65 g/m*3 3.02 C 6.4 km/h
3080 15-01-2014 04:20:00 4.4 C 5.62 g/m*3 2.9 C 6.4 km/h
3081 15-01-2014 04:25:00 4.2 C 5.54 g/m*3 4.2 C 4.8 km/h
3082 15-01-2014 04:30:00 4.1 C 5.57 g/m*3 4.1 C 3.2 km/h
3083 15-01-2014 04:35:00 3.9 C 5.56 g/m*3 3.9 C 3.2 km/h
3084 15-01-2014 04:40:00 3.7 C 5.55 g/m*3 3.7 C 3.2 km/h
3085 15-01-2014 04:45:00 3.4 C 5.5 g/m*3 3.4 C 3.2 km/h
3086 15-01-2014 04:50:00 3.3 C 5.46 g/m*3 3.3 C 1.6 km/h
3087 15-01-2014 04:55:00 3.2 C 5.48 g/m*3 3.2 C 4.8 km/h
3088 15-01-2014 05:00:00 3.2 C 5.48 g/m*3 3.2 C 3.2 km/h
3089 15-01-2014 05:05:00 3.2 C 5.48 g/m*3 3.2 C 3.2 km/h
3090 15-01-2014 05:10:00 3.3 C 5.52 g/m*3 3.3 C 1.6 km/h
3091 15-01-2014 05:15:00 3.4 C 5.56 g/m*3 3.4 C 3.2 km/h
3092 15-01-2014 05:20:00 3.5 C 5.6 g/m*3 3.5 C 3.2 km/h
3093 15-01-2014 05:25:00 3.4 C 5.56 g/m*3 3.4 C 3.2 km/h
3094 15-01-2014 05:30:00 3.4 C 5.56 g/m*3 3.4 C 3.2 km/h
3095 15-01-2014 05:35:00 3.3 C 5.52 g/m*3 3.3 C 1.6 km/h
3096 15-01-2014 05:40:00 3.1 C 5.45 g/m*3 3.1 C 3.2 km/h
3097 15-01-2014 05:45:00 2.9 C 5.37 g/m*3 2.9 C 1.6 km/h
3098 15-01-2014 05:50:00 2.7 C 5.36 g/m*3 2.7 C 1.6 km/h
3099 15-01-2014 05:55:00 2.6 C 5.32 g/m*3 2.6 C 3.2 km/h
3100 15-01-2014 06:00:00 2.6 C 5.38 g/m*3 2.6 C 1.6 km/h
Sensor: Nr:Datum:Temp:Abs-Feuchte:Windchill:Wind:
Aussen-T/F 3101 15-01-2014 06:05:00 2.6 C 5.32 g/m*3 2.6 C 1.6 km/h
3102 15-01-2014 06:10:00 2.4 C 5.31 g/m*3 2.4 C 1.6 km/h
3103 15-01-2014 06:15:00 2.4 C 5.31 g/m*3 2.4 C 0 km/h
3104 15-01-2014 06:20:00 2.3 C 5.27 g/m*3 2.3 C 1.6 km/h
3105 15-01-2014 06:25:00 2.1 C 5.2 g/m*3 2.1 C 1.6 km/h
3106 15-01-2014 06:30:00 2.1 C 5.2 g/m*3 2.1 C 1.6 km/h
3107 15-01-2014 06:35:00 1.9 C 5.19 g/m*3 1.9 C 1.6 km/h
3108 15-01-2014 06:40:00 1.8 C 5.15 g/m*3 1.8 C 1.6 km/h
3109 15-01-2014 06:45:00 1.8 C 5.15 g/m*3 1.8 C 1.6 km/h
3110 15-01-2014 06:50:00 1.7 C 5.12 g/m*3 1.7 C 0 km/h
3111 15-01-2014 06:55:00 1.6 C 5.08 g/m*3 1.6 C 3.2 km/h
3112 15-01-2014 07:00:00 1.7 C 5.12 g/m*3 1.7 C 3.2 km/h
3113 15-01-2014 07:05:00 1.6 C 5.08 g/m*3 1.6 C 1.6 km/h
3114 15-01-2014 07:10:00 1.6 C 5.08 g/m*3 1.6 C 3.2 km/h
3115 15-01-2014 07:15:00 1.6 C 5.14 g/m*3 1.6 C 3.2 km/h
3116 15-01-2014 07:20:00 1.6 C 5.14 g/m*3 1.6 C 1.6 km/h
3117 15-01-2014 07:25:00 1.6 C 5.14 g/m*3 1.6 C 3.2 km/h
3118 15-01-2014 07:30:00 1.6 C 5.14 g/m*3 1.6 C 1.6 km/h
3119 15-01-2014 07:35:00 1.5 C 5.05 g/m*3 1.5 C 1.6 km/h
3120 15-01-2014 07:40:00 1.4 C 5.07 g/m*3 1.4 C 1.6 km/h
3121 15-01-2014 07:45:00 1.4 C 5.07 g/m*3 1.4 C 3.2 km/h
3122 15-01-2014 07:50:00 1.6 C 5.14 g/m*3 1.6 C 3.2 km/h
3123 15-01-2014 07:55:00 1.6 C 5.14 g/m*3 1.6 C 3.2 km/h
3124 15-01-2014 08:00:00 1.7 C 5.17 g/m*3 1.7 C 1.6 km/h
3125 15-01-2014 08:05:00 1.7 C 5.17 g/m*3 1.7 C 1.6 km/h
Sensor: Nr:Datum:Temp:Abs-Feuchte:Windchill:Wind:
Aussen-T/F 3126 15-01-2014 08:10:00 1.7 C 5.17 g/m*3 1.7 C 1.6 km/h
3127 15-01-2014 08:15:00 1.7 C 5.17 g/m*3 1.7 C 0 km/h
3128 15-01-2014 08:20:00 1.7 C 5.17 g/m*3 1.7 C 0 km/h
3129 15-01-2014 08:25:00 1.7 C 5.17 g/m*3 1.7 C 0 km/h
3130 15-01-2014 08:30:00 1.7 C 5.17 g/m*3 1.7 C 0 km/h
3131 15-01-2014 08:35:00 1.7 C 5.17 g/m*3 1.7 C 0 km/h
3132 15-01-2014 08:40:00 1.7 C 5.17 g/m*3 1.7 C 0 km/h
3133 15-01-2014 08:45:00 1.8 C 5.21 g/m*3 1.8 C 0 km/h
3134 15-01-2014 08:50:00 1.9 C 5.3 g/m*3 1.9 C 0 km/h
3135 15-01-2014 08:55:00 1.9 C 5.3 g/m*3 1.9 C 0 km/h
3136 15-01-2014 09:00:00 2 C 5.33 g/m*3 2 C 0 km/h
3137 15-01-2014 09:05:00 2.1 C 5.37 g/m*3 2.1 C 0 km/h
3138 15-01-2014 09:10:00 2.1 C 5.37 g/m*3 2.1 C 0 km/h
3139 15-01-2014 09:15:00 2.2 C 5.41 g/m*3 2.2 C 0 km/h
3140 15-01-2014 09:20:00 2.2 C 5.41 g/m*3 2.2 C 0 km/h
3141 15-01-2014 09:25:00 2.2 C 5.41 g/m*3 2.2 C 0 km/h
3142 15-01-2014 09:30:00 2.2 C 5.41 g/m*3 2.2 C 0 km/h
3143 15-01-2014 09:35:00 2.3 C 5.39 g/m*3 2.3 C 0 km/h
3144 15-01-2014 09:40:00 2.3 C 5.39 g/m*3 2.3 C 0 km/h
3145 15-01-2014 09:45:00 2.4 C 5.42 g/m*3 2.4 C 0 km/h
3146 15-01-2014 09:50:00 2.6 C 5.56 g/m*3 2.6 C 0 km/h
3147 15-01-2014 09:55:00 2.7 C 5.59 g/m*3 2.7 C 0 km/h
3148 15-01-2014 10:00:00 2.8 C 5.57 g/m*3 2.8 C 1.6 km/h
3149 15-01-2014 10:05:00 2.9 C 5.61 g/m*3 2.9 C 0 km/h
3150 15-01-2014 10:10:00 2.9 C 5.61 g/m*3 2.9 C 1.6 km/h
Sensor: Nr:Datum:Temp:Abs-Feuchte:Windchill:Wind:
Aussen-T/F 3151 15-01-2014 10:15:00 3.1 C 5.63 g/m*3 3.1 C 0 km/h
3152 15-01-2014 10:20:00 3.2 C 5.66 g/m*3 3.2 C 0 km/h
3153 15-01-2014 10:25:00 3.4 C 5.68 g/m*3 3.4 C 1.6 km/h
3154 15-01-2014 10:30:00 3.6 C 5.69 g/m*3 3.6 C 3.2 km/h
3155 15-01-2014 10:35:00 3.7 C 5.67 g/m*3 3.7 C 1.6 km/h
3156 15-01-2014 10:40:00 3.8 C 5.65 g/m*3 3.8 C 1.6 km/h
3157 15-01-2014 10:45:00 3.9 C 5.75 g/m*3 3.9 C 1.6 km/h
3158 15-01-2014 10:50:00 4.1 C 5.76 g/m*3 4.1 C 1.6 km/h
3159 15-01-2014 10:55:00 4.1 C 5.7 g/m*3 4.1 C 0 km/h
3160 15-01-2014 11:00:00 4.2 C 5.73 g/m*3 4.2 C 3.2 km/h
3161 15-01-2014 11:05:00 4.3 C 5.77 g/m*3 4.3 C 1.6 km/h
3162 15-01-2014 11:10:00 4.4 C 5.75 g/m*3 4.4 C 3.2 km/h
3163 15-01-2014 11:15:00 4.4 C 5.68 g/m*3 4.4 C 1.6 km/h
3164 15-01-2014 11:20:00 4.6 C 5.76 g/m*3 4.6 C 1.6 km/h
3165 15-01-2014 11:25:00 4.6 C 5.76 g/m*3 4.6 C 1.6 km/h
3166 15-01-2014 11:30:00 4.7 C 5.8 g/m*3 4.7 C 3.2 km/h
3167 15-01-2014 11:35:00 4.7 C 5.73 g/m*3 4.7 C 0 km/h
3168 15-01-2014 11:40:00 4.8 C 5.83 g/m*3 4.8 C 0 km/h
3169 15-01-2014 11:45:00 4.8 C 5.83 g/m*3 4.8 C 0 km/h
3170 15-01-2014 11:50:00 4.9 C 5.81 g/m*3 4.9 C 3.2 km/h
3171 15-01-2014 11:55:00 5 C 5.84 g/m*3 5 C 3.2 km/h
3172 15-01-2014 12:00:00 5.1 C 5.95 g/m*3 5.1 C 1.6 km/h
3173 15-01-2014 12:05:00 5.2 C 5.78 g/m*3 3.82 C 6.4 km/h
3174 15-01-2014 12:10:00 5.3 C 5.75 g/m*3 3.46 C 8.1 km/h
3175 15-01-2014 12:15:00 5.4 C 5.86 g/m*3 5.4 C 3.2 km/h
Sensor: Nr:Datum:Temp:Abs-Feuchte:Windchill:Wind:
Aussen-T/F 3176 15-01-2014 12:20:00 5.5 C 5.9 g/m*3 5.5 C 3.2 km/h
3177 15-01-2014 12:25:00 5.6 C 5.87 g/m*3 4.29 C 6.4 km/h
3178 15-01-2014 12:30:00 5.6 C 5.94 g/m*3 5.6 C 3.2 km/h
3179 15-01-2014 12:35:00 5.7 C 5.98 g/m*3 5.7 C 4.8 km/h
3180 15-01-2014 12:40:00 5.7 C 5.98 g/m*3 5.7 C 3.2 km/h
3181 15-01-2014 12:45:00 5.8 C 6.02 g/m*3 4.52 C 6.4 km/h
3182 15-01-2014 12:50:00 5.8 C 5.95 g/m*3 5.8 C 1.6 km/h
3183 15-01-2014 12:55:00 5.9 C 5.98 g/m*3 5.9 C 4.8 km/h
3184 15-01-2014 13:00:00 5.9 C 5.98 g/m*3 5.9 C 4.8 km/h
3185 15-01-2014 13:05:00 5.9 C 5.98 g/m*3 4.63 C 6.4 km/h
3186 15-01-2014 13:10:00 5.9 C 5.91 g/m*3 3.8 C 9.7 km/h
3187 15-01-2014 13:15:00 5.9 C 5.91 g/m*3 5.9 C 4.8 km/h
3188 15-01-2014 13:20:00 5.9 C 5.91 g/m*3 5.9 C 3.2 km/h
3189 15-01-2014 13:25:00 5.9 C 5.91 g/m*3 4.63 C 6.4 km/h
3190 15-01-2014 13:30:00 5.9 C 5.84 g/m*3 2.93 C 14.5 km/h
3191 15-01-2014 13:35:00 6 C 5.95 g/m*3 3.06 C 14.5 km/h
3192 15-01-2014 13:40:00 6 C 5.95 g/m*3 3.92 C 9.7 km/h
3193 15-01-2014 13:45:00 5.9 C 5.98 g/m*3 4.17 C 8.1 km/h
3194 15-01-2014 13:50:00 5.8 C 5.95 g/m*3 3.36 C 11.3 km/h
3195 15-01-2014 13:55:00 5.7 C 5.98 g/m*3 4.4 C 6.4 km/h
3196 15-01-2014 14:00:00 5.6 C 5.94 g/m*3 3.44 C 9.7 km/h
3197 15-01-2014 14:05:00 5.6 C 6.01 g/m*3 3.81 C 8.1 km/h
3198 15-01-2014 14:10:00 5.5 C 5.97 g/m*3 4.17 C 6.4 km/h
3199 15-01-2014 14:15:00 5.5 C 6.04 g/m*3 5.5 C 3.2 km/h
3200 15-01-2014 14:20:00 5.5 C 6.04 g/m*3 4.17 C 6.4 km/h
Sensor: Nr:Datum:Temp:Abs-Feuchte:Windchill:Wind:
Aussen-T/F 3201 15-01-2014 14:25:00 5.4 C 6 g/m*3 3.58 C 8.1 km/h
3202 15-01-2014 14:30:00 5.3 C 5.96 g/m*3 3.94 C 6.4 km/h
3203 15-01-2014 14:35:00 5.3 C 6.03 g/m*3 5.3 C 4.8 km/h
3204 15-01-2014 14:40:00 5.2 C 5.99 g/m*3 5.2 C 4.8 km/h
3205 15-01-2014 14:45:00 5.2 C 6.06 g/m*3 5.2 C 4.8 km/h
3206 15-01-2014 14:50:00 5.1 C 6.02 g/m*3 5.1 C 4.8 km/h
3207 15-01-2014 14:55:00 5.1 C 6.09 g/m*3 5.1 C 0 km/h
3208 15-01-2014 15:00:00 5.1 C 6.09 g/m*3 5.1 C 0 km/h
3209 15-01-2014 15:05:00 5 C 6.12 g/m*3 5 C 1.6 km/h
3210 15-01-2014 15:10:00 4.9 C 6.08 g/m*3 4.9 C 1.6 km/h
3211 15-01-2014 15:15:00 4.9 C 6.14 g/m*3 4.9 C 1.6 km/h
3212 15-01-2014 15:20:00 4.8 C 6.1 g/m*3 4.8 C 4.8 km/h
3213 15-01-2014 15:25:00 4.8 C 6.1 g/m*3 4.8 C 0 km/h
3214 15-01-2014 15:30:00 4.8 C 6.1 g/m*3 4.8 C 1.6 km/h
3215 15-01-2014 15:35:00 4.8 C 6.17 g/m*3 4.8 C 3.2 km/h
3216 15-01-2014 15:40:00 4.7 C 6.13 g/m*3 4.7 C 1.6 km/h
3217 15-01-2014 15:45:00 4.7 C 6.13 g/m*3 4.7 C 0 km/h
3218 15-01-2014 15:50:00 4.7 C 6.19 g/m*3 4.7 C 4.8 km/h
3219 15-01-2014 15:55:00 4.6 C 6.09 g/m*3 4.6 C 1.6 km/h
3220 15-01-2014 16:00:00 4.6 C 6.09 g/m*3 4.6 C 0 km/h
3221 15-01-2014 16:05:00 4.6 C 6.09 g/m*3 4.6 C